Wetterdaten: Samstag, 20.02.2016
Datum Zeit Auen-Temp. Temp gefhlt Luftfeuchte Luftdruck Regen Wind Richtung Richtung Sonnenschein Taupunkt Windben
20.02.2016 00:00 -1,6 C -2,1 C 82 % 1023,3 hPa 0,0 mm 5,7 km/h (1 Bft) W 270 0 min -4,3 C 3,9 km/h (1 Bft)
20.02.2016 00:01 -1,6 C -2,0 C 82 % 1023,3 hPa 0,0 mm 4,5 km/h (1 Bft) N-NW 337 0 min -4,3 C 0,0 km/h (0 Bft)
20.02.2016 00:02 -1,6 C -2,0 C 82 % 1023,3 hPa 0,0 mm 4,5 km/h (1 Bft) N-NW 337 0 min -4,3 C 0,0 km/h (0 Bft)
20.02.2016 00:03 -1,6 C -2,0 C 82 % 1023,2 hPa 0,0 mm 4,5 km/h (1 Bft) N-NW 337 0 min -4,3 C 0,0 km/h (0 Bft)
20.02.2016 00:04 -1,6 C -2,0 C 82 % 1023,2 hPa 0,0 mm 4,5 km/h (1 Bft) N-NW 337 0 min -4,3 C 0,0 km/h (0 Bft)
20.02.2016 00:05 -1,6 C -1,9 C 82 % 1023,2 hPa 0,0 mm 1,2 km/h (1 Bft) W-SW 247 0 min -4,3 C 0,0 km/h (0 Bft)
20.02.2016 00:06 -1,6 C -1,9 C 82 % 1023,2 hPa 0,0 mm 1,2 km/h (1 Bft) W-SW 247 0 min -4,3 C 0,0 km/h (0 Bft)
20.02.2016 00:07 -1,6 C -2,0 C 82 % 1023,2 hPa 0,0 mm 0,9 km/h (0 Bft) W-SW 247 0 min -4,3 C 0,0 km/h (0 Bft)
20.02.2016 00:08 -1,6 C -2,0 C 82 % 1023,2 hPa 0,0 mm 0,9 km/h (0 Bft) W-SW 247 0 min -4,3 C 0,0 km/h (0 Bft)
20.02.2016 00:09 -1,6 C -2,0 C 82 % 1023,2 hPa 0,0 mm 0,9 km/h (0 Bft) W-SW 247 0 min -4,3 C 0,0 km/h (0 Bft)
20.02.2016 00:10 -1,6 C -2,0 C 82 % 1023,2 hPa 0,0 mm 0,9 km/h (0 Bft) W-SW 247 0 min -4,3 C 0,0 km/h (0 Bft)
20.02.2016 00:11 -1,6 C -2,0 C 82 % 1023,2 hPa 0,0 mm 0,3 km/h (0 Bft) S 180 0 min -4,3 C 0,0 km/h (0 Bft)
20.02.2016 00:12 -1,6 C -2,0 C 82 % 1023,2 hPa 0,0 mm 0,3 km/h (0 Bft) S 180 0 min -4,3 C 0,0 km/h (0 Bft)
20.02.2016 00:13 -2,0 C -2,3 C 81 % 1023,2 hPa 0,0 mm 0,3 km/h (0 Bft) S 180 0 min -4,8 C 0,0 km/h (0 Bft)
20.02.2016 00:14 -2,0 C -2,3 C 81 % 1023,2 hPa 0,0 mm 0,3 km/h (0 Bft) S 180 0 min -4,8 C 0,0 km/h (0 Bft)
20.02.2016 00:15 -2,0 C -2,4 C 81 % 1023,2 hPa 0,0 mm 0,3 km/h (0 Bft) SW 225 0 min -4,8 C 0,0 km/h (0 Bft)
20.02.2016 00:16 -2,0 C -2,4 C 81 % 1023,2 hPa 0,0 mm 0,3 km/h (0 Bft) SW 225 0 min -4,8 C 0,0 km/h (0 Bft)
20.02.2016 00:17 -2,1 C -2,5 C 81 % 1023,2 hPa 0,0 mm 0,3 km/h (0 Bft) S-SW 202 0 min -4,9 C 0,0 km/h (0 Bft)
20.02.2016 00:18 -2,1 C -2,5 C 81 % 1023,2 hPa 0,0 mm 0,3 km/h (0 Bft) S-SW 202 0 min -4,9 C 0,0 km/h (0 Bft)
20.02.2016 00:19 -2,1 C -2,5 C 81 % 1023,2 hPa 0,0 mm 0,6 km/h (0 Bft) W 270 0 min -4,9 C 0,0 km/h (0 Bft)
20.02.2016 00:20 -2,1 C -2,5 C 81 % 1023,2 hPa 0,0 mm 0,6 km/h (0 Bft) W 270 0 min -4,9 C 0,0 km/h (0 Bft)
20.02.2016 00:21 -2,1 C -2,5 C 81 % 1023,2 hPa 0,0 mm 0,6 km/h (0 Bft) O-SO 112 0 min -4,9 C 0,0 km/h (0 Bft)
20.02.2016 00:22 -2,1 C -2,5 C 81 % 1023,2 hPa 0,0 mm 0,6 km/h (0 Bft) O-SO 112 0 min -4,9 C 0,0 km/h (0 Bft)
20.02.2016 00:23 -2,1 C -2,5 C 81 % 1023,1 hPa 0,0 mm 1,2 km/h (1 Bft) S-SW 202 0 min -4,9 C 8,9 km/h (2 Bft)
20.02.2016 00:24 -2,1 C -2,5 C 81 % 1023,1 hPa 0,0 mm 1,2 km/h (1 Bft) S-SW 202 0 min -4,9 C 8,9 km/h (2 Bft)
20.02.2016 00:25 -2,1 C -2,5 C 82 % 1023,1 hPa 0,0 mm 2,1 km/h (1 Bft) SW 225 0 min -4,7 C 5,7 km/h (1 Bft)
20.02.2016 00:26 -2,1 C -2,5 C 82 % 1023,1 hPa 0,0 mm 2,1 km/h (1 Bft) SW 225 0 min -4,7 C 5,7 km/h (1 Bft)
20.02.2016 00:27 -2,1 C -2,5 C 82 % 1023,1 hPa 0,0 mm 2,1 km/h (1 Bft) SW 225 0 min -4,7 C 3,0 km/h (1 Bft)
20.02.2016 00:28 -2,1 C -2,5 C 82 % 1023,1 hPa 0,0 mm 2,1 km/h (1 Bft) SW 225 0 min -4,7 C 3,0 km/h (1 Bft)
20.02.2016 00:29 -2,1 C -2,5 C 82 % 1023,1 hPa 0,0 mm 2,4 km/h (1 Bft) W-SW 247 0 min -4,7 C 3,9 km/h (1 Bft)
20.02.2016 00:30 -2,1 C -2,5 C 82 % 1023,1 hPa 0,0 mm 2,4 km/h (1 Bft) W-SW 247 0 min -4,7 C 3,9 km/h (1 Bft)
20.02.2016 00:31 -2,0 C -2,4 C 82 % 1023,1 hPa 0,0 mm 2,7 km/h (1 Bft) S 180 0 min -4,7 C 0,0 km/h (0 Bft)
20.02.2016 00:32 -2,0 C -2,4 C 82 % 1023,1 hPa 0,0 mm 2,7 km/h (1 Bft) S 180 0 min -4,7 C 0,0 km/h (0 Bft)
20.02.2016 00:33 -2,0 C -2,4 C 82 % 1023,1 hPa 0,0 mm 2,4 km/h (1 Bft) SW 225 0 min -4,7 C 0,0 km/h (0 Bft)
20.02.2016 00:34 -2,0 C -2,4 C 82 % 1023,1 hPa 0,0 mm 2,4 km/h (1 Bft) SW 225 0 min -4,7 C 0,0 km/h (0 Bft)
20.02.2016 00:35 -2,1 C -2,5 C 82 % 1023,1 hPa 0,0 mm 1,5 km/h (1 Bft) O-SO 112 0 min -4,7 C 0,0 km/h (0 Bft)
20.02.2016 00:36 -2,1 C -2,5 C 82 % 1023,1 hPa 0,0 mm 1,5 km/h (1 Bft) O-SO 112 0 min -4,7 C 0,0 km/h (0 Bft)
20.02.2016 00:37 -2,3 C -2,7 C 82 % 1023,1 hPa 0,0 mm 0,9 km/h (0 Bft) SW 225 0 min -4,9 C 4,2 km/h (1 Bft)
20.02.2016 00:38 -2,3 C -2,7 C 82 % 1023,1 hPa 0,0 mm 0,9 km/h (0 Bft) SW 225 0 min -4,9 C 4,2 km/h (1 Bft)
20.02.2016 00:39 -2,3 C -2,7 C 82 % 1023,1 hPa 0,0 mm 0,9 km/h (0 Bft) SO 135 0 min -4,9 C 0,0 km/h (0 Bft)
20.02.2016 00:40 -2,3 C -2,7 C 82 % 1023,1 hPa 0,0 mm 0,9 km/h (0 Bft) SO 135 0 min -4,9 C 0,0 km/h (0 Bft)
20.02.2016 00:41 -2,3 C -2,7 C 82 % 1023,1 hPa 0,0 mm 0,6 km/h (0 Bft) W-SW 247 0 min -4,9 C 0,0 km/h (0 Bft)
20.02.2016 00:42 -2,3 C -2,7 C 82 % 1023,1 hPa 0,0 mm 0,6 km/h (0 Bft) W-SW 247 0 min -4,9 C 0,0 km/h (0 Bft)
20.02.2016 00:43 -2,3 C -2,8 C 82 % 1023,0 hPa 0,0 mm 0,9 km/h (0 Bft) S-SW 202 0 min -4,9 C 6,3 km/h (2 Bft)
20.02.2016 00:44 -2,3 C -2,8 C 82 % 1023,0 hPa 0,0 mm 0,9 km/h (0 Bft) S-SW 202 0 min -4,9 C 6,3 km/h (2 Bft)
20.02.2016 00:45 -2,4 C -2,9 C 82 % 1023,0 hPa 0,0 mm 1,8 km/h (1 Bft) SW 225 0 min -5,0 C 7,2 km/h (2 Bft)
20.02.2016 00:46 -2,4 C -2,9 C 82 % 1023,0 hPa 0,0 mm 1,8 km/h (1 Bft) SW 225 0 min -5,0 C 7,2 km/h (2 Bft)
20.02.2016 00:47 -2,4 C -2,8 C 82 % 1023,0 hPa 0,0 mm 2,4 km/h (1 Bft) SW 225 0 min -5,0 C 4,8 km/h (1 Bft)
20.02.2016 00:48 -2,4 C -2,8 C 82 % 1023,0 hPa 0,0 mm 2,4 km/h (1 Bft) SW 225 0 min -5,0 C 4,8 km/h (1 Bft)
20.02.2016 00:49 -2,4 C -2,9 C 82 % 1023,0 hPa 0,0 mm 2,4 km/h (1 Bft) W-SW 247 0 min -5,0 C 5,4 km/h (1 Bft)
20.02.2016 00:50 -2,4 C -2,9 C 82 % 1023,0 hPa 0,0 mm 2,4 km/h (1 Bft) W-SW 247 0 min -5,0 C 5,4 km/h (1 Bft)
20.02.2016 00:51 -2,4 C -2,9 C 82 % 1023,0 hPa 0,0 mm 3,3 km/h (1 Bft) SW 225 0 min -5,0 C 6,9 km/h (2 Bft)
20.02.2016 00:52 -2,4 C -2,9 C 82 % 1023,0 hPa 0,0 mm 3,3 km/h (1 Bft) SW 225 0 min -5,0 C 6,9 km/h (2 Bft)
20.02.2016 00:53 -2,4 C -2,9 C 82 % 1023,0 hPa 0,0 mm 4,5 km/h (1 Bft) SW 225 0 min -5,0 C 5,1 km/h (1 Bft)
20.02.2016 00:54 -2,4 C -2,9 C 82 % 1023,0 hPa 0,0 mm 4,5 km/h (1 Bft) SW 225 0 min -5,0 C 5,1 km/h (1 Bft)
20.02.2016 00:55 -2,4 C -2,8 C 82 % 1023,0 hPa 0,0 mm 3,9 km/h (1 Bft) S-SO 157 0 min -5,0 C 0,0 km/h (0 Bft)
20.02.2016 00:56 -2,4 C -2,8 C 82 % 1023,0 hPa 0,0 mm 3,9 km/h (1 Bft) S-SO 157 0 min -5,0 C 0,0 km/h (0 Bft)
20.02.2016 00:57 -2,4 C -2,8 C 82 % 1023,0 hPa 0,0 mm 3,3 km/h (1 Bft) O 90 0 min -5,0 C 0,0 km/h (0 Bft)
20.02.2016 00:58 -2,4 C -2,8 C 82 % 1023,0 hPa 0,0 mm 3,3 km/h (1 Bft) O 90 0 min -5,0 C 0,0 km/h (0 Bft)
20.02.2016 00:59 -2,5 C -3,0 C 82 % 1023,0 hPa 0,0 mm 3,0 km/h (1 Bft) SW 225 0 min -5,1 C 4,5 km/h (1 Bft)
20.02.2016 01:00 -2,5 C -3,0 C 82 % 1023,0 hPa 0,0 mm 3,0 km/h (1 Bft) SW 225 0 min -5,1 C 4,5 km/h (1 Bft)
20.02.2016 01:01 -2,5 C -3,0 C 82 % 1023,0 hPa 0,0 mm 2,1 km/h (1 Bft) SO 135 0 min -5,1 C 0,0 km/h (0 Bft)
20.02.2016 01:02 -2,5 C -3,0 C 82 % 1023,0 hPa 0,0 mm 2,1 km/h (1 Bft) SO 135 0 min -5,1 C 0,0 km/h (0 Bft)
20.02.2016 01:03 -2,5 C -3,0 C 82 % 1023,1 hPa 0,0 mm 1,2 km/h (1 Bft) O-NO 67 0 min -5,1 C 0,0 km/h (0 Bft)
20.02.2016 01:04 -2,5 C -3,0 C 82 % 1023,1 hPa 0,0 mm 1,2 km/h (1 Bft) O-NO 67 0 min -5,1 C 0,0 km/h (0 Bft)
20.02.2016 01:05 -2,7 C -3,2 C 82 % 1023,1 hPa 0,0 mm 1,2 km/h (1 Bft) N-NO 22 0 min -5,3 C 4,2 km/h (1 Bft)
20.02.2016 01:06 -2,7 C -3,2 C 82 % 1023,1 hPa 0,0 mm 1,2 km/h (1 Bft) N-NO 22 0 min -5,3 C 4,2 km/h (1 Bft)
20.02.2016 01:07 -3,0 C -3,4 C 81 % 1023,1 hPa 0,0 mm 1,2 km/h (1 Bft) NO 45 0 min -5,8 C 0,0 km/h (0 Bft)
20.02.2016 01:08 -3,0 C -3,4 C 81 % 1023,1 hPa 0,0 mm 1,2 km/h (1 Bft) NO 45 0 min -5,8 C 0,0 km/h (0 Bft)
20.02.2016 01:09 -3,3 C -3,6 C 81 % 1023,1 hPa 0,0 mm 1,2 km/h (1 Bft) N-NO 22 0 min -6,1 C 0,0 km/h (0 Bft)
20.02.2016 01:10 -3,3 C -3,6 C 81 % 1023,1 hPa 0,0 mm 1,2 km/h (1 Bft) N-NO 22 0 min -6,1 C 0,0 km/h (0 Bft)
20.02.2016 01:11 -3,4 C -3,8 C 81 % 1023,1 hPa 0,0 mm 0,9 km/h (0 Bft) O-NO 67 0 min -6,2 C 0,0 km/h (0 Bft)
20.02.2016 01:12 -3,4 C -3,8 C 81 % 1023,1 hPa 0,0 mm 0,9 km/h (0 Bft) O-NO 67 0 min -6,2 C 0,0 km/h (0 Bft)
20.02.2016 01:13 -3,4 C -3,8 C 81 % 1023,1 hPa 0,0 mm 0,9 km/h (0 Bft) SO 135 0 min -6,2 C 0,0 km/h (0 Bft)
20.02.2016 01:14 -3,4 C -3,8 C 81 % 1023,1 hPa 0,0 mm 0,9 km/h (0 Bft) SO 135 0 min -6,2 C 0,0 km/h (0 Bft)
20.02.2016 01:15 -3,2 C -3,7 C 81 % 1023,1 hPa 0,0 mm 0,6 km/h (0 Bft) SO 135 0 min -6,0 C 3,3 km/h (1 Bft)
20.02.2016 01:16 -3,2 C -3,7 C 81 % 1023,1 hPa 0,0 mm 0,6 km/h (0 Bft) SO 135 0 min -6,0 C 3,3 km/h (1 Bft)
20.02.2016 01:17 -3,1 C -3,7 C 82 % 1023,1 hPa 0,0 mm 0,3 km/h (0 Bft) S-SO 157 0 min -5,7 C 0,0 km/h (0 Bft)
20.02.2016 01:18 -3,1 C -3,7 C 82 % 1023,1 hPa 0,0 mm 0,3 km/h (0 Bft) S-SO 157 0 min -5,7 C 0,0 km/h (0 Bft)
20.02.2016 01:19 -3,0 C -3,6 C 82 % 1023,1 hPa 0,0 mm 0,3 km/h (0 Bft) S 180 0 min -5,6 C 0,0 km/h (0 Bft)
20.02.2016 01:20 -3,0 C -3,6 C 82 % 1023,1 hPa 0,0 mm 0,3 km/h (0 Bft) S 180 0 min -5,6 C 0,0 km/h (0 Bft)
20.02.2016 01:21 -3,1 C -3,7 C 82 % 1023,1 hPa 0,0 mm 0,3 km/h (0 Bft) O-NO 67 0 min -5,7 C 0,0 km/h (0 Bft)
20.02.2016 01:22 -3,1 C -3,7 C 82 % 1023,1 hPa 0,0 mm 0,3 km/h (0 Bft) O-NO 67 0 min -5,7 C 0,0 km/h (0 Bft)
20.02.2016 01:23 -3,1 C -3,7 C 82 % 1023,2 hPa 0,0 mm 0,3 km/h (0 Bft) SO 135 0 min -5,7 C 0,0 km/h (0 Bft)
20.02.2016 01:24 -3,1 C -3,7 C 82 % 1023,2 hPa 0,0 mm 0,3 km/h (0 Bft) SO 135 0 min -5,7 C 0,0 km/h (0 Bft)
20.02.2016 01:25 -3,2 C -3,7 C 79 % 1023,2 hPa 0,0 mm 0,3 km/h (0 Bft) SO 135 0 min -6,3 C 0,0 km/h (0 Bft)
20.02.2016 01:26 -3,2 C -3,7 C 79 % 1023,2 hPa 0,0 mm 0,3 km/h (0 Bft) SO 135 0 min -6,3 C 0,0 km/h (0 Bft)
20.02.2016 01:27 -3,2 C -3,7 C 79 % 1023,2 hPa 0,0 mm 0,0 km/h (0 Bft) SO 135 0 min -6,3 C 0,0 km/h (0 Bft)
20.02.2016 01:28 -3,2 C -3,7 C 79 % 1023,2 hPa 0,0 mm 0,0 km/h (0 Bft) SO 135 0 min -6,3 C 0,0 km/h (0 Bft)
20.02.2016 01:29 -3,2 C -3,8 C 83 % 1023,2 hPa 0,0 mm 0,0 km/h (0 Bft) O-SO 112 0 min -5,7 C 0,0 km/h (0 Bft)
20.02.2016 01:30 -3,2 C -3,8 C 83 % 1023,2 hPa 0,0 mm 0,0 km/h (0 Bft) O-SO 112 0 min -5,7 C 0,0 km/h (0 Bft)
20.02.2016 01:31 -3,1 C -3,8 C 83 % 1023,2 hPa 0,0 mm 0,0 km/h (0 Bft) SO 135 0 min -5,6 C 0,0 km/h (0 Bft)
20.02.2016 01:32 -3,1 C -3,8 C 83 % 1023,2 hPa 0,0 mm 0,0 km/h (0 Bft) SO 135 0 min -5,6 C 0,0 km/h (0 Bft)
20.02.2016 01:33 -3,1 C -3,8 C 83 % 1023,2 hPa 0,0 mm 0,0 km/h (0 Bft) SO 135 0 min -5,6 C 0,0 km/h (0 Bft)
20.02.2016 01:34 -3,1 C -3,8 C 83 % 1023,2 hPa 0,0 mm 0,0 km/h (0 Bft) SO 135 0 min -5,6 C 0,0 km/h (0 Bft)
20.02.2016 01:35 -3,1 C -3,8 C 83 % 1023,2 hPa 0,0 mm 0,0 km/h (0 Bft) SO 135 0 min -5,6 C 0,0 km/h (0 Bft)
20.02.2016 01:36 -3,1 C -3,8 C 83 % 1023,2 hPa 0,0 mm 0,0 km/h (0 Bft) SO 135 0 min -5,6 C 0,0 km/h (0 Bft)
20.02.2016 01:37 -3,1 C -3,8 C 83 % 1023,2 hPa 0,0 mm 0,0 km/h (0 Bft) S-SO 157 0 min -5,6 C 0,0 km/h (0 Bft)
20.02.2016 01:38 -3,1 C -3,8 C 83 % 1023,2 hPa 0,0 mm 0,0 km/h (0 Bft) S-SO 157 0 min -5,6 C 0,0 km/h (0 Bft)
20.02.2016 01:39 -3,0 C -3,7 C 83 % 1023,2 hPa 0,0 mm 0,0 km/h (0 Bft) S 180 0 min -5,5 C 0,0 km/h (0 Bft)
20.02.2016 01:40 -3,0 C -3,7 C 83 % 1023,2 hPa 0,0 mm 0,0 km/h (0 Bft) S 180 0 min -5,5 C 0,0 km/h (0 Bft)
20.02.2016 01:41 -2,9 C -3,6 C 83 % 1023,2 hPa 0,0 mm 0,0 km/h (0 Bft) S-SO 157 0 min -5,4 C 0,0 km/h (0 Bft)
20.02.2016 01:42 -2,9 C -3,6 C 83 % 1023,2 hPa 0,0 mm 0,0 km/h (0 Bft) S-SO 157 0 min -5,4 C 0,0 km/h (0 Bft)
20.02.2016 01:43 -2,9 C -3,5 C 83 % 1023,4 hPa 0,0 mm 0,0 km/h (0 Bft) SO 135 0 min -5,4 C 0,0 km/h (0 Bft)
20.02.2016 01:44 -2,9 C -3,5 C 83 % 1023,4 hPa 0,0 mm 0,0 km/h (0 Bft) SO 135 0 min -5,4 C 0,0 km/h (0 Bft)
20.02.2016 01:45 -2,9 C -3,4 C 80 % 1023,4 hPa 0,0 mm 0,0 km/h (0 Bft) SO 135 0 min -5,9 C 0,0 km/h (0 Bft)
20.02.2016 01:46 -2,9 C -3,4 C 80 % 1023,4 hPa 0,0 mm 0,0 km/h (0 Bft) SO 135 0 min -5,9 C 0,0 km/h (0 Bft)
20.02.2016 01:47 -2,8 C -3,4 C 84 % 1023,4 hPa 0,0 mm 0,0 km/h (0 Bft) SO 135 0 min -5,1 C 0,0 km/h (0 Bft)
20.02.2016 01:48 -2,8 C -3,4 C 84 % 1023,4 hPa 0,0 mm 0,0 km/h (0 Bft) SO 135 0 min -5,1 C 0,0 km/h (0 Bft)
20.02.2016 01:49 -2,7 C -3,3 C 84 % 1023,4 hPa 0,0 mm 0,0 km/h (0 Bft) S-SO 157 0 min -5,0 C 0,0 km/h (0 Bft)
20.02.2016 01:50 -2,7 C -3,3 C 84 % 1023,4 hPa 0,0 mm 0,0 km/h (0 Bft) S-SO 157 0 min -5,0 C 0,0 km/h (0 Bft)
20.02.2016 01:51 -2,6 C -3,2 C 84 % 1023,4 hPa 0,0 mm 0,0 km/h (0 Bft) S-SO 157 0 min -4,9 C 0,0 km/h (0 Bft)
20.02.2016 01:52 -2,6 C -3,2 C 84 % 1023,4 hPa 0,0 mm 0,0 km/h (0 Bft) S-SO 157 0 min -4,9 C 0,0 km/h (0 Bft)
20.02.2016 01:53 -2,6 C -3,2 C 84 % 1023,4 hPa 0,0 mm 0,0 km/h (0 Bft) SO 135 0 min -4,9 C 3,3 km/h (1 Bft)
20.02.2016 01:54 -2,6 C -3,2 C 84 % 1023,4 hPa 0,0 mm 0,0 km/h (0 Bft) SO 135 0 min -4,9 C 3,3 km/h (1 Bft)
20.02.2016 01:55 -2,6 C -3,1 C 84 % 1023,4 hPa 0,0 mm 0,0 km/h (0 Bft) O-SO 112 0 min -4,9 C 0,0 km/h (0 Bft)
20.02.2016 01:56 -2,6 C -3,1 C 84 % 1023,4 hPa 0,0 mm 0,0 km/h (0 Bft) O-SO 112 0 min -4,9 C 0,0 km/h (0 Bft)
20.02.2016 01:57 -2,6 C -3,1 C 84 % 1023,4 hPa 0,0 mm 0,0 km/h (0 Bft) S-SO 157 0 min -4,9 C 0,0 km/h (0 Bft)
20.02.2016 01:58 -2,6 C -3,1 C 84 % 1023,4 hPa 0,0 mm 0,0 km/h (0 Bft) S-SO 157 0 min -4,9 C 0,0 km/h (0 Bft)
20.02.2016 01:59 -2,6 C -3,1 C 84 % 1023,4 hPa 0,0 mm 0,0 km/h (0 Bft) S-SO 157 0 min -4,9 C 0,0 km/h (0 Bft)
20.02.2016 02:00 -2,6 C -3,1 C 84 % 1023,4 hPa 0,0 mm 0,0 km/h (0 Bft) S-SO 157 0 min -4,9 C 0,0 km/h (0 Bft)
20.02.2016 02:01 -2,5 C -3,1 C 84 % 1023,4 hPa 0,0 mm 0,0 km/h (0 Bft) SO 135 0 min -4,8 C 0,0 km/h (0 Bft)
20.02.2016 02:02 -2,5 C -3,1 C 84 % 1023,4 hPa 0,0 mm 0,0 km/h (0 Bft) SO 135 0 min -4,8 C 0,0 km/h (0 Bft)
20.02.2016 02:03 -2,5 C -3,1 C 84 % 1023,5 hPa 0,0 mm 0,0 km/h (0 Bft) S-SO 157 0 min -4,8 C 0,0 km/h (0 Bft)
20.02.2016 02:04 -2,5 C -3,1 C 84 % 1023,5 hPa 0,0 mm 0,0 km/h (0 Bft) S-SO 157 0 min -4,8 C 0,0 km/h (0 Bft)
20.02.2016 02:05 -2,6 C -3,1 C 84 % 1023,5 hPa 0,0 mm 0,0 km/h (0 Bft) O-SO 112 0 min -4,9 C 0,0 km/h (0 Bft)
20.02.2016 02:06 -2,6 C -3,1 C 84 % 1023,5 hPa 0,0 mm 0,0 km/h (0 Bft) O-SO 112 0 min -4,9 C 0,0 km/h (0 Bft)
20.02.2016 02:07 -2,5 C -3,1 C 84 % 1023,5 hPa 0,0 mm 0,3 km/h (0 Bft) O-SO 112 0 min -4,8 C 0,0 km/h (0 Bft)
20.02.2016 02:08 -2,5 C -3,1 C 84 % 1023,5 hPa 0,0 mm 0,3 km/h (0 Bft) O-SO 112 0 min -4,8 C 0,0 km/h (0 Bft)
20.02.2016 02:09 -2,6 C -3,1 C 84 % 1023,5 hPa 0,0 mm 0,3 km/h (0 Bft) N-NO 22 0 min -4,9 C 0,0 km/h (0 Bft)
20.02.2016 02:10 -2,6 C -3,1 C 84 % 1023,5 hPa 0,0 mm 0,3 km/h (0 Bft) N-NO 22 0 min -4,9 C 0,0 km/h (0 Bft)
20.02.2016 02:11 -2,8 C -3,3 C 84 % 1023,5 hPa 0,0 mm 0,3 km/h (0 Bft) O-SO 112 0 min -5,1 C 0,0 km/h (0 Bft)
20.02.2016 02:12 -2,8 C -3,3 C 84 % 1023,5 hPa 0,0 mm 0,3 km/h (0 Bft) O-SO 112 0 min -5,1 C 0,0 km/h (0 Bft)
20.02.2016 02:13 -2,7 C -3,2 C 84 % 1023,5 hPa 0,0 mm 0,3 km/h (0 Bft) W-SW 247 0 min -5,0 C 0,0 km/h (0 Bft)
20.02.2016 02:14 -2,7 C -3,2 C 84 % 1023,5 hPa 0,0 mm 0,3 km/h (0 Bft) W-SW 247 0 min -5,0 C 0,0 km/h (0 Bft)
20.02.2016 02:15 -2,9 C -3,4 C 84 % 1023,5 hPa 0,0 mm 0,6 km/h (0 Bft) S 180 0 min -5,2 C 4,5 km/h (1 Bft)
20.02.2016 02:16 -2,9 C -3,4 C 84 % 1023,5 hPa 0,0 mm 0,6 km/h (0 Bft) S 180 0 min -5,2 C 4,5 km/h (1 Bft)
20.02.2016 02:17 -2,9 C -3,4 C 84 % 1023,5 hPa 0,0 mm 1,2 km/h (1 Bft) SO 135 0 min -5,2 C 0,0 km/h (0 Bft)
20.02.2016 02:18 -2,9 C -3,4 C 84 % 1023,5 hPa 0,0 mm 1,2 km/h (1 Bft) SO 135 0 min -5,2 C 0,0 km/h (0 Bft)
20.02.2016 02:19 -2,9 C -3,4 C 84 % 1023,5 hPa 0,0 mm 1,2 km/h (1 Bft) O-SO 112 0 min -5,2 C 0,0 km/h (0 Bft)
20.02.2016 02:20 -2,9 C -3,4 C 84 % 1023,5 hPa 0,0 mm 1,2 km/h (1 Bft) O-SO 112 0 min -5,2 C 0,0 km/h (0 Bft)
20.02.2016 02:22 -3,0 C -3,5 C 84 % 1023,5 hPa 0,0 mm 1,2 km/h (1 Bft) O-SO 112 0 min -5,3 C 0,0 km/h (0 Bft)
20.02.2016 02:23 -3,1 C -3,6 C 84 % 1023,6 hPa 0,0 mm 1,2 km/h (1 Bft) W 270 0 min -5,4 C 0,0 km/h (0 Bft)
20.02.2016 02:24 -3,1 C -3,6 C 84 % 1023,6 hPa 0,0 mm 1,2 km/h (1 Bft) W 270 0 min -5,4 C 12,8 km/h (3 Bft)
20.02.2016 02:25 -3,3 C -3,8 C 83 % 1023,6 hPa 0,0 mm 1,2 km/h (1 Bft) W 270 0 min -5,8 C 4,2 km/h (1 Bft)
20.02.2016 02:26 -3,3 C -3,8 C 83 % 1023,6 hPa 0,0 mm 1,2 km/h (1 Bft) W 270 0 min -5,8 C 4,2 km/h (1 Bft)
20.02.2016 02:27 -3,3 C -3,8 C 83 % 1023,6 hPa 0,0 mm 0,6 km/h (0 Bft) S 180 0 min -5,8 C 0,0 km/h (0 Bft)
20.02.2016 02:28 -3,3 C -3,8 C 83 % 1023,6 hPa 0,0 mm 0,6 km/h (0 Bft) S 180 0 min -5,8 C 0,0 km/h (0 Bft)
20.02.2016 02:29 -3,3 C -3,9 C 83 % 1023,6 hPa 0,0 mm 0,3 km/h (0 Bft) S 180 0 min -5,8 C 0,0 km/h (0 Bft)
20.02.2016 02:30 -3,3 C -3,9 C 83 % 1023,6 hPa 0,0 mm 0,3 km/h (0 Bft) S 180 0 min -5,8 C 0,0 km/h (0 Bft)
20.02.2016 02:31 -3,4 C -3,9 C 83 % 1023,6 hPa 0,0 mm 0,3 km/h (0 Bft) W 270 0 min -5,9 C 0,0 km/h (0 Bft)
20.02.2016 02:32 -3,4 C -3,9 C 83 % 1023,6 hPa 0,0 mm 0,3 km/h (0 Bft) W 270 0 min -5,9 C 0,0 km/h (0 Bft)
20.02.2016 02:33 -3,4 C -4,0 C 83 % 1023,6 hPa 0,0 mm 0,6 km/h (0 Bft) SO 135 0 min -5,9 C 3,0 km/h (1 Bft)
20.02.2016 02:34 -3,4 C -4,0 C 83 % 1023,6 hPa 0,0 mm 0,6 km/h (0 Bft) SO 135 0 min -5,9 C 3,0 km/h (1 Bft)
20.02.2016 02:35 -3,3 C -3,9 C 83 % 1023,6 hPa 0,0 mm 0,6 km/h (0 Bft) S 180 0 min -5,8 C 0,0 km/h (0 Bft)
20.02.2016 02:36 -3,3 C -3,9 C 83 % 1023,6 hPa 0,0 mm 0,6 km/h (0 Bft) S 180 0 min -5,8 C 0,0 km/h (0 Bft)
20.02.2016 02:37 -3,3 C -3,9 C 83 % 1023,6 hPa 0,0 mm 0,6 km/h (0 Bft) SO 135 0 min -5,8 C 0,0 km/h (0 Bft)
20.02.2016 02:38 -3,3 C -3,9 C 83 % 1023,6 hPa 0,0 mm 0,6 km/h (0 Bft) SO 135 0 min -5,8 C 0,0 km/h (0 Bft)
20.02.2016 02:39 -3,3 C -3,9 C 84 % 1023,6 hPa 0,0 mm 0,3 km/h (0 Bft) S 180 0 min -5,6 C 0,0 km/h (0 Bft)
20.02.2016 02:40 -3,3 C -3,9 C 84 % 1023,6 hPa 0,0 mm 0,3 km/h (0 Bft) S 180 0 min -5,6 C 0,0 km/h (0 Bft)
20.02.2016 02:41 -3,3 C -3,9 C 84 % 1023,6 hPa 0,0 mm 0,3 km/h (0 Bft) SO 135 0 min -5,6 C 0,0 km/h (0 Bft)
20.02.2016 02:42 -3,3 C -3,9 C 84 % 1023,6 hPa 0,0 mm 0,3 km/h (0 Bft) SO 135 0 min -5,6 C 0,0 km/h (0 Bft)
20.02.2016 02:43 -3,2 C -3,8 C 84 % 1023,8 hPa 0,0 mm 0,3 km/h (0 Bft) S 180 0 min -5,5 C 0,0 km/h (0 Bft)
20.02.2016 02:44 -3,2 C -3,8 C 84 % 1023,8 hPa 0,0 mm 0,3 km/h (0 Bft) S 180 0 min -5,5 C 0,0 km/h (0 Bft)
20.02.2016 02:45 -3,2 C -3,8 C 84 % 1023,8 hPa 0,0 mm 0,0 km/h (0 Bft) SO 135 0 min -5,5 C 0,0 km/h (0 Bft)
20.02.2016 02:46 -3,2 C -3,8 C 84 % 1023,8 hPa 0,0 mm 0,0 km/h (0 Bft) SO 135 0 min -5,5 C 0,0 km/h (0 Bft)
20.02.2016 02:47 -3,2 C -3,8 C 84 % 1023,8 hPa 0,0 mm 0,0 km/h (0 Bft) O-SO 112 0 min -5,5 C 0,0 km/h (0 Bft)
20.02.2016 02:48 -3,2 C -3,8 C 84 % 1023,8 hPa 0,0 mm 0,0 km/h (0 Bft) O-SO 112 0 min -5,5 C 0,0 km/h (0 Bft)
20.02.2016 02:49 -3,3 C -3,9 C 84 % 1023,8 hPa 0,0 mm 0,0 km/h (0 Bft) O-NO 67 0 min -5,6 C 0,0 km/h (0 Bft)
20.02.2016 02:50 -3,3 C -3,9 C 84 % 1023,8 hPa 0,0 mm 0,0 km/h (0 Bft) O-NO 67 0 min -5,6 C 0,0 km/h (0 Bft)
20.02.2016 02:51 -3,4 C -4,0 C 84 % 1023,8 hPa 0,0 mm 0,0 km/h (0 Bft) S-SO 157 0 min -5,7 C 0,0 km/h (0 Bft)
20.02.2016 02:52 -3,4 C -4,0 C 84 % 1023,8 hPa 0,0 mm 0,0 km/h (0 Bft) S-SO 157 0 min -5,7 C 0,0 km/h (0 Bft)
20.02.2016 02:53 -3,3 C -3,9 C 84 % 1023,8 hPa 0,0 mm 0,0 km/h (0 Bft) SO 135 0 min -5,6 C 0,0 km/h (0 Bft)
20.02.2016 02:54 -3,3 C -3,9 C 84 % 1023,8 hPa 0,0 mm 0,0 km/h (0 Bft) SO 135 0 min -5,6 C 0,0 km/h (0 Bft)
20.02.2016 02:55 -3,3 C -3,9 C 84 % 1023,8 hPa 0,0 mm 0,0 km/h (0 Bft) SO 135 0 min -5,6 C 0,0 km/h (0 Bft)
20.02.2016 02:56 -3,3 C -3,9 C 84 % 1023,8 hPa 0,0 mm 0,0 km/h (0 Bft) SO 135 0 min -5,6 C 0,0 km/h (0 Bft)
20.02.2016 02:57 -3,5 C -4,1 C 84 % 1023,8 hPa 0,0 mm 0,0 km/h (0 Bft) SO 135 0 min -5,8 C 0,0 km/h (0 Bft)
20.02.2016 02:58 -3,5 C -4,1 C 84 % 1023,8 hPa 0,0 mm 0,0 km/h (0 Bft) SO 135 0 min -5,8 C 0,0 km/h (0 Bft)
20.02.2016 02:59 -3,4 C -4,0 C 84 % 1023,8 hPa 0,0 mm 0,0 km/h (0 Bft) NW 315 0 min -5,7 C 0,0 km/h (0 Bft)
20.02.2016 03:00 -3,4 C -4,0 C 84 % 1023,8 hPa 0,0 mm 0,0 km/h (0 Bft) NW 315 0 min -5,7 C 0,0 km/h (0 Bft)
20.02.2016 03:01 -3,5 C -4,1 C 84 % 1023,8 hPa 0,0 mm 0,0 km/h (0 Bft) SO 135 0 min -5,8 C 0,0 km/h (0 Bft)
20.02.2016 03:02 -3,5 C -4,1 C 84 % 1023,8 hPa 0,0 mm 0,0 km/h (0 Bft) SO 135 0 min -5,8 C 0,0 km/h (0 Bft)
20.02.2016 03:03 -3,5 C -4,1 C 84 % 1023,4 hPa 0,0 mm 0,0 km/h (0 Bft) SO 135 0 min -5,8 C 0,0 km/h (0 Bft)
20.02.2016 03:04 -3,5 C -4,1 C 84 % 1023,4 hPa 0,0 mm 0,0 km/h (0 Bft) SO 135 0 min -5,8 C 0,0 km/h (0 Bft)
20.02.2016 03:05 -3,5 C -4,1 C 84 % 1023,4 hPa 0,0 mm 0,0 km/h (0 Bft) SO 135 0 min -5,8 C 0,0 km/h (0 Bft)
20.02.2016 03:06 -3,5 C -4,1 C 84 % 1023,4 hPa 0,0 mm 0,0 km/h (0 Bft) SO 135 0 min -5,8 C 0,0 km/h (0 Bft)
20.02.2016 03:07 -3,5 C -4,1 C 84 % 1023,4 hPa 0,0 mm 0,0 km/h (0 Bft) O-SO 112 0 min -5,8 C 0,0 km/h (0 Bft)
20.02.2016 03:08 -3,5 C -4,1 C 84 % 1023,4 hPa 0,0 mm 0,0 km/h (0 Bft) O-SO 112 0 min -5,8 C 0,0 km/h (0 Bft)
20.02.2016 03:09 -3,5 C -4,1 C 84 % 1023,4 hPa 0,0 mm 0,0 km/h (0 Bft) S-SO 157 0 min -5,8 C 0,0 km/h (0 Bft)
20.02.2016 03:10 -3,5 C -4,1 C 84 % 1023,4 hPa 0,0 mm 0,0 km/h (0 Bft) S-SO 157 0 min -5,8 C 0,0 km/h (0 Bft)
20.02.2016 03:11 -3,5 C -4,2 C 84 % 1023,4 hPa 0,0 mm 0,0 km/h (0 Bft) O-SO 112 0 min -5,8 C 0,0 km/h (0 Bft)
20.02.2016 03:12 -3,5 C -4,2 C 84 % 1023,4 hPa 0,0 mm 0,0 km/h (0 Bft) O-SO 112 0 min -5,8 C 0,0 km/h (0 Bft)
20.02.2016 03:13 -3,6 C -4,2 C 80 % 1023,4 hPa 0,0 mm 0,0 km/h (0 Bft) O 90 0 min -6,5 C 0,0 km/h (0 Bft)
20.02.2016 03:14 -3,6 C -4,2 C 80 % 1023,4 hPa 0,0 mm 0,0 km/h (0 Bft) O 90 0 min -6,5 C 0,0 km/h (0 Bft)
20.02.2016 03:15 -3,6 C -4,2 C 80 % 1023,4 hPa 0,0 mm 0,0 km/h (0 Bft) S-SO 157 0 min -6,5 C 0,0 km/h (0 Bft)
20.02.2016 03:16 -3,6 C -4,2 C 80 % 1023,4 hPa 0,0 mm 0,0 km/h (0 Bft) S-SO 157 0 min -6,5 C 0,0 km/h (0 Bft)
20.02.2016 03:17 -3,6 C -4,3 C 84 % 1023,4 hPa 0,0 mm 0,0 km/h (0 Bft) O-SO 112 0 min -5,9 C 0,0 km/h (0 Bft)
20.02.2016 03:18 -3,6 C -4,3 C 84 % 1023,4 hPa 0,0 mm 0,0 km/h (0 Bft) O-SO 112 0 min -5,9 C 0,0 km/h (0 Bft)
20.02.2016 03:19 -3,6 C -4,3 C 84 % 1023,4 hPa 0,0 mm 0,0 km/h (0 Bft) O 90 0 min -5,9 C 0,0 km/h (0 Bft)
20.02.2016 03:20 -3,6 C -4,3 C 84 % 1023,4 hPa 0,0 mm 0,0 km/h (0 Bft) O 90 0 min -5,9 C 0,0 km/h (0 Bft)
20.02.2016 03:21 -3,8 C -4,4 C 84 % 1023,4 hPa 0,0 mm 0,0 km/h (0 Bft) N 360 0 min -6,1 C 0,0 km/h (0 Bft)
20.02.2016 03:22 -3,8 C -4,4 C 84 % 1023,4 hPa 0,0 mm 0,0 km/h (0 Bft) N 360 0 min -6,1 C 0,0 km/h (0 Bft)
20.02.2016 03:23 -4,0 C -4,5 C 84 % 1023,1 hPa 0,0 mm 0,0 km/h (0 Bft) NO 45 0 min -6,3 C 0,0 km/h (0 Bft)
20.02.2016 03:24 -4,0 C -4,5 C 84 % 1023,1 hPa 0,0 mm 0,0 km/h (0 Bft) NO 45 0 min -6,3 C 0,0 km/h (0 Bft)
20.02.2016 03:25 -4,2 C -4,7 C 84 % 1023,1 hPa 0,0 mm 0,0 km/h (0 Bft) N-NO 22 0 min -6,5 C 0,0 km/h (0 Bft)
20.02.2016 03:26 -4,2 C -4,7 C 84 % 1023,1 hPa 0,0 mm 0,0 km/h (0 Bft) N-NO 22 0 min -6,5 C 0,0 km/h (0 Bft)
20.02.2016 03:27 -4,3 C -4,8 C 84 % 1023,1 hPa 0,0 mm 0,0 km/h (0 Bft) O-SO 112 0 min -6,6 C 0,0 km/h (0 Bft)
20.02.2016 03:28 -4,3 C -4,8 C 84 % 1023,1 hPa 0,0 mm 0,0 km/h (0 Bft) O-SO 112 0 min -6,6 C 0,0 km/h (0 Bft)
20.02.2016 03:29 -4,2 C -4,8 C 84 % 1023,1 hPa 0,0 mm 0,0 km/h (0 Bft) N-NW 337 0 min -6,5 C 0,0 km/h (0 Bft)
20.02.2016 03:30 -4,2 C -4,8 C 84 % 1023,1 hPa 0,0 mm 0,0 km/h (0 Bft) N-NW 337 0 min -6,5 C 0,0 km/h (0 Bft)
20.02.2016 03:31 -4,3 C -4,8 C 84 % 1023,1 hPa 0,0 mm 0,0 km/h (0 Bft) W-SW 247 0 min -6,6 C 0,0 km/h (0 Bft)
20.02.2016 03:32 -4,3 C -4,8 C 84 % 1023,1 hPa 0,0 mm 0,0 km/h (0 Bft) W-SW 247 0 min -6,6 C 0,0 km/h (0 Bft)
20.02.2016 03:33 -4,1 C -4,7 C 84 % 1023,1 hPa 0,0 mm 0,0 km/h (0 Bft) O-NO 67 0 min -6,4 C 0,0 km/h (0 Bft)
20.02.2016 03:34 -4,1 C -4,7 C 84 % 1023,1 hPa 0,0 mm 0,0 km/h (0 Bft) O-NO 67 0 min -6,4 C 0,0 km/h (0 Bft)
20.02.2016 03:35 -3,9 C -4,6 C 84 % 1023,1 hPa 0,0 mm 0,0 km/h (0 Bft) S-SO 157 0 min -6,2 C 0,0 km/h (0 Bft)
20.02.2016 03:36 -3,9 C -4,6 C 84 % 1023,1 hPa 0,0 mm 0,0 km/h (0 Bft) S-SO 157 0 min -6,2 C 0,0 km/h (0 Bft)
20.02.2016 03:37 -4,1 C -4,7 C 84 % 1023,1 hPa 0,0 mm 0,0 km/h (0 Bft) N-NO 22 0 min -6,4 C 0,0 km/h (0 Bft)
20.02.2016 03:38 -4,1 C -4,7 C 84 % 1023,1 hPa 0,0 mm 0,0 km/h (0 Bft) N-NO 22 0 min -6,4 C 0,0 km/h (0 Bft)
20.02.2016 03:39 -4,1 C -4,7 C 84 % 1023,1 hPa 0,0 mm 0,0 km/h (0 Bft) O-NO 67 0 min -6,4 C 3,0 km/h (1 Bft)
20.02.2016 03:40 -4,1 C -4,7 C 84 % 1023,1 hPa 0,0 mm 0,0 km/h (0 Bft) O-NO 67 0 min -6,4 C 3,0 km/h (1 Bft)
20.02.2016 03:41 -4,0 C -4,6 C 84 % 1023,1 hPa 0,0 mm 0,0 km/h (0 Bft) N-NO 22 0 min -6,3 C 0,0 km/h (0 Bft)
20.02.2016 03:42 -4,0 C -4,6 C 84 % 1023,1 hPa 0,0 mm 0,0 km/h (0 Bft) N-NO 22 0 min -6,3 C 0,0 km/h (0 Bft)
20.02.2016 03:43 -4,1 C -4,7 C 84 % 1023,0 hPa 0,0 mm 0,0 km/h (0 Bft) O-NO 67 0 min -6,4 C 0,0 km/h (0 Bft)
20.02.2016 03:44 -4,1 C -4,7 C 84 % 1023,0 hPa 0,0 mm 0,0 km/h (0 Bft) O-NO 67 0 min -6,4 C 0,0 km/h (0 Bft)
20.02.2016 03:45 -4,2 C -4,8 C 84 % 1023,0 hPa 0,0 mm 0,0 km/h (0 Bft) N-NO 22 0 min -6,5 C 0,0 km/h (0 Bft)
20.02.2016 03:46 -4,2 C -4,8 C 84 % 1023,0 hPa 0,0 mm 0,0 km/h (0 Bft) N-NO 22 0 min -6,5 C 0,0 km/h (0 Bft)
20.02.2016 03:47 -4,3 C -4,8 C 84 % 1023,0 hPa 0,0 mm 0,0 km/h (0 Bft) O-NO 67 0 min -6,6 C 0,0 km/h (0 Bft)
20.02.2016 03:48 -4,3 C -4,8 C 84 % 1023,0 hPa 0,0 mm 0,0 km/h (0 Bft) O-NO 67 0 min -6,6 C 0,0 km/h (0 Bft)
20.02.2016 03:49 -4,3 C -4,8 C 84 % 1023,0 hPa 0,0 mm 0,0 km/h (0 Bft) N 360 0 min -6,6 C 0,0 km/h (0 Bft)
20.02.2016 03:50 -4,3 C -4,8 C 84 % 1023,0 hPa 0,0 mm 0,0 km/h (0 Bft) N 360 0 min -6,6 C 0,0 km/h (0 Bft)
20.02.2016 03:51 -4,5 C -5,0 C 84 % 1023,0 hPa 0,0 mm 0,0 km/h (0 Bft) W 270 0 min -6,8 C 0,0 km/h (0 Bft)
20.02.2016 03:52 -4,5 C -5,0 C 84 % 1023,0 hPa 0,0 mm 0,0 km/h (0 Bft) W 270 0 min -6,8 C 0,0 km/h (0 Bft)
20.02.2016 03:53 -4,3 C -4,9 C 84 % 1023,0 hPa 0,0 mm 0,0 km/h (0 Bft) O-SO 112 0 min -6,6 C 0,0 km/h (0 Bft)
20.02.2016 03:54 -4,3 C -4,9 C 84 % 1023,0 hPa 0,0 mm 0,0 km/h (0 Bft) O-SO 112 0 min -6,6 C 0,0 km/h (0 Bft)
20.02.2016 03:55 -4,3 C -4,9 C 84 % 1023,0 hPa 0,0 mm 0,0 km/h (0 Bft) O-SO 112 0 min -6,6 C 0,0 km/h (0 Bft)
20.02.2016 03:56 -4,3 C -4,9 C 84 % 1023,0 hPa 0,0 mm 0,0 km/h (0 Bft) O-SO 112 0 min -6,6 C 0,0 km/h (0 Bft)
20.02.2016 03:57 -4,4 C -5,0 C 84 % 1023,0 hPa 0,0 mm 0,0 km/h (0 Bft) NW 315 0 min -6,7 C 0,0 km/h (0 Bft)
20.02.2016 03:58 -4,4 C -5,0 C 84 % 1023,0 hPa 0,0 mm 0,0 km/h (0 Bft) NW 315 0 min -6,7 C 0,0 km/h (0 Bft)
20.02.2016 03:59 -4,5 C -5,1 C 84 % 1023,0 hPa 0,0 mm 0,0 km/h (0 Bft) O-SO 112 0 min -6,8 C 0,0 km/h (0 Bft)
20.02.2016 04:00 -4,5 C -5,1 C 84 % 1023,0 hPa 0,0 mm 0,0 km/h (0 Bft) O-SO 112 0 min -6,8 C 0,0 km/h (0 Bft)
20.02.2016 04:01 -4,5 C -5,1 C 84 % 1023,0 hPa 0,0 mm 0,0 km/h (0 Bft) O-NO 67 0 min -6,8 C 0,0 km/h (0 Bft)
20.02.2016 04:02 -4,5 C -5,1 C 84 % 1023,0 hPa 0,0 mm 0,0 km/h (0 Bft) O-NO 67 0 min -6,8 C 0,0 km/h (0 Bft)
20.02.2016 04:03 -4,7 C -5,2 C 84 % 1022,9 hPa 0,0 mm 0,0 km/h (0 Bft) NW 315 0 min -7,0 C 0,0 km/h (0 Bft)
20.02.2016 04:04 -4,7 C -5,2 C 84 % 1022,9 hPa 0,0 mm 0,0 km/h (0 Bft) NW 315 0 min -7,0 C 0,0 km/h (0 Bft)
20.02.2016 04:05 -4,7 C -5,2 C 84 % 1022,9 hPa 0,0 mm 0,0 km/h (0 Bft) NW 315 0 min -7,0 C 0,0 km/h (0 Bft)
20.02.2016 04:06 -4,7 C -5,2 C 84 % 1022,9 hPa 0,0 mm 0,0 km/h (0 Bft) NW 315 0 min -7,0 C 0,0 km/h (0 Bft)
20.02.2016 04:07 -4,7 C -5,3 C 84 % 1022,9 hPa 0,0 mm 0,0 km/h (0 Bft) N-NW 337 0 min -7,0 C 0,0 km/h (0 Bft)
20.02.2016 04:08 -4,7 C -5,3 C 84 % 1022,9 hPa 0,0 mm 0,0 km/h (0 Bft) N-NW 337 0 min -7,0 C 0,0 km/h (0 Bft)
20.02.2016 04:09 -4,7 C -5,3 C 84 % 1022,9 hPa 0,0 mm 0,0 km/h (0 Bft) NW 315 0 min -7,0 C 0,0 km/h (0 Bft)
20.02.2016 04:10 -4,7 C -5,3 C 84 % 1022,9 hPa 0,0 mm 0,0 km/h (0 Bft) NW 315 0 min -7,0 C 0,0 km/h (0 Bft)
20.02.2016 04:11 -4,4 C -5,1 C 84 % 1022,9 hPa 0,0 mm 0,0 km/h (0 Bft) SO 135 0 min -6,7 C 0,0 km/h (0 Bft)
20.02.2016 04:12 -4,4 C -5,1 C 84 % 1022,9 hPa 0,0 mm 0,0 km/h (0 Bft) SO 135 0 min -6,7 C 0,0 km/h (0 Bft)
20.02.2016 04:13 -4,4 C -5,1 C 84 % 1022,9 hPa 0,0 mm 0,0 km/h (0 Bft) O-SO 112 0 min -6,7 C 0,0 km/h (0 Bft)
20.02.2016 04:14 -4,4 C -5,1 C 84 % 1022,9 hPa 0,0 mm 0,0 km/h (0 Bft) O-SO 112 0 min -6,7 C 0,0 km/h (0 Bft)
20.02.2016 04:15 -4,3 C -5,0 C 85 % 1022,9 hPa 0,0 mm 0,0 km/h (0 Bft) O-SO 112 0 min -6,4 C 0,0 km/h (0 Bft)
20.02.2016 04:16 -4,3 C -5,0 C 85 % 1022,9 hPa 0,0 mm 0,0 km/h (0 Bft) O-SO 112 0 min -6,4 C 0,0 km/h (0 Bft)
20.02.2016 04:17 -4,5 C -5,2 C 84 % 1022,9 hPa 0,0 mm 0,0 km/h (0 Bft) N 360 0 min -6,8 C 0,0 km/h (0 Bft)
20.02.2016 04:18 -4,5 C -5,2 C 84 % 1022,9 hPa 0,0 mm 0,0 km/h (0 Bft) N 360 0 min -6,8 C 0,0 km/h (0 Bft)
20.02.2016 04:19 -4,7 C -5,3 C 84 % 1022,9 hPa 0,0 mm 0,0 km/h (0 Bft) O-NO 67 0 min -7,0 C 0,0 km/h (0 Bft)
20.02.2016 04:20 -4,7 C -5,3 C 84 % 1022,9 hPa 0,0 mm 0,0 km/h (0 Bft) O-NO 67 0 min -7,0 C 0,0 km/h (0 Bft)
20.02.2016 04:21 -4,8 C -5,4 C 84 % 1022,9 hPa 0,0 mm 0,0 km/h (0 Bft) NO 45 0 min -7,1 C 0,0 km/h (0 Bft)
20.02.2016 04:22 -4,8 C -5,4 C 84 % 1022,9 hPa 0,0 mm 0,0 km/h (0 Bft) NO 45 0 min -7,1 C 0,0 km/h (0 Bft)
20.02.2016 04:23 -4,8 C -5,4 C 84 % 1022,6 hPa 0,0 mm 0,0 km/h (0 Bft) NO 45 0 min -7,1 C 0,0 km/h (0 Bft)
20.02.2016 04:24 -4,8 C -5,4 C 84 % 1022,6 hPa 0,0 mm 0,0 km/h (0 Bft) NO 45 0 min -7,1 C 0,0 km/h (0 Bft)
20.02.2016 04:25 -5,0 C -5,6 C 84 % 1022,6 hPa 0,0 mm 0,0 km/h (0 Bft) N-NW 337 0 min -7,3 C 0,0 km/h (0 Bft)
20.02.2016 04:26 -5,0 C -5,6 C 84 % 1022,6 hPa 0,0 mm 0,0 km/h (0 Bft) N-NW 337 0 min -7,3 C 0,0 km/h (0 Bft)
20.02.2016 04:27 -4,9 C -5,5 C 84 % 1022,6 hPa 0,0 mm 0,0 km/h (0 Bft) O-SO 112 0 min -7,2 C 0,0 km/h (0 Bft)
20.02.2016 04:28 -4,9 C -5,5 C 84 % 1022,6 hPa 0,0 mm 0,0 km/h (0 Bft) O-SO 112 0 min -7,2 C 0,0 km/h (0 Bft)
20.02.2016 04:29 -4,7 C -5,4 C 84 % 1022,6 hPa 0,0 mm 0,0 km/h (0 Bft) SO 135 0 min -7,0 C 0,0 km/h (0 Bft)
20.02.2016 04:30 -4,7 C -5,4 C 84 % 1022,6 hPa 0,0 mm 0,0 km/h (0 Bft) SO 135 0 min -7,0 C 0,0 km/h (0 Bft)
20.02.2016 04:31 -4,8 C -5,5 C 84 % 1022,6 hPa 0,0 mm 0,0 km/h (0 Bft) O-NO 67 0 min -7,1 C 0,0 km/h (0 Bft)
20.02.2016 04:32 -4,8 C -5,5 C 84 % 1022,6 hPa 0,0 mm 0,0 km/h (0 Bft) O-NO 67 0 min -7,1 C 0,0 km/h (0 Bft)
20.02.2016 04:33 -5,0 C -5,6 C 84 % 1022,6 hPa 0,0 mm 0,0 km/h (0 Bft) O 90 0 min -7,3 C 0,0 km/h (0 Bft)
20.02.2016 04:34 -5,0 C -5,6 C 84 % 1022,6 hPa 0,0 mm 0,0 km/h (0 Bft) O 90 0 min -7,3 C 0,0 km/h (0 Bft)
20.02.2016 04:35 -5,0 C -5,6 C 84 % 1022,6 hPa 0,0 mm 0,0 km/h (0 Bft) O-NO 67 0 min -7,3 C 0,0 km/h (0 Bft)
20.02.2016 04:36 -5,0 C -5,6 C 84 % 1022,6 hPa 0,0 mm 0,0 km/h (0 Bft) O-NO 67 0 min -7,3 C 0,0 km/h (0 Bft)
20.02.2016 04:37 -4,9 C -5,5 C 84 % 1022,6 hPa 0,0 mm 0,0 km/h (0 Bft) O-NO 67 0 min -7,2 C 0,0 km/h (0 Bft)
20.02.2016 04:38 -4,9 C -5,5 C 84 % 1022,6 hPa 0,0 mm 0,0 km/h (0 Bft) O-NO 67 0 min -7,2 C 0,0 km/h (0 Bft)
20.02.2016 04:39 -5,0 C -5,6 C 84 % 1022,6 hPa 0,0 mm 0,0 km/h (0 Bft) N-NO 22 0 min -7,3 C 0,0 km/h (0 Bft)
20.02.2016 04:40 -5,0 C -5,6 C 84 % 1022,6 hPa 0,0 mm 0,0 km/h (0 Bft) N-NO 22 0 min -7,3 C 0,0 km/h (0 Bft)
20.02.2016 04:41 -4,9 C -5,5 C 84 % 1022,6 hPa 0,0 mm 0,0 km/h (0 Bft) O 90 0 min -7,2 C 0,0 km/h (0 Bft)
20.02.2016 04:42 -4,9 C -5,5 C 84 % 1022,6 hPa 0,0 mm 0,0 km/h (0 Bft) O 90 0 min -7,2 C 0,0 km/h (0 Bft)
20.02.2016 04:43 -5,0 C -5,6 C 84 % 1022,8 hPa 0,0 mm 0,0 km/h (0 Bft) N-NW 337 0 min -7,3 C 0,0 km/h (0 Bft)
20.02.2016 04:44 -5,0 C -5,6 C 84 % 1022,8 hPa 0,0 mm 0,0 km/h (0 Bft) N-NW 337 0 min -7,3 C 0,0 km/h (0 Bft)
20.02.2016 04:45 -4,8 C -5,4 C 85 % 1022,8 hPa 0,0 mm 0,0 km/h (0 Bft) O-NO 67 0 min -6,9 C 0,0 km/h (0 Bft)
20.02.2016 04:46 -4,8 C -5,4 C 85 % 1022,8 hPa 0,0 mm 0,0 km/h (0 Bft) O-NO 67 0 min -6,9 C 0,0 km/h (0 Bft)
20.02.2016 04:47 -4,8 C -5,4 C 85 % 1022,8 hPa 0,0 mm 0,0 km/h (0 Bft) NW 315 0 min -6,9 C 0,0 km/h (0 Bft)
20.02.2016 04:48 -4,8 C -5,4 C 85 % 1022,8 hPa 0,0 mm 0,0 km/h (0 Bft) NW 315 0 min -6,9 C 0,0 km/h (0 Bft)
20.02.2016 04:49 -5,0 C -5,6 C 84 % 1022,8 hPa 0,0 mm 0,0 km/h (0 Bft) O-SO 112 0 min -7,3 C 0,0 km/h (0 Bft)
20.02.2016 04:50 -5,0 C -5,6 C 84 % 1022,8 hPa 0,0 mm 0,0 km/h (0 Bft) O-SO 112 0 min -7,3 C 0,0 km/h (0 Bft)
20.02.2016 04:51 -4,8 C -5,4 C 85 % 1022,8 hPa 0,0 mm 0,0 km/h (0 Bft) N-NO 22 0 min -6,9 C 0,0 km/h (0 Bft)
20.02.2016 04:52 -4,8 C -5,4 C 85 % 1022,8 hPa 0,0 mm 0,0 km/h (0 Bft) N-NO 22 0 min -6,9 C 0,0 km/h (0 Bft)
20.02.2016 04:53 -4,8 C -5,4 C 85 % 1022,8 hPa 0,0 mm 0,0 km/h (0 Bft) N-NW 337 0 min -6,9 C 0,0 km/h (0 Bft)
20.02.2016 04:54 -4,8 C -5,4 C 85 % 1022,8 hPa 0,0 mm 0,0 km/h (0 Bft) N-NW 337 0 min -6,9 C 0,0 km/h (0 Bft)
20.02.2016 04:55 -4,9 C -5,5 C 85 % 1022,8 hPa 0,0 mm 0,0 km/h (0 Bft) O-NO 67 0 min -7,0 C 0,0 km/h (0 Bft)
20.02.2016 04:56 -4,9 C -5,5 C 85 % 1022,8 hPa 0,0 mm 0,0 km/h (0 Bft) O-NO 67 0 min -7,0 C 0,0 km/h (0 Bft)
20.02.2016 04:57 -5,0 C -5,6 C 85 % 1022,8 hPa 0,0 mm 0,0 km/h (0 Bft) NO 45 0 min -7,1 C 0,0 km/h (0 Bft)
20.02.2016 04:58 -5,0 C -5,6 C 85 % 1022,8 hPa 0,0 mm 0,0 km/h (0 Bft) NO 45 0 min -7,1 C 0,0 km/h (0 Bft)
20.02.2016 04:59 -5,0 C -5,6 C 85 % 1022,8 hPa 0,0 mm 0,0 km/h (0 Bft) N-NO 22 0 min -7,1 C 0,0 km/h (0 Bft)
20.02.2016 05:00 -5,0 C -5,6 C 85 % 1022,8 hPa 0,0 mm 0,0 km/h (0 Bft) N-NO 22 0 min -7,1 C 0,0 km/h (0 Bft)
20.02.2016 05:01 -4,8 C -5,5 C 85 % 1022,8 hPa 0,0 mm 0,0 km/h (0 Bft) O-NO 67 0 min -6,9 C 0,0 km/h (0 Bft)
20.02.2016 05:02 -4,8 C -5,5 C 85 % 1022,8 hPa 0,0 mm 0,0 km/h (0 Bft) O-NO 67 0 min -6,9 C 0,0 km/h (0 Bft)
20.02.2016 05:03 -4,8 C -5,4 C 85 % 1022,8 hPa 0,0 mm 0,0 km/h (0 Bft) N-NW 337 0 min -6,9 C 0,0 km/h (0 Bft)
20.02.2016 05:04 -4,8 C -5,4 C 85 % 1022,8 hPa 0,0 mm 0,0 km/h (0 Bft) N-NW 337 0 min -6,9 C 0,0 km/h (0 Bft)
20.02.2016 05:05 -5,0 C -5,6 C 85 % 1022,8 hPa 0,0 mm 0,0 km/h (0 Bft) N 360 0 min -7,1 C 0,0 km/h (0 Bft)
20.02.2016 05:06 -5,0 C -5,6 C 85 % 1022,8 hPa 0,0 mm 0,0 km/h (0 Bft) N 360 0 min -7,1 C 0,0 km/h (0 Bft)
20.02.2016 05:07 -5,2 C -5,7 C 85 % 1022,8 hPa 0,0 mm 0,0 km/h (0 Bft) W-NW 292 0 min -7,3 C 0,0 km/h (0 Bft)
20.02.2016 05:08 -5,2 C -5,7 C 85 % 1022,8 hPa 0,0 mm 0,0 km/h (0 Bft) W-NW 292 0 min -7,3 C 0,0 km/h (0 Bft)
20.02.2016 05:09 -5,2 C -5,8 C 85 % 1022,8 hPa 0,0 mm 0,0 km/h (0 Bft) O-NO 67 0 min -7,3 C 0,0 km/h (0 Bft)
20.02.2016 05:10 -5,2 C -5,8 C 85 % 1022,8 hPa 0,0 mm 0,0 km/h (0 Bft) O-NO 67 0 min -7,3 C 0,0 km/h (0 Bft)
20.02.2016 05:11 -5,1 C -5,7 C 85 % 1022,8 hPa 0,0 mm 0,0 km/h (0 Bft) NO 45 0 min -7,2 C 0,0 km/h (0 Bft)
20.02.2016 05:12 -5,1 C -5,7 C 85 % 1022,8 hPa 0,0 mm 0,0 km/h (0 Bft) NO 45 0 min -7,2 C 0,0 km/h (0 Bft)
20.02.2016 05:13 -5,2 C -5,8 C 85 % 1022,8 hPa 0,0 mm 0,0 km/h (0 Bft) SO 135 0 min -7,3 C 0,0 km/h (0 Bft)
20.02.2016 05:14 -5,2 C -5,8 C 85 % 1022,8 hPa 0,0 mm 0,0 km/h (0 Bft) SO 135 0 min -7,3 C 0,0 km/h (0 Bft)
20.02.2016 05:15 -5,0 C -5,7 C 85 % 1022,8 hPa 0,0 mm 0,0 km/h (0 Bft) W 270 0 min -7,1 C 0,0 km/h (0 Bft)
20.02.2016 05:16 -5,0 C -5,7 C 85 % 1022,8 hPa 0,0 mm 0,0 km/h (0 Bft) W 270 0 min -7,1 C 0,0 km/h (0 Bft)
20.02.2016 05:17 -5,0 C -5,7 C 85 % 1022,8 hPa 0,0 mm 0,0 km/h (0 Bft) W-SW 247 0 min -7,1 C 0,0 km/h (0 Bft)
20.02.2016 05:18 -5,0 C -5,7 C 85 % 1022,8 hPa 0,0 mm 0,0 km/h (0 Bft) W-SW 247 0 min -7,1 C 0,0 km/h (0 Bft)
20.02.2016 05:19 -5,0 C -5,7 C 85 % 1022,8 hPa 0,0 mm 0,0 km/h (0 Bft) O-SO 112 0 min -7,1 C 0,0 km/h (0 Bft)
20.02.2016 05:20 -5,0 C -5,7 C 85 % 1022,8 hPa 0,0 mm 0,0 km/h (0 Bft) O-SO 112 0 min -7,1 C 0,0 km/h (0 Bft)
20.02.2016 05:21 -4,9 C -5,6 C 85 % 1022,8 hPa 0,0 mm 0,0 km/h (0 Bft) O-NO 67 0 min -7,0 C 0,0 km/h (0 Bft)
20.02.2016 05:23 -5,1 C -5,8 C 85 % 1022,8 hPa 0,0 mm 0,0 km/h (0 Bft) W-SW 247 0 min -7,2 C 0,0 km/h (0 Bft)
20.02.2016 05:24 -5,1 C -5,8 C 85 % 1022,8 hPa 0,0 mm 0,0 km/h (0 Bft) W-SW 247 0 min -7,2 C 0,0 km/h (0 Bft)
20.02.2016 05:25 -5,2 C -5,9 C 85 % 1022,8 hPa 0,0 mm 0,0 km/h (0 Bft) S-SW 202 0 min -7,3 C 0,0 km/h (0 Bft)
20.02.2016 05:26 -5,2 C -5,9 C 85 % 1022,8 hPa 0,0 mm 0,0 km/h (0 Bft) S-SW 202 0 min -7,3 C 0,0 km/h (0 Bft)
20.02.2016 05:27 -4,9 C -5,7 C 85 % 1022,8 hPa 0,0 mm 0,0 km/h (0 Bft) S-SO 157 0 min -7,0 C 0,0 km/h (0 Bft)
20.02.2016 05:28 -4,9 C -5,7 C 85 % 1022,8 hPa 0,0 mm 0,0 km/h (0 Bft) S-SO 157 0 min -7,0 C 0,0 km/h (0 Bft)
20.02.2016 05:29 -5,0 C -5,7 C 85 % 1022,8 hPa 0,0 mm 0,0 km/h (0 Bft) S-SO 157 0 min -7,1 C 0,0 km/h (0 Bft)
20.02.2016 05:30 -5,0 C -5,7 C 85 % 1022,8 hPa 0,0 mm 0,0 km/h (0 Bft) S-SO 157 0 min -7,1 C 0,0 km/h (0 Bft)
20.02.2016 05:31 -5,2 C -5,9 C 85 % 1022,8 hPa 0,0 mm 0,0 km/h (0 Bft) W-SW 247 0 min -7,3 C 0,0 km/h (0 Bft)
20.02.2016 05:32 -5,2 C -5,9 C 85 % 1022,8 hPa 0,0 mm 0,0 km/h (0 Bft) W-SW 247 0 min -7,3 C 0,0 km/h (0 Bft)
20.02.2016 05:33 -5,3 C -5,9 C 85 % 1022,8 hPa 0,0 mm 0,0 km/h (0 Bft) W-NW 292 0 min -7,4 C 0,0 km/h (0 Bft)
20.02.2016 05:34 -5,3 C -5,9 C 85 % 1022,8 hPa 0,0 mm 0,0 km/h (0 Bft) W-NW 292 0 min -7,4 C 0,0 km/h (0 Bft)
20.02.2016 05:35 -5,2 C -5,9 C 85 % 1022,8 hPa 0,0 mm 0,0 km/h (0 Bft) W-NW 292 0 min -7,3 C 0,0 km/h (0 Bft)
20.02.2016 05:36 -5,2 C -5,9 C 85 % 1022,8 hPa 0,0 mm 0,0 km/h (0 Bft) W-NW 292 0 min -7,3 C 0,0 km/h (0 Bft)
20.02.2016 05:37 -5,0 C -5,8 C 85 % 1022,8 hPa 0,0 mm 0,0 km/h (0 Bft) O-SO 112 0 min -7,1 C 0,0 km/h (0 Bft)
20.02.2016 05:38 -5,0 C -5,8 C 85 % 1022,8 hPa 0,0 mm 0,0 km/h (0 Bft) O-SO 112 0 min -7,1 C 0,0 km/h (0 Bft)
20.02.2016 05:39 -5,2 C -5,9 C 85 % 1022,8 hPa 0,0 mm 0,0 km/h (0 Bft) W 270 0 min -7,3 C 0,0 km/h (0 Bft)
20.02.2016 05:40 -5,2 C -5,9 C 85 % 1022,8 hPa 0,0 mm 0,0 km/h (0 Bft) W 270 0 min -7,3 C 0,0 km/h (0 Bft)
20.02.2016 05:41 -5,3 C -6,0 C 85 % 1022,8 hPa 0,0 mm 0,0 km/h (0 Bft) S-SO 157 0 min -7,4 C 0,0 km/h (0 Bft)
20.02.2016 05:42 -5,3 C -6,0 C 85 % 1022,8 hPa 0,0 mm 0,0 km/h (0 Bft) S-SO 157 0 min -7,4 C 0,0 km/h (0 Bft)
20.02.2016 05:43 -5,0 C -5,8 C 85 % 1022,9 hPa 0,0 mm 0,0 km/h (0 Bft) S-SO 157 0 min -7,1 C 0,0 km/h (0 Bft)
20.02.2016 05:44 -5,0 C -5,8 C 85 % 1022,9 hPa 0,0 mm 0,0 km/h (0 Bft) S-SO 157 0 min -7,1 C 0,0 km/h (0 Bft)
20.02.2016 05:45 -5,2 C -5,9 C 85 % 1022,9 hPa 0,0 mm 0,0 km/h (0 Bft) S 180 0 min -7,3 C 0,0 km/h (0 Bft)
20.02.2016 05:46 -5,2 C -5,9 C 85 % 1022,9 hPa 0,0 mm 0,0 km/h (0 Bft) S 180 0 min -7,3 C 0,0 km/h (0 Bft)
20.02.2016 05:47 -5,2 C -5,9 C 85 % 1022,9 hPa 0,0 mm 0,0 km/h (0 Bft) SO 135 0 min -7,3 C 0,0 km/h (0 Bft)
20.02.2016 05:48 -5,2 C -5,9 C 85 % 1022,9 hPa 0,0 mm 0,0 km/h (0 Bft) SO 135 0 min -7,3 C 0,0 km/h (0 Bft)
20.02.2016 05:49 -5,2 C -5,9 C 85 % 1022,9 hPa 0,0 mm 0,0 km/h (0 Bft) S-SO 157 0 min -7,3 C 0,0 km/h (0 Bft)
20.02.2016 05:50 -5,2 C -5,9 C 85 % 1022,9 hPa 0,0 mm 0,0 km/h (0 Bft) S-SO 157 0 min -7,3 C 0,0 km/h (0 Bft)
20.02.2016 05:51 -5,1 C -5,8 C 85 % 1022,9 hPa 0,0 mm 0,0 km/h (0 Bft) S-SO 157 0 min -7,2 C 0,0 km/h (0 Bft)
20.02.2016 05:52 -5,1 C -5,8 C 85 % 1022,9 hPa 0,0 mm 0,0 km/h (0 Bft) S-SO 157 0 min -7,2 C 0,0 km/h (0 Bft)
20.02.2016 05:53 -5,1 C -5,9 C 85 % 1022,9 hPa 0,0 mm 0,0 km/h (0 Bft) S-SO 157 0 min -7,2 C 0,0 km/h (0 Bft)
20.02.2016 05:54 -5,1 C -5,9 C 85 % 1022,9 hPa 0,0 mm 0,0 km/h (0 Bft) S-SO 157 0 min -7,2 C 0,0 km/h (0 Bft)
20.02.2016 05:55 -5,1 C -5,9 C 85 % 1022,9 hPa 0,0 mm 0,0 km/h (0 Bft) S-SO 157 0 min -7,2 C 0,0 km/h (0 Bft)
20.02.2016 05:56 -5,1 C -5,9 C 85 % 1022,9 hPa 0,0 mm 0,0 km/h (0 Bft) S-SO 157 0 min -7,2 C 0,0 km/h (0 Bft)
20.02.2016 05:57 -5,0 C -5,8 C 85 % 1022,9 hPa 0,0 mm 0,0 km/h (0 Bft) S-SO 157 0 min -7,1 C 0,0 km/h (0 Bft)
20.02.2016 05:58 -5,0 C -5,8 C 85 % 1022,9 hPa 0,0 mm 0,0 km/h (0 Bft) S-SO 157 0 min -7,1 C 0,0 km/h (0 Bft)
20.02.2016 05:59 -5,0 C -5,8 C 85 % 1022,9 hPa 0,0 mm 0,0 km/h (0 Bft) S-SO 157 0 min -7,1 C 0,0 km/h (0 Bft)
20.02.2016 06:00 -5,0 C -5,8 C 85 % 1022,9 hPa 0,0 mm 0,0 km/h (0 Bft) S-SO 157 0 min -7,1 C 0,0 km/h (0 Bft)
20.02.2016 06:01 -5,1 C -5,9 C 85 % 1022,9 hPa 0,0 mm 0,0 km/h (0 Bft) S-SO 157 0 min -7,2 C 0,0 km/h (0 Bft)
20.02.2016 06:02 -5,1 C -5,9 C 85 % 1022,9 hPa 0,0 mm 0,0 km/h (0 Bft) S-SO 157 0 min -7,2 C 0,0 km/h (0 Bft)
20.02.2016 06:03 -5,1 C -5,9 C 85 % 1023,0 hPa 0,0 mm 0,0 km/h (0 Bft) S-SO 157 0 min -7,2 C 0,0 km/h (0 Bft)
20.02.2016 06:04 -5,1 C -5,9 C 85 % 1023,0 hPa 0,0 mm 0,0 km/h (0 Bft) S-SO 157 0 min -7,2 C 0,0 km/h (0 Bft)
20.02.2016 06:05 -5,1 C -5,9 C 85 % 1023,0 hPa 0,0 mm 0,0 km/h (0 Bft) S-SO 157 0 min -7,2 C 0,0 km/h (0 Bft)
20.02.2016 06:06 -5,1 C -5,9 C 85 % 1023,0 hPa 0,0 mm 0,0 km/h (0 Bft) S-SO 157 0 min -7,2 C 0,0 km/h (0 Bft)
20.02.2016 06:07 -5,2 C -5,9 C 85 % 1023,0 hPa 0,0 mm 0,0 km/h (0 Bft) S-SO 157 0 min -7,3 C 0,0 km/h (0 Bft)
20.02.2016 06:08 -5,2 C -5,9 C 85 % 1023,0 hPa 0,0 mm 0,0 km/h (0 Bft) S-SO 157 0 min -7,3 C 0,0 km/h (0 Bft)
20.02.2016 06:09 -5,0 C -5,8 C 85 % 1023,0 hPa 0,0 mm 0,0 km/h (0 Bft) S-SO 157 0 min -7,1 C 0,0 km/h (0 Bft)
20.02.2016 06:10 -5,0 C -5,8 C 85 % 1023,0 hPa 0,0 mm 0,0 km/h (0 Bft) S-SO 157 0 min -7,1 C 0,0 km/h (0 Bft)
20.02.2016 06:11 -4,9 C -5,7 C 81 % 1023,0 hPa 0,0 mm 0,0 km/h (0 Bft) S-SO 157 0 min -7,6 C 0,0 km/h (0 Bft)
20.02.2016 06:12 -4,9 C -5,7 C 81 % 1023,0 hPa 0,0 mm 0,0 km/h (0 Bft) S-SO 157 0 min -7,6 C 0,0 km/h (0 Bft)
20.02.2016 06:13 -4,9 C -5,6 C 81 % 1023,0 hPa 0,0 mm 0,0 km/h (0 Bft) S-SO 157 0 min -7,6 C 0,0 km/h (0 Bft)
20.02.2016 06:14 -4,9 C -5,6 C 81 % 1023,0 hPa 0,0 mm 0,0 km/h (0 Bft) S-SO 157 0 min -7,6 C 0,0 km/h (0 Bft)
20.02.2016 06:15 -4,9 C -5,7 C 85 % 1023,0 hPa 0,0 mm 0,0 km/h (0 Bft) S-SO 157 0 min -7,0 C 0,0 km/h (0 Bft)
20.02.2016 06:16 -4,9 C -5,7 C 85 % 1023,0 hPa 0,0 mm 0,0 km/h (0 Bft) S-SO 157 0 min -7,0 C 0,0 km/h (0 Bft)
20.02.2016 06:17 -4,9 C -5,7 C 85 % 1023,0 hPa 0,0 mm 0,0 km/h (0 Bft) S-SO 157 0 min -7,0 C 0,0 km/h (0 Bft)
20.02.2016 06:18 -4,9 C -5,7 C 85 % 1023,0 hPa 0,0 mm 0,0 km/h (0 Bft) S-SO 157 0 min -7,0 C 0,0 km/h (0 Bft)
20.02.2016 06:19 -4,9 C -5,7 C 85 % 1023,0 hPa 0,0 mm 0,0 km/h (0 Bft) S-SO 157 0 min -7,0 C 0,0 km/h (0 Bft)
20.02.2016 06:20 -4,9 C -5,7 C 85 % 1023,0 hPa 0,0 mm 0,0 km/h (0 Bft) S-SO 157 0 min -7,0 C 0,0 km/h (0 Bft)
20.02.2016 06:21 -5,0 C -5,7 C 85 % 1023,0 hPa 0,0 mm 0,0 km/h (0 Bft) S-SO 157 0 min -7,1 C 0,0 km/h (0 Bft)
20.02.2016 06:22 -5,0 C -5,7 C 85 % 1023,0 hPa 0,0 mm 0,0 km/h (0 Bft) S-SO 157 0 min -7,1 C 0,0 km/h (0 Bft)
20.02.2016 06:23 -5,2 C -5,9 C 85 % 1023,1 hPa 0,0 mm 0,0 km/h (0 Bft) S-SO 157 0 min -7,3 C 0,0 km/h (0 Bft)
20.02.2016 06:24 -5,2 C -5,9 C 85 % 1023,1 hPa 0,0 mm 0,0 km/h (0 Bft) S-SO 157 0 min -7,3 C 0,0 km/h (0 Bft)
20.02.2016 06:25 -5,2 C -5,9 C 85 % 1023,1 hPa 0,0 mm 0,0 km/h (0 Bft) S-SO 157 0 min -7,3 C 0,0 km/h (0 Bft)
20.02.2016 06:26 -5,2 C -5,9 C 85 % 1023,1 hPa 0,0 mm 0,0 km/h (0 Bft) S-SO 157 0 min -7,3 C 0,0 km/h (0 Bft)
20.02.2016 06:27 -5,1 C -5,9 C 85 % 1023,1 hPa 0,0 mm 0,0 km/h (0 Bft) S-SO 157 0 min -7,2 C 0,0 km/h (0 Bft)
20.02.2016 06:28 -5,1 C -5,9 C 85 % 1023,1 hPa 0,0 mm 0,0 km/h (0 Bft) S-SO 157 0 min -7,2 C 0,0 km/h (0 Bft)
20.02.2016 06:29 -5,0 C -5,8 C 85 % 1023,1 hPa 0,0 mm 0,0 km/h (0 Bft) S-SO 157 0 min -7,1 C 0,0 km/h (0 Bft)
20.02.2016 06:30 -5,0 C -5,8 C 85 % 1023,1 hPa 0,0 mm 0,0 km/h (0 Bft) S-SO 157 0 min -7,1 C 0,0 km/h (0 Bft)
20.02.2016 06:31 -5,2 C -5,9 C 85 % 1023,1 hPa 0,0 mm 0,0 km/h (0 Bft) S-SO 157 0 min -7,3 C 0,0 km/h (0 Bft)
20.02.2016 06:32 -5,2 C -5,9 C 85 % 1023,1 hPa 0,0 mm 0,0 km/h (0 Bft) S-SO 157 0 min -7,3 C 0,0 km/h (0 Bft)
20.02.2016 06:33 -5,0 C -5,8 C 85 % 1023,1 hPa 0,0 mm 0,0 km/h (0 Bft) S-SO 157 0 min -7,1 C 0,0 km/h (0 Bft)
20.02.2016 06:34 -5,0 C -5,8 C 85 % 1023,1 hPa 0,0 mm 0,0 km/h (0 Bft) S-SO 157 0 min -7,1 C 0,0 km/h (0 Bft)
20.02.2016 06:35 -5,0 C -5,8 C 85 % 1023,1 hPa 0,0 mm 0,0 km/h (0 Bft) S-SO 157 0 min -7,1 C 0,0 km/h (0 Bft)
20.02.2016 06:36 -5,0 C -5,8 C 85 % 1023,1 hPa 0,0 mm 0,0 km/h (0 Bft) S-SO 157 0 min -7,1 C 0,0 km/h (0 Bft)
20.02.2016 06:37 -5,0 C -5,8 C 85 % 1023,1 hPa 0,0 mm 0,0 km/h (0 Bft) S-SO 157 0 min -7,1 C 0,0 km/h (0 Bft)
20.02.2016 06:38 -5,0 C -5,8 C 85 % 1023,1 hPa 0,0 mm 0,0 km/h (0 Bft) S-SO 157 0 min -7,1 C 0,0 km/h (0 Bft)
20.02.2016 06:39 -5,2 C -5,9 C 85 % 1023,1 hPa 0,0 mm 0,0 km/h (0 Bft) S-SO 157 0 min -7,3 C 0,0 km/h (0 Bft)
20.02.2016 06:40 -5,2 C -5,9 C 85 % 1023,1 hPa 0,0 mm 0,0 km/h (0 Bft) S-SO 157 0 min -7,3 C 0,0 km/h (0 Bft)
20.02.2016 06:41 -5,3 C -5,9 C 84 % 1023,1 hPa 0,0 mm 0,0 km/h (0 Bft) S-SO 157 0 min -7,6 C 0,0 km/h (0 Bft)
20.02.2016 06:42 -5,3 C -5,9 C 84 % 1023,1 hPa 0,0 mm 0,0 km/h (0 Bft) S-SO 157 0 min -7,6 C 0,0 km/h (0 Bft)
20.02.2016 06:43 -5,3 C -5,9 C 84 % 1022,9 hPa 0,0 mm 0,0 km/h (0 Bft) S-SO 157 0 min -7,6 C 0,0 km/h (0 Bft)
20.02.2016 06:44 -5,3 C -5,9 C 84 % 1022,9 hPa 0,0 mm 0,0 km/h (0 Bft) S-SO 157 0 min -7,6 C 0,0 km/h (0 Bft)
20.02.2016 06:45 -5,4 C -6,0 C 84 % 1022,9 hPa 0,0 mm 0,0 km/h (0 Bft) S-SO 157 0 min -7,7 C 0,0 km/h (0 Bft)
20.02.2016 06:46 -5,4 C -6,0 C 84 % 1022,9 hPa 0,0 mm 0,0 km/h (0 Bft) S-SO 157 0 min -7,7 C 0,0 km/h (0 Bft)
20.02.2016 06:47 -5,5 C -6,0 C 84 % 1022,9 hPa 0,0 mm 0,0 km/h (0 Bft) S-SO 157 0 min -7,8 C 0,0 km/h (0 Bft)
20.02.2016 06:48 -5,5 C -6,0 C 84 % 1022,9 hPa 0,0 mm 0,0 km/h (0 Bft) S-SO 157 0 min -7,8 C 0,0 km/h (0 Bft)
20.02.2016 06:49 -5,4 C -6,0 C 84 % 1022,9 hPa 0,0 mm 0,0 km/h (0 Bft) S-SO 157 0 min -7,7 C 0,0 km/h (0 Bft)
20.02.2016 06:50 -5,4 C -6,0 C 84 % 1022,9 hPa 0,0 mm 0,0 km/h (0 Bft) S-SO 157 0 min -7,7 C 0,0 km/h (0 Bft)
20.02.2016 06:51 -5,4 C -6,0 C 84 % 1022,9 hPa 0,0 mm 0,0 km/h (0 Bft) S-SO 157 0 min -7,7 C 0,0 km/h (0 Bft)
20.02.2016 06:52 -5,4 C -6,0 C 84 % 1022,9 hPa 0,0 mm 0,0 km/h (0 Bft) S-SO 157 0 min -7,7 C 0,0 km/h (0 Bft)
20.02.2016 06:53 -5,6 C -6,1 C 84 % 1022,9 hPa 0,0 mm 0,0 km/h (0 Bft) S-SO 157 0 min -7,9 C 0,0 km/h (0 Bft)
20.02.2016 06:54 -5,6 C -6,1 C 84 % 1022,9 hPa 0,0 mm 0,0 km/h (0 Bft) S-SO 157 0 min -7,9 C 0,0 km/h (0 Bft)
20.02.2016 06:55 -5,5 C -6,1 C 84 % 1022,9 hPa 0,0 mm 0,0 km/h (0 Bft) S-SO 157 0 min -7,8 C 0,0 km/h (0 Bft)
20.02.2016 06:56 -5,5 C -6,1 C 84 % 1022,9 hPa 0,0 mm 0,0 km/h (0 Bft) S-SO 157 0 min -7,8 C 0,0 km/h (0 Bft)
20.02.2016 06:57 -5,4 C -6,0 C 84 % 1022,9 hPa 0,0 mm 0,0 km/h (0 Bft) S-SO 157 0 min -7,7 C 0,0 km/h (0 Bft)
20.02.2016 06:58 -5,4 C -6,0 C 84 % 1022,9 hPa 0,0 mm 0,0 km/h (0 Bft) S-SO 157 0 min -7,7 C 0,0 km/h (0 Bft)
20.02.2016 06:59 -5,6 C -6,1 C 84 % 1022,9 hPa 0,0 mm 0,0 km/h (0 Bft) S-SO 157 0 min -7,9 C 0,0 km/h (0 Bft)
20.02.2016 07:00 -5,6 C -6,1 C 84 % 1022,9 hPa 0,0 mm 0,0 km/h (0 Bft) S-SO 157 0 min -7,9 C 0,0 km/h (0 Bft)
20.02.2016 07:01 -5,6 C -6,1 C 84 % 1022,9 hPa 0,0 mm 0,0 km/h (0 Bft) S-SO 157 0 min -7,9 C 0,0 km/h (0 Bft)
20.02.2016 07:02 -5,6 C -6,1 C 84 % 1022,9 hPa 0,0 mm 0,0 km/h (0 Bft) S-SO 157 0 min -7,9 C 0,0 km/h (0 Bft)
20.02.2016 07:03 -5,4 C -6,0 C 84 % 1023,0 hPa 0,0 mm 0,0 km/h (0 Bft) S-SO 157 0 min -7,7 C 0,0 km/h (0 Bft)
20.02.2016 07:04 -5,4 C -6,0 C 84 % 1023,0 hPa 0,0 mm 0,0 km/h (0 Bft) S-SO 157 0 min -7,7 C 0,0 km/h (0 Bft)
20.02.2016 07:05 -5,3 C -5,9 C 81 % 1023,0 hPa 0,0 mm 0,0 km/h (0 Bft) S-SO 157 0 min -8,0 C 0,0 km/h (0 Bft)
20.02.2016 07:06 -5,3 C -5,9 C 81 % 1023,0 hPa 0,0 mm 0,0 km/h (0 Bft) S-SO 157 0 min -8,0 C 0,0 km/h (0 Bft)
20.02.2016 07:07 -5,3 C -5,9 C 84 % 1023,0 hPa 0,0 mm 0,0 km/h (0 Bft) S-SO 157 0 min -7,6 C 0,0 km/h (0 Bft)
20.02.2016 07:08 -5,3 C -5,9 C 84 % 1023,0 hPa 0,0 mm 0,0 km/h (0 Bft) S-SO 157 0 min -7,6 C 0,0 km/h (0 Bft)
20.02.2016 07:09 -5,4 C -6,0 C 84 % 1023,0 hPa 0,0 mm 0,0 km/h (0 Bft) S-SO 157 0 min -7,7 C 0,0 km/h (0 Bft)
20.02.2016 07:10 -5,4 C -6,0 C 84 % 1023,0 hPa 0,0 mm 0,0 km/h (0 Bft) S-SO 157 0 min -7,7 C 0,0 km/h (0 Bft)
20.02.2016 07:11 -5,5 C -6,0 C 84 % 1023,0 hPa 0,0 mm 0,0 km/h (0 Bft) S-SO 157 0 min -7,8 C 0,0 km/h (0 Bft)
20.02.2016 07:12 -5,5 C -6,0 C 84 % 1023,0 hPa 0,0 mm 0,0 km/h (0 Bft) S-SO 157 0 min -7,8 C 0,0 km/h (0 Bft)
20.02.2016 07:13 -5,2 C -5,8 C 84 % 1023,0 hPa 0,0 mm 0,0 km/h (0 Bft) NO 45 0 min -7,5 C 0,0 km/h (0 Bft)
20.02.2016 07:14 -5,2 C -5,8 C 84 % 1023,0 hPa 0,0 mm 0,0 km/h (0 Bft) NO 45 0 min -7,5 C 0,0 km/h (0 Bft)
20.02.2016 07:15 -5,3 C -5,9 C 84 % 1023,0 hPa 0,0 mm 0,0 km/h (0 Bft) NW 315 0 min -7,6 C 0,0 km/h (0 Bft)
20.02.2016 07:16 -5,3 C -5,9 C 84 % 1023,0 hPa 0,0 mm 0,0 km/h (0 Bft) NW 315 0 min -7,6 C 0,0 km/h (0 Bft)
20.02.2016 07:17 -5,5 C -6,0 C 84 % 1023,0 hPa 0,0 mm 0,0 km/h (0 Bft) N-NO 22 0 min -7,8 C 0,0 km/h (0 Bft)
20.02.2016 07:18 -5,5 C -6,0 C 84 % 1023,0 hPa 0,0 mm 0,0 km/h (0 Bft) N-NO 22 0 min -7,8 C 0,0 km/h (0 Bft)
20.02.2016 07:19 -5,5 C -6,0 C 84 % 1023,0 hPa 0,0 mm 0,0 km/h (0 Bft) O-SO 112 0 min -7,8 C 0,0 km/h (0 Bft)
20.02.2016 07:20 -5,5 C -6,0 C 84 % 1023,0 hPa 0,0 mm 0,0 km/h (0 Bft) O-SO 112 0 min -7,8 C 0,0 km/h (0 Bft)
20.02.2016 07:21 -5,3 C -5,9 C 84 % 1023,0 hPa 0,0 mm 0,0 km/h (0 Bft) N-NO 22 0 min -7,6 C 0,0 km/h (0 Bft)
20.02.2016 07:22 -5,3 C -5,9 C 84 % 1023,0 hPa 0,0 mm 0,0 km/h (0 Bft) N-NO 22 0 min -7,6 C 0,0 km/h (0 Bft)
20.02.2016 07:23 -5,3 C -5,8 C 84 % 1023,1 hPa 0,0 mm 0,0 km/h (0 Bft) N-NO 22 0 min -7,6 C 0,0 km/h (0 Bft)
20.02.2016 07:24 -5,3 C -5,8 C 84 % 1023,1 hPa 0,0 mm 0,0 km/h (0 Bft) N-NO 22 0 min -7,6 C 0,0 km/h (0 Bft)
20.02.2016 07:25 -5,4 C -5,9 C 84 % 1023,1 hPa 0,0 mm 0,0 km/h (0 Bft) SO 135 0 min -7,7 C 0,0 km/h (0 Bft)
20.02.2016 07:26 -5,4 C -5,9 C 84 % 1023,1 hPa 0,0 mm 0,0 km/h (0 Bft) SO 135 0 min -7,7 C 0,0 km/h (0 Bft)
20.02.2016 07:27 -5,3 C -5,8 C 84 % 1023,1 hPa 0,0 mm 0,0 km/h (0 Bft) W-NW 292 0 min -7,6 C 0,0 km/h (0 Bft)
20.02.2016 07:28 -5,3 C -5,8 C 84 % 1023,1 hPa 0,0 mm 0,0 km/h (0 Bft) W-NW 292 0 min -7,6 C 0,0 km/h (0 Bft)
20.02.2016 07:29 -5,1 C -5,7 C 85 % 1023,1 hPa 0,0 mm 0,0 km/h (0 Bft) S 180 0 min -7,2 C 0,0 km/h (0 Bft)
20.02.2016 07:30 -5,1 C -5,7 C 85 % 1023,1 hPa 0,0 mm 0,0 km/h (0 Bft) S 180 0 min -7,2 C 0,0 km/h (0 Bft)
20.02.2016 07:31 -5,0 C -5,5 C 81 % 1023,1 hPa 0,0 mm 0,0 km/h (0 Bft) W-SW 247 0 min -7,7 C 0,0 km/h (0 Bft)
20.02.2016 07:32 -5,0 C -5,5 C 81 % 1023,1 hPa 0,0 mm 0,0 km/h (0 Bft) W-SW 247 0 min -7,7 C 0,0 km/h (0 Bft)
20.02.2016 07:33 -5,0 C -5,4 C 81 % 1023,1 hPa 0,0 mm 0,0 km/h (0 Bft) O-SO 112 0 min -7,7 C 0,0 km/h (0 Bft)
20.02.2016 07:34 -5,0 C -5,4 C 81 % 1023,1 hPa 0,0 mm 0,0 km/h (0 Bft) O-SO 112 0 min -7,7 C 0,0 km/h (0 Bft)
20.02.2016 07:35 -4,9 C -5,4 C 81 % 1023,1 hPa 0,0 mm 0,0 km/h (0 Bft) O-NO 67 0 min -7,6 C 0,0 km/h (0 Bft)
20.02.2016 07:36 -4,9 C -5,4 C 81 % 1023,1 hPa 0,0 mm 0,0 km/h (0 Bft) O-NO 67 0 min -7,6 C 0,0 km/h (0 Bft)
20.02.2016 07:37 -4,9 C -5,4 C 81 % 1023,1 hPa 0,0 mm 0,0 km/h (0 Bft) NW 315 0 min -7,6 C 0,0 km/h (0 Bft)
20.02.2016 07:38 -4,9 C -5,4 C 81 % 1023,1 hPa 0,0 mm 0,0 km/h (0 Bft) NW 315 0 min -7,6 C 0,0 km/h (0 Bft)
20.02.2016 07:39 -4,8 C -5,3 C 84 % 1023,1 hPa 0,0 mm 0,0 km/h (0 Bft) O-NO 67 0 min -7,1 C 0,0 km/h (0 Bft)
20.02.2016 07:40 -4,8 C -5,3 C 84 % 1023,1 hPa 0,0 mm 0,0 km/h (0 Bft) O-NO 67 0 min -7,1 C 0,0 km/h (0 Bft)
20.02.2016 07:41 -4,7 C -5,2 C 81 % 1023,1 hPa 0,0 mm 0,0 km/h (0 Bft) O-SO 112 0 min -7,4 C 0,0 km/h (0 Bft)
20.02.2016 07:42 -4,7 C -5,2 C 81 % 1023,1 hPa 0,0 mm 0,0 km/h (0 Bft) O-SO 112 0 min -7,4 C 0,0 km/h (0 Bft)
20.02.2016 07:43 -4,6 C -5,1 C 81 % 1022,9 hPa 0,0 mm 0,0 km/h (0 Bft) O-NO 67 0 min -7,4 C 0,0 km/h (0 Bft)
20.02.2016 07:44 -4,6 C -5,1 C 81 % 1022,9 hPa 0,0 mm 0,0 km/h (0 Bft) O-NO 67 0 min -7,4 C 0,0 km/h (0 Bft)
20.02.2016 07:45 -4,5 C -4,9 C 81 % 1022,9 hPa 0,0 mm 0,0 km/h (0 Bft) NO 45 0 min -7,3 C 0,0 km/h (0 Bft)
20.02.2016 07:46 -4,5 C -4,9 C 81 % 1022,9 hPa 0,0 mm 0,0 km/h (0 Bft) NO 45 0 min -7,3 C 0,0 km/h (0 Bft)
20.02.2016 07:47 -4,3 C -4,9 C 84 % 1022,9 hPa 0,0 mm 0,0 km/h (0 Bft) O 90 0 min -6,6 C 0,0 km/h (0 Bft)
20.02.2016 07:48 -4,3 C -4,9 C 84 % 1022,9 hPa 0,0 mm 0,0 km/h (0 Bft) O 90 0 min -6,6 C 0,0 km/h (0 Bft)
20.02.2016 07:49 -4,3 C -4,9 C 84 % 1022,9 hPa 0,0 mm 0,0 km/h (0 Bft) S 180 0 min -6,6 C 0,0 km/h (0 Bft)
20.02.2016 07:50 -4,3 C -4,9 C 84 % 1022,9 hPa 0,0 mm 0,0 km/h (0 Bft) S 180 0 min -6,6 C 0,0 km/h (0 Bft)
20.02.2016 07:51 -4,2 C -4,8 C 84 % 1022,9 hPa 0,0 mm 0,3 km/h (0 Bft) S-SO 157 0 min -6,5 C 4,8 km/h (1 Bft)
20.02.2016 07:52 -4,2 C -4,8 C 84 % 1022,9 hPa 0,0 mm 0,3 km/h (0 Bft) S-SO 157 0 min -6,5 C 4,8 km/h (1 Bft)
20.02.2016 07:53 -4,3 C -4,6 C 80 % 1022,9 hPa 0,0 mm 0,3 km/h (0 Bft) W 270 0 min -7,2 C 0,0 km/h (0 Bft)
20.02.2016 07:54 -4,3 C -4,6 C 80 % 1022,9 hPa 0,0 mm 0,3 km/h (0 Bft) W 270 0 min -7,2 C 0,0 km/h (0 Bft)
20.02.2016 07:55 -4,3 C -4,7 C 80 % 1022,9 hPa 0,0 mm 0,0 km/h (0 Bft) S 180 0 min -7,2 C 0,0 km/h (0 Bft)
20.02.2016 07:56 -4,3 C -4,7 C 80 % 1022,9 hPa 0,0 mm 0,0 km/h (0 Bft) S 180 0 min -7,2 C 0,0 km/h (0 Bft)
20.02.2016 07:57 -4,1 C -4,6 C 84 % 1022,9 hPa 0,0 mm 0,0 km/h (0 Bft) O-SO 112 0 min -6,4 C 0,0 km/h (0 Bft)
20.02.2016 07:58 -4,1 C -4,6 C 84 % 1022,9 hPa 0,0 mm 0,0 km/h (0 Bft) O-SO 112 0 min -6,4 C 0,0 km/h (0 Bft)
20.02.2016 07:59 -4,1 C -4,5 C 80 % 1022,9 hPa 0,0 mm 0,0 km/h (0 Bft) W-NW 292 0 min -7,0 C 0,0 km/h (0 Bft)
20.02.2016 08:00 -4,1 C -4,5 C 80 % 1022,9 hPa 0,0 mm 0,0 km/h (0 Bft) W-NW 292 0 min -7,0 C 0,0 km/h (0 Bft)
20.02.2016 08:01 -4,1 C -4,5 C 80 % 1022,9 hPa 0,0 mm 0,0 km/h (0 Bft) O-SO 112 0 min -7,0 C 0,0 km/h (0 Bft)
20.02.2016 08:02 -4,1 C -4,5 C 80 % 1022,9 hPa 0,0 mm 0,0 km/h (0 Bft) O-SO 112 0 min -7,0 C 0,0 km/h (0 Bft)
20.02.2016 08:03 -4,1 C -4,4 C 80 % 1022,7 hPa 0,0 mm 0,3 km/h (0 Bft) NO 45 0 min -7,0 C 0,0 km/h (0 Bft)
20.02.2016 08:04 -4,1 C -4,4 C 80 % 1022,7 hPa 0,0 mm 0,3 km/h (0 Bft) NO 45 0 min -7,0 C 0,0 km/h (0 Bft)
20.02.2016 08:05 -4,0 C -4,3 C 80 % 1022,7 hPa 0,0 mm 0,3 km/h (0 Bft) O-NO 67 0 min -6,9 C 0,0 km/h (0 Bft)
20.02.2016 08:06 -4,0 C -4,3 C 80 % 1022,7 hPa 0,0 mm 0,3 km/h (0 Bft) O-NO 67 0 min -6,9 C 0,0 km/h (0 Bft)
20.02.2016 08:07 -4,0 C -4,2 C 80 % 1022,7 hPa 0,0 mm 0,3 km/h (0 Bft) W 270 0 min -6,9 C 0,0 km/h (0 Bft)
20.02.2016 08:08 -4,0 C -4,2 C 80 % 1022,7 hPa 0,0 mm 0,3 km/h (0 Bft) W 270 0 min -6,9 C 0,0 km/h (0 Bft)
20.02.2016 08:09 -3,9 C -4,1 C 80 % 1022,7 hPa 0,0 mm 0,3 km/h (0 Bft) SO 135 0 min -6,8 C 0,0 km/h (0 Bft)
20.02.2016 08:10 -3,9 C -4,1 C 80 % 1022,7 hPa 0,0 mm 0,3 km/h (0 Bft) SO 135 0 min -6,8 C 0,0 km/h (0 Bft)
20.02.2016 08:11 -3,7 C -4,1 C 80 % 1022,7 hPa 0,0 mm 0,3 km/h (0 Bft) SO 135 0 min -6,6 C 0,0 km/h (0 Bft)
20.02.2016 08:12 -3,7 C -4,1 C 80 % 1022,7 hPa 0,0 mm 0,3 km/h (0 Bft) SO 135 0 min -6,6 C 0,0 km/h (0 Bft)
20.02.2016 08:13 -3,7 C -3,9 C 80 % 1022,7 hPa 0,0 mm 0,3 km/h (0 Bft) O-SO 112 0 min -6,6 C 3,6 km/h (1 Bft)
20.02.2016 08:14 -3,7 C -3,9 C 80 % 1022,7 hPa 0,0 mm 0,3 km/h (0 Bft) O-SO 112 0 min -6,6 C 3,6 km/h (1 Bft)
20.02.2016 08:15 -3,6 C -3,8 C 80 % 1022,7 hPa 0,0 mm 0,3 km/h (0 Bft) SO 135 0 min -6,5 C 0,0 km/h (0 Bft)
20.02.2016 08:16 -3,6 C -3,8 C 80 % 1022,7 hPa 0,0 mm 0,3 km/h (0 Bft) SO 135 0 min -6,5 C 0,0 km/h (0 Bft)
20.02.2016 08:17 -3,5 C -3,6 C 80 % 1022,7 hPa 0,0 mm 0,3 km/h (0 Bft) O-NO 67 0 min -6,4 C 0,0 km/h (0 Bft)
20.02.2016 08:18 -3,5 C -3,6 C 80 % 1022,7 hPa 0,0 mm 0,3 km/h (0 Bft) O-NO 67 0 min -6,4 C 0,0 km/h (0 Bft)
20.02.2016 08:19 -3,4 C -3,5 C 80 % 1022,7 hPa 0,0 mm 0,3 km/h (0 Bft) O 90 0 min -6,3 C 0,0 km/h (0 Bft)
20.02.2016 08:20 -3,4 C -3,5 C 80 % 1022,7 hPa 0,0 mm 0,3 km/h (0 Bft) O 90 0 min -6,3 C 0,0 km/h (0 Bft)
20.02.2016 08:21 -3,2 C -3,4 C 79 % 1022,7 hPa 0,0 mm 0,3 km/h (0 Bft) O-NO 67 0 min -6,3 C 0,0 km/h (0 Bft)
20.02.2016 08:22 -3,2 C -3,4 C 79 % 1022,7 hPa 0,0 mm 0,3 km/h (0 Bft) O-NO 67 0 min -6,3 C 0,0 km/h (0 Bft)
20.02.2016 08:24 -3,2 C -3,3 C 79 % 1022,4 hPa 0,0 mm 0,3 km/h (0 Bft) O-NO 67 0 min -6,3 C 0,0 km/h (0 Bft)
20.02.2016 08:25 -3,1 C -3,2 C 79 % 1022,4 hPa 0,0 mm 0,0 km/h (0 Bft) O-NO 67 0 min -6,2 C 0,0 km/h (0 Bft)
20.02.2016 08:26 -3,1 C -3,2 C 79 % 1022,4 hPa 0,0 mm 0,0 km/h (0 Bft) O-NO 67 0 min -6,2 C 0,0 km/h (0 Bft)
20.02.2016 08:27 -3,0 C -3,1 C 79 % 1022,4 hPa 0,0 mm 0,0 km/h (0 Bft) N 360 0 min -6,1 C 0,0 km/h (0 Bft)
20.02.2016 08:28 -3,0 C -3,1 C 79 % 1022,4 hPa 0,0 mm 0,0 km/h (0 Bft) N 360 0 min -6,1 C 0,0 km/h (0 Bft)
20.02.2016 08:29 -3,0 C -3,0 C 79 % 1022,4 hPa 0,0 mm 0,0 km/h (0 Bft) N-NO 22 0 min -6,1 C 0,0 km/h (0 Bft)
20.02.2016 08:30 -3,0 C -3,0 C 79 % 1022,4 hPa 0,0 mm 0,0 km/h (0 Bft) N-NO 22 0 min -6,1 C 0,0 km/h (0 Bft)
20.02.2016 08:31 -3,0 C -2,9 C 79 % 1022,4 hPa 0,0 mm 0,0 km/h (0 Bft) O-SO 112 0 min -6,1 C 0,0 km/h (0 Bft)
20.02.2016 08:32 -3,0 C -2,9 C 79 % 1022,4 hPa 0,0 mm 0,0 km/h (0 Bft) O-SO 112 0 min -6,1 C 0,0 km/h (0 Bft)
20.02.2016 08:33 -2,7 C -2,8 C 79 % 1022,4 hPa 0,0 mm 0,0 km/h (0 Bft) W 270 0 min -5,8 C 0,0 km/h (0 Bft)
20.02.2016 08:34 -2,7 C -2,8 C 79 % 1022,4 hPa 0,0 mm 0,0 km/h (0 Bft) W 270 0 min -5,8 C 0,0 km/h (0 Bft)
20.02.2016 08:35 -2,6 C -2,7 C 79 % 1022,4 hPa 0,0 mm 0,0 km/h (0 Bft) O-NO 67 0 min -5,7 C 0,0 km/h (0 Bft)
20.02.2016 08:36 -2,6 C -2,7 C 79 % 1022,4 hPa 0,0 mm 0,0 km/h (0 Bft) O-NO 67 0 min -5,7 C 0,0 km/h (0 Bft)
20.02.2016 08:37 -2,6 C -2,6 C 79 % 1022,4 hPa 0,0 mm 0,0 km/h (0 Bft) O-SO 112 0 min -5,7 C 0,0 km/h (0 Bft)
20.02.2016 08:38 -2,6 C -2,6 C 79 % 1022,4 hPa 0,0 mm 0,0 km/h (0 Bft) O-SO 112 0 min -5,7 C 0,0 km/h (0 Bft)
20.02.2016 08:39 -2,5 C -2,5 C 79 % 1022,4 hPa 0,0 mm 0,0 km/h (0 Bft) O-NO 67 0 min -5,6 C 0,0 km/h (0 Bft)
20.02.2016 08:40 -2,5 C -2,5 C 79 % 1022,4 hPa 0,0 mm 0,0 km/h (0 Bft) O-NO 67 0 min -5,6 C 0,0 km/h (0 Bft)
20.02.2016 08:41 -2,4 C -2,4 C 79 % 1022,4 hPa 0,0 mm 0,0 km/h (0 Bft) O-NO 67 0 min -5,5 C 0,0 km/h (0 Bft)
20.02.2016 08:42 -2,4 C -2,4 C 79 % 1022,4 hPa 0,0 mm 0,0 km/h (0 Bft) O-NO 67 0 min -5,5 C 0,0 km/h (0 Bft)
20.02.2016 08:43 -2,2 C -2,3 C 79 % 1022,4 hPa 0,0 mm 0,0 km/h (0 Bft) O-SO 112 0 min -5,3 C 0,0 km/h (0 Bft)
20.02.2016 08:44 -2,2 C -2,3 C 79 % 1022,4 hPa 0,0 mm 0,0 km/h (0 Bft) O-SO 112 0 min -5,3 C 0,0 km/h (0 Bft)
20.02.2016 08:45 -2,2 C -2,2 C 79 % 1022,4 hPa 0,0 mm 0,0 km/h (0 Bft) O-NO 67 0 min -5,3 C 0,0 km/h (0 Bft)
20.02.2016 08:46 -2,2 C -2,2 C 79 % 1022,4 hPa 0,0 mm 0,0 km/h (0 Bft) O-NO 67 0 min -5,3 C 0,0 km/h (0 Bft)
20.02.2016 08:47 -2,1 C -2,1 C 79 % 1022,4 hPa 0,0 mm 0,0 km/h (0 Bft) N-NW 337 0 min -5,2 C 0,0 km/h (0 Bft)
20.02.2016 08:48 -2,1 C -2,1 C 79 % 1022,4 hPa 0,0 mm 0,0 km/h (0 Bft) N-NW 337 0 min -5,2 C 0,0 km/h (0 Bft)
20.02.2016 08:49 -2,0 C -2,0 C 79 % 1022,4 hPa 0,0 mm 0,0 km/h (0 Bft) SO 135 0 min -5,1 C 0,0 km/h (0 Bft)
20.02.2016 08:50 -2,0 C -2,0 C 79 % 1022,4 hPa 0,0 mm 0,0 km/h (0 Bft) SO 135 0 min -5,1 C 0,0 km/h (0 Bft)
20.02.2016 08:51 -2,0 C -2,0 C 79 % 1022,4 hPa 0,0 mm 0,0 km/h (0 Bft) W 270 0 min -5,1 C 3,9 km/h (1 Bft)
20.02.2016 08:52 -2,0 C -2,0 C 79 % 1022,4 hPa 0,0 mm 0,0 km/h (0 Bft) W 270 0 min -5,1 C 3,9 km/h (1 Bft)
20.02.2016 08:53 -1,8 C -1,9 C 78 % 1022,4 hPa 0,0 mm 0,3 km/h (0 Bft) O-SO 112 0 min -5,1 C 0,0 km/h (0 Bft)
20.02.2016 08:54 -1,8 C -1,9 C 78 % 1022,4 hPa 0,0 mm 0,3 km/h (0 Bft) O-SO 112 0 min -5,1 C 0,0 km/h (0 Bft)
20.02.2016 08:55 -1,8 C -1,9 C 78 % 1022,4 hPa 0,0 mm 0,3 km/h (0 Bft) S 180 0 min -5,1 C 0,0 km/h (0 Bft)
20.02.2016 08:56 -1,8 C -1,9 C 78 % 1022,4 hPa 0,0 mm 0,3 km/h (0 Bft) S 180 0 min -5,1 C 0,0 km/h (0 Bft)
20.02.2016 08:57 -1,8 C -1,8 C 78 % 1022,4 hPa 0,0 mm 0,3 km/h (0 Bft) W-SW 247 0 min -5,1 C 0,0 km/h (0 Bft)
20.02.2016 08:58 -1,8 C -1,8 C 78 % 1022,4 hPa 0,0 mm 0,3 km/h (0 Bft) W-SW 247 0 min -5,1 C 0,0 km/h (0 Bft)
20.02.2016 08:59 -1,7 C -1,7 C 78 % 1022,4 hPa 0,0 mm 0,3 km/h (0 Bft) W-SW 247 0 min -5,0 C 3,9 km/h (1 Bft)
20.02.2016 09:00 -1,7 C -1,7 C 78 % 1022,4 hPa 0,0 mm 0,3 km/h (0 Bft) W-SW 247 0 min -5,0 C 3,9 km/h (1 Bft)
20.02.2016 09:01 -1,6 C -1,7 C 78 % 1022,4 hPa 0,0 mm 0,6 km/h (0 Bft) SW 225 0 min -4,9 C 0,0 km/h (0 Bft)
20.02.2016 09:02 -1,6 C -1,7 C 78 % 1022,4 hPa 0,0 mm 0,6 km/h (0 Bft) SW 225 0 min -4,9 C 0,0 km/h (0 Bft)
20.02.2016 09:03 -1,5 C -1,7 C 78 % 1022,8 hPa 0,0 mm 0,6 km/h (0 Bft) O-SO 112 0 min -4,8 C 0,0 km/h (0 Bft)
20.02.2016 09:04 -1,5 C -1,7 C 78 % 1022,8 hPa 0,0 mm 0,6 km/h (0 Bft) O-SO 112 0 min -4,8 C 0,0 km/h (0 Bft)
20.02.2016 09:05 -1,5 C -1,6 C 78 % 1022,8 hPa 0,0 mm 0,9 km/h (0 Bft) W-SW 247 0 min -4,8 C 8,6 km/h (2 Bft)
20.02.2016 09:06 -1,5 C -1,6 C 78 % 1022,8 hPa 0,0 mm 0,9 km/h (0 Bft) W-SW 247 0 min -4,8 C 8,6 km/h (2 Bft)
20.02.2016 09:07 -1,5 C -1,6 C 78 % 1022,8 hPa 0,0 mm 1,5 km/h (1 Bft) W-SW 247 0 min -4,8 C 3,9 km/h (1 Bft)
20.02.2016 09:08 -1,5 C -1,6 C 78 % 1022,8 hPa 0,0 mm 1,5 km/h (1 Bft) W-SW 247 0 min -4,8 C 3,9 km/h (1 Bft)
20.02.2016 09:09 -1,4 C -1,6 C 78 % 1022,8 hPa 0,0 mm 3,0 km/h (1 Bft) S 180 0 min -4,7 C 4,2 km/h (1 Bft)
20.02.2016 09:10 -1,4 C -1,6 C 78 % 1022,8 hPa 0,0 mm 3,0 km/h (1 Bft) S 180 0 min -4,7 C 4,2 km/h (1 Bft)
20.02.2016 09:11 -1,4 C -1,6 C 77 % 1022,8 hPa 0,0 mm 2,7 km/h (1 Bft) SO 135 0 min -4,9 C 0,0 km/h (0 Bft)
20.02.2016 09:12 -1,4 C -1,6 C 77 % 1022,8 hPa 0,0 mm 2,7 km/h (1 Bft) SO 135 0 min -4,9 C 0,0 km/h (0 Bft)
20.02.2016 09:13 -1,4 C -1,5 C 77 % 1022,8 hPa 0,0 mm 2,7 km/h (1 Bft) W-SW 247 0 min -4,9 C 0,0 km/h (0 Bft)
20.02.2016 09:14 -1,4 C -1,5 C 77 % 1022,8 hPa 0,0 mm 2,7 km/h (1 Bft) W-SW 247 0 min -4,9 C 0,0 km/h (0 Bft)
20.02.2016 09:15 -1,2 C -1,3 C 77 % 1022,8 hPa 0,0 mm 2,7 km/h (1 Bft) O-SO 112 0 min -4,7 C 0,0 km/h (0 Bft)
20.02.2016 09:16 -1,2 C -1,3 C 77 % 1022,8 hPa 0,0 mm 2,7 km/h (1 Bft) O-SO 112 0 min -4,7 C 0,0 km/h (0 Bft)
20.02.2016 09:17 -1,1 C -1,3 C 77 % 1022,8 hPa 0,0 mm 2,1 km/h (1 Bft) W-SW 247 0 min -4,6 C 4,2 km/h (1 Bft)
20.02.2016 09:18 -1,1 C -1,3 C 77 % 1022,8 hPa 0,0 mm 2,1 km/h (1 Bft) W-SW 247 0 min -4,6 C 4,2 km/h (1 Bft)
20.02.2016 09:19 -1,1 C -1,1 C 77 % 1022,8 hPa 0,0 mm 2,1 km/h (1 Bft) NW 315 0 min -4,6 C 4,5 km/h (1 Bft)
20.02.2016 09:20 -1,1 C -1,1 C 77 % 1022,8 hPa 0,0 mm 2,1 km/h (1 Bft) NW 315 0 min -4,6 C 4,5 km/h (1 Bft)
20.02.2016 09:21 -1,1 C -1,0 C 77 % 1022,8 hPa 0,0 mm 2,1 km/h (1 Bft) W-NW 292 0 min -4,6 C 6,3 km/h (2 Bft)
20.02.2016 09:22 -1,1 C -1,0 C 77 % 1022,8 hPa 0,0 mm 2,1 km/h (1 Bft) W-NW 292 0 min -4,6 C 6,3 km/h (2 Bft)
20.02.2016 09:23 -1,0 C -1,0 C 77 % 1022,5 hPa 0,0 mm 2,7 km/h (1 Bft) W-SW 247 0 min -4,5 C 7,5 km/h (2 Bft)
20.02.2016 09:24 -1,0 C -1,0 C 77 % 1022,5 hPa 0,0 mm 2,7 km/h (1 Bft) W-SW 247 0 min -4,5 C 7,5 km/h (2 Bft)
20.02.2016 09:25 -1,1 C -1,0 C 77 % 1022,5 hPa 0,0 mm 3,3 km/h (1 Bft) W-SW 247 0 min -4,6 C 5,4 km/h (1 Bft)
20.02.2016 09:26 -1,1 C -1,0 C 77 % 1022,5 hPa 0,0 mm 3,3 km/h (1 Bft) W-SW 247 0 min -4,6 C 5,4 km/h (1 Bft)
20.02.2016 09:27 -1,1 C -0,9 C 77 % 1022,5 hPa 0,0 mm 3,6 km/h (1 Bft) W 270 0 min -4,6 C 0,0 km/h (0 Bft)
20.02.2016 09:28 -1,1 C -0,9 C 77 % 1022,5 hPa 0,0 mm 3,6 km/h (1 Bft) W 270 0 min -4,6 C 0,0 km/h (0 Bft)
20.02.2016 09:29 -1,1 C -0,9 C 77 % 1022,5 hPa 0,0 mm 3,3 km/h (1 Bft) SW 225 0 min -4,6 C 7,5 km/h (2 Bft)
20.02.2016 09:30 -1,1 C -0,9 C 77 % 1022,5 hPa 0,0 mm 3,3 km/h (1 Bft) SW 225 0 min -4,6 C 7,5 km/h (2 Bft)
20.02.2016 09:31 -1,1 C -0,8 C 76 % 1022,5 hPa 0,0 mm 3,3 km/h (1 Bft) SW 225 0 min -4,8 C 0,0 km/h (0 Bft)
20.02.2016 09:32 -1,1 C -0,8 C 76 % 1022,5 hPa 0,0 mm 3,3 km/h (1 Bft) SW 225 0 min -4,8 C 0,0 km/h (0 Bft)
20.02.2016 09:33 -1,1 C -0,7 C 76 % 1022,5 hPa 0,0 mm 3,0 km/h (1 Bft) W-NW 292 0 min -4,8 C 0,0 km/h (0 Bft)
20.02.2016 09:34 -1,1 C -0,7 C 76 % 1022,5 hPa 0,0 mm 3,0 km/h (1 Bft) W-NW 292 0 min -4,8 C 0,0 km/h (0 Bft)
20.02.2016 09:35 -1,0 C -0,6 C 76 % 1022,5 hPa 0,0 mm 2,4 km/h (1 Bft) S-SO 157 0 min -4,7 C 0,0 km/h (0 Bft)
20.02.2016 09:36 -1,0 C -0,6 C 76 % 1022,5 hPa 0,0 mm 2,4 km/h (1 Bft) S-SO 157 0 min -4,7 C 0,0 km/h (0 Bft)
20.02.2016 09:37 -1,0 C -0,5 C 76 % 1022,5 hPa 0,0 mm 1,5 km/h (1 Bft) S 180 0 min -4,7 C 0,0 km/h (0 Bft)
20.02.2016 09:38 -1,0 C -0,5 C 76 % 1022,5 hPa 0,0 mm 1,5 km/h (1 Bft) S 180 0 min -4,7 C 0,0 km/h (0 Bft)
20.02.2016 09:39 -0,9 C -0,3 C 76 % 1022,5 hPa 0,0 mm 1,5 km/h (1 Bft) SO 135 0 min -4,6 C 0,0 km/h (0 Bft)
20.02.2016 09:40 -0,9 C -0,3 C 76 % 1022,5 hPa 0,0 mm 1,5 km/h (1 Bft) SO 135 0 min -4,6 C 0,0 km/h (0 Bft)
20.02.2016 09:41 -0,7 C -0,2 C 76 % 1022,5 hPa 0,0 mm 0,3 km/h (0 Bft) W-SW 247 0 min -4,4 C 0,0 km/h (0 Bft)
20.02.2016 09:42 -0,7 C -0,2 C 76 % 1022,5 hPa 0,0 mm 0,3 km/h (0 Bft) W-SW 247 0 min -4,4 C 0,0 km/h (0 Bft)
20.02.2016 09:43 -0,7 C 0,1 C 76 % 1022,3 hPa 0,0 mm 0,0 km/h (0 Bft) S 180 0 min -4,4 C 0,0 km/h (0 Bft)
20.02.2016 09:44 -0,7 C 0,1 C 76 % 1022,3 hPa 0,0 mm 0,0 km/h (0 Bft) S 180 0 min -4,4 C 0,0 km/h (0 Bft)
20.02.2016 09:45 -0,6 C 0,1 C 76 % 1022,3 hPa 0,0 mm 0,0 km/h (0 Bft) O-SO 112 0 min -4,3 C 0,0 km/h (0 Bft)
20.02.2016 09:46 -0,6 C 0,1 C 76 % 1022,3 hPa 0,0 mm 0,0 km/h (0 Bft) O-SO 112 0 min -4,3 C 0,0 km/h (0 Bft)
20.02.2016 09:47 -0,3 C 0,3 C 76 % 1022,3 hPa 0,0 mm 0,0 km/h (0 Bft) O 90 0 min -4,0 C 0,0 km/h (0 Bft)
20.02.2016 09:48 -0,3 C 0,3 C 76 % 1022,3 hPa 0,0 mm 0,0 km/h (0 Bft) O 90 0 min -4,0 C 0,0 km/h (0 Bft)
20.02.2016 09:49 -0,3 C 0,4 C 76 % 1022,3 hPa 0,0 mm 0,0 km/h (0 Bft) O-NO 67 0 min -4,0 C 0,0 km/h (0 Bft)
20.02.2016 09:50 -0,3 C 0,4 C 76 % 1022,3 hPa 0,0 mm 0,0 km/h (0 Bft) O-NO 67 0 min -4,0 C 0,0 km/h (0 Bft)
20.02.2016 09:51 -0,2 C 0,6 C 76 % 1022,3 hPa 0,0 mm 0,0 km/h (0 Bft) O-NO 67 0 min -3,9 C 0,0 km/h (0 Bft)
20.02.2016 09:52 -0,2 C 0,6 C 76 % 1022,3 hPa 0,0 mm 0,0 km/h (0 Bft) O-NO 67 0 min -3,9 C 0,0 km/h (0 Bft)
20.02.2016 09:53 -0,2 C 0,7 C 76 % 1022,3 hPa 0,0 mm 0,0 km/h (0 Bft) O-NO 67 0 min -3,9 C 0,0 km/h (0 Bft)
20.02.2016 09:54 -0,2 C 0,7 C 76 % 1022,3 hPa 0,0 mm 0,0 km/h (0 Bft) O-NO 67 0 min -3,9 C 0,0 km/h (0 Bft)
20.02.2016 09:55 -0,1 C 0,9 C 76 % 1022,3 hPa 0,0 mm 0,0 km/h (0 Bft) NO 45 0 min -3,8 C 0,0 km/h (0 Bft)
20.02.2016 09:56 -0,1 C 0,9 C 76 % 1022,3 hPa 0,0 mm 0,0 km/h (0 Bft) NO 45 0 min -3,8 C 0,0 km/h (0 Bft)
20.02.2016 09:57 -0,1 C 1,1 C 76 % 1022,3 hPa 0,0 mm 0,0 km/h (0 Bft) O-NO 67 0 min -3,8 C 0,0 km/h (0 Bft)
20.02.2016 09:58 -0,1 C 1,1 C 76 % 1022,3 hPa 0,0 mm 0,0 km/h (0 Bft) O-NO 67 0 min -3,8 C 0,0 km/h (0 Bft)
20.02.2016 09:59 0,0 C 1,3 C 76 % 1022,3 hPa 0,0 mm 0,0 km/h (0 Bft) O-NO 67 0 min -3,7 C 0,0 km/h (0 Bft)
20.02.2016 10:00 0,0 C 1,3 C 76 % 1022,3 hPa 0,0 mm 0,0 km/h (0 Bft) O-NO 67 0 min -3,7 C 0,0 km/h (0 Bft)
20.02.2016 10:01 0,0 C 1,5 C 76 % 1022,3 hPa 0,0 mm 0,0 km/h (0 Bft) O-NO 67 0 min -3,7 C 0,0 km/h (0 Bft)
20.02.2016 10:02 0,0 C 1,5 C 76 % 1022,3 hPa 0,0 mm 0,0 km/h (0 Bft) O-NO 67 0 min -3,7 C 0,0 km/h (0 Bft)
20.02.2016 10:03 0,1 C 1,6 C 76 % 1022,4 hPa 0,0 mm 0,0 km/h (0 Bft) N-NO 22 0 min -3,6 C 0,0 km/h (0 Bft)
20.02.2016 10:04 0,1 C 1,6 C 76 % 1022,4 hPa 0,0 mm 0,0 km/h (0 Bft) N-NO 22 0 min -3,6 C 0,0 km/h (0 Bft)
20.02.2016 10:05 0,1 C 1,9 C 76 % 1022,4 hPa 0,0 mm 0,0 km/h (0 Bft) O-NO 67 0 min -3,6 C 0,0 km/h (0 Bft)
20.02.2016 10:06 0,1 C 1,9 C 76 % 1022,4 hPa 0,0 mm 0,0 km/h (0 Bft) O-NO 67 0 min -3,6 C 0,0 km/h (0 Bft)
20.02.2016 10:07 0,2 C 2,1 C 76 % 1022,4 hPa 0,0 mm 0,0 km/h (0 Bft) N-NO 22 0 min -3,5 C 0,0 km/h (0 Bft)
20.02.2016 10:08 0,2 C 2,1 C 76 % 1022,4 hPa 0,0 mm 0,0 km/h (0 Bft) N-NO 22 0 min -3,5 C 0,0 km/h (0 Bft)
20.02.2016 10:09 0,4 C 2,4 C 76 % 1022,4 hPa 0,0 mm 0,0 km/h (0 Bft) N-NO 22 0 min -3,3 C 0,0 km/h (0 Bft)
20.02.2016 10:10 0,4 C 2,4 C 76 % 1022,4 hPa 0,0 mm 0,0 km/h (0 Bft) N-NO 22 0 min -3,3 C 0,0 km/h (0 Bft)
20.02.2016 10:11 0,5 C 2,7 C 76 % 1022,4 hPa 0,0 mm 0,0 km/h (0 Bft) O-NO 67 0 min -3,2 C 0,0 km/h (0 Bft)
20.02.2016 10:12 0,5 C 2,7 C 76 % 1022,4 hPa 0,0 mm 0,0 km/h (0 Bft) O-NO 67 0 min -3,2 C 0,0 km/h (0 Bft)
20.02.2016 10:13 0,5 C 3,0 C 76 % 1022,4 hPa 0,0 mm 0,0 km/h (0 Bft) NW 315 1 min -3,2 C 3,0 km/h (1 Bft)
20.02.2016 10:14 0,5 C 3,0 C 76 % 1022,4 hPa 0,0 mm 0,0 km/h (0 Bft) NW 315 1 min -3,2 C 3,0 km/h (1 Bft)
20.02.2016 10:15 0,6 C 3,1 C 76 % 1022,4 hPa 0,0 mm 0,6 km/h (0 Bft) W-NW 292 1 min -3,1 C 5,7 km/h (1 Bft)
20.02.2016 10:16 0,6 C 3,1 C 76 % 1022,4 hPa 0,0 mm 0,6 km/h (0 Bft) W-NW 292 1 min -3,1 C 5,7 km/h (1 Bft)
20.02.2016 10:17 0,7 C 3,2 C 76 % 1022,4 hPa 0,0 mm 0,9 km/h (0 Bft) SW 225 1 min -3,0 C 4,5 km/h (1 Bft)
20.02.2016 10:18 0,7 C 3,2 C 76 % 1022,4 hPa 0,0 mm 0,9 km/h (0 Bft) SW 225 1 min -3,0 C 4,5 km/h (1 Bft)
20.02.2016 10:19 0,7 C 3,2 C 76 % 1022,4 hPa 0,0 mm 0,9 km/h (0 Bft) O-SO 112 1 min -3,0 C 0,0 km/h (0 Bft)
20.02.2016 10:20 0,7 C 3,2 C 76 % 1022,4 hPa 0,0 mm 0,9 km/h (0 Bft) O-SO 112 1 min -3,0 C 0,0 km/h (0 Bft)
20.02.2016 10:21 0,8 C 3,3 C 76 % 1022,4 hPa 0,0 mm 0,9 km/h (0 Bft) NW 315 1 min -2,9 C 0,0 km/h (0 Bft)
20.02.2016 10:22 0,8 C 3,3 C 76 % 1022,4 hPa 0,0 mm 0,9 km/h (0 Bft) NW 315 1 min -2,9 C 0,0 km/h (0 Bft)
20.02.2016 10:23 0,9 C 3,5 C 76 % 1022,0 hPa 0,0 mm 0,9 km/h (0 Bft) NW 315 1 min -2,8 C 0,0 km/h (0 Bft)
20.02.2016 10:24 0,9 C 3,5 C 76 % 1022,0 hPa 0,0 mm 0,9 km/h (0 Bft) NW 315 1 min -2,8 C 0,0 km/h (0 Bft)
20.02.2016 10:25 1,0 C 3,7 C 76 % 1022,0 hPa 0,0 mm 1,2 km/h (1 Bft) W 270 1 min -2,7 C 4,5 km/h (1 Bft)
20.02.2016 10:26 1,0 C 3,7 C 76 % 1022,0 hPa 0,0 mm 1,2 km/h (1 Bft) W 270 1 min -2,7 C 4,5 km/h (1 Bft)
20.02.2016 10:27 1,1 C 3,8 C 75 % 1022,0 hPa 0,0 mm 1,5 km/h (1 Bft) W-NW 292 1 min -2,8 C 9,5 km/h (2 Bft)
20.02.2016 10:28 1,1 C 3,8 C 75 % 1022,0 hPa 0,0 mm 1,5 km/h (1 Bft) W-NW 292 1 min -2,8 C 9,5 km/h (2 Bft)
20.02.2016 10:29 1,3 C 3,8 C 75 % 1022,0 hPa 0,0 mm 2,1 km/h (1 Bft) W-NW 292 1 min -2,6 C 4,8 km/h (1 Bft)
20.02.2016 10:30 1,3 C 3,8 C 75 % 1022,0 hPa 0,0 mm 2,1 km/h (1 Bft) W-NW 292 1 min -2,6 C 4,8 km/h (1 Bft)
20.02.2016 10:31 1,3 C 3,8 C 75 % 1022,0 hPa 0,0 mm 2,4 km/h (1 Bft) W 270 1 min -2,6 C 4,8 km/h (1 Bft)
20.02.2016 10:32 1,3 C 3,8 C 75 % 1022,0 hPa 0,0 mm 2,4 km/h (1 Bft) W 270 1 min -2,6 C 4,8 km/h (1 Bft)
20.02.2016 10:33 1,4 C 3,8 C 75 % 1022,0 hPa 0,0 mm 2,4 km/h (1 Bft) W-SW 247 1 min -2,5 C 0,0 km/h (0 Bft)
20.02.2016 10:34 1,4 C 3,8 C 75 % 1022,0 hPa 0,0 mm 2,4 km/h (1 Bft) W-SW 247 1 min -2,5 C 0,0 km/h (0 Bft)
20.02.2016 10:35 1,5 C 4,1 C 75 % 1022,0 hPa 0,0 mm 2,7 km/h (1 Bft) W 270 1 min -2,4 C 5,1 km/h (1 Bft)
20.02.2016 10:36 1,5 C 4,1 C 75 % 1022,0 hPa 0,0 mm 2,7 km/h (1 Bft) W 270 1 min -2,4 C 5,1 km/h (1 Bft)
20.02.2016 10:37 1,5 C 4,4 C 75 % 1022,0 hPa 0,0 mm 2,1 km/h (1 Bft) W-NW 292 1 min -2,4 C 0,0 km/h (0 Bft)
20.02.2016 10:38 1,5 C 4,4 C 75 % 1022,0 hPa 0,0 mm 2,1 km/h (1 Bft) W-NW 292 1 min -2,4 C 0,0 km/h (0 Bft)
20.02.2016 10:39 1,6 C 4,5 C 75 % 1022,0 hPa 0,0 mm 1,2 km/h (1 Bft) NW 315 1 min -2,3 C 0,0 km/h (0 Bft)
20.02.2016 10:40 1,6 C 4,5 C 75 % 1022,0 hPa 0,0 mm 1,2 km/h (1 Bft) NW 315 1 min -2,3 C 0,0 km/h (0 Bft)
20.02.2016 10:41 1,7 C 4,8 C 75 % 1022,0 hPa 0,0 mm 1,2 km/h (1 Bft) N-NW 337 1 min -2,2 C 3,0 km/h (1 Bft)
20.02.2016 10:42 1,7 C 4,8 C 75 % 1022,0 hPa 0,0 mm 1,2 km/h (1 Bft) N-NW 337 1 min -2,2 C 3,0 km/h (1 Bft)
20.02.2016 10:43 1,8 C 4,9 C 75 % 1021,9 hPa 0,0 mm 1,2 km/h (1 Bft) W 270 1 min -2,1 C 3,3 km/h (1 Bft)
20.02.2016 10:44 1,8 C 4,9 C 75 % 1021,9 hPa 0,0 mm 1,2 km/h (1 Bft) W 270 1 min -2,1 C 3,3 km/h (1 Bft)
20.02.2016 10:45 1,9 C 5,0 C 74 % 1021,9 hPa 0,0 mm 1,8 km/h (1 Bft) W-NW 292 1 min -2,2 C 3,3 km/h (1 Bft)
20.02.2016 10:46 1,9 C 5,0 C 74 % 1021,9 hPa 0,0 mm 1,8 km/h (1 Bft) W-NW 292 1 min -2,2 C 3,3 km/h (1 Bft)
20.02.2016 10:47 1,9 C 4,9 C 74 % 1021,9 hPa 0,0 mm 1,8 km/h (1 Bft) W-NW 292 1 min -2,2 C 0,0 km/h (0 Bft)
20.02.2016 10:48 1,9 C 4,9 C 74 % 1021,9 hPa 0,0 mm 1,8 km/h (1 Bft) W-NW 292 1 min -2,2 C 0,0 km/h (0 Bft)
20.02.2016 10:49 1,9 C 4,9 C 74 % 1021,9 hPa 0,0 mm 2,1 km/h (1 Bft) NW 315 1 min -2,2 C 4,5 km/h (1 Bft)
20.02.2016 10:50 1,9 C 4,9 C 74 % 1021,9 hPa 0,0 mm 2,1 km/h (1 Bft) NW 315 1 min -2,2 C 4,5 km/h (1 Bft)
20.02.2016 10:51 1,9 C 4,8 C 74 % 1021,9 hPa 0,0 mm 3,0 km/h (1 Bft) NW 315 1 min -2,2 C 6,9 km/h (2 Bft)
20.02.2016 10:52 1,9 C 4,8 C 74 % 1021,9 hPa 0,0 mm 3,0 km/h (1 Bft) NW 315 1 min -2,2 C 6,9 km/h (2 Bft)
20.02.2016 10:53 1,9 C 4,7 C 74 % 1021,9 hPa 0,0 mm 3,9 km/h (1 Bft) W 270 1 min -2,2 C 7,7 km/h (2 Bft)
20.02.2016 10:54 1,9 C 4,7 C 74 % 1021,9 hPa 0,0 mm 3,9 km/h (1 Bft) W 270 1 min -2,2 C 7,7 km/h (2 Bft)
20.02.2016 10:55 1,9 C 4,6 C 74 % 1021,9 hPa 0,0 mm 4,2 km/h (1 Bft) NW 315 1 min -2,2 C 6,9 km/h (2 Bft)
20.02.2016 10:56 1,9 C 4,6 C 74 % 1021,9 hPa 0,0 mm 4,2 km/h (1 Bft) NW 315 1 min -2,2 C 6,9 km/h (2 Bft)
20.02.2016 10:57 1,9 C 4,5 C 74 % 1021,9 hPa 0,0 mm 3,9 km/h (1 Bft) NW 315 1 min -2,2 C 3,6 km/h (1 Bft)
20.02.2016 10:58 1,9 C 4,5 C 74 % 1021,9 hPa 0,0 mm 3,9 km/h (1 Bft) NW 315 1 min -2,2 C 3,6 km/h (1 Bft)
20.02.2016 10:59 2,0 C 4,5 C 74 % 1021,9 hPa 0,0 mm 4,8 km/h (1 Bft) W 270 1 min -2,1 C 5,7 km/h (1 Bft)
20.02.2016 11:00 2,0 C 4,5 C 74 % 1021,9 hPa 0,0 mm 4,8 km/h (1 Bft) W 270 1 min -2,1 C 5,7 km/h (1 Bft)
20.02.2016 11:01 2,0 C 4,5 C 73 % 1021,9 hPa 0,0 mm 5,1 km/h (1 Bft) W 270 1 min -2,3 C 5,4 km/h (1 Bft)
20.02.2016 11:02 2,0 C 4,5 C 73 % 1021,9 hPa 0,0 mm 5,1 km/h (1 Bft) W 270 1 min -2,3 C 5,4 km/h (1 Bft)
20.02.2016 11:03 2,2 C 4,5 C 73 % 1022,0 hPa 0,0 mm 4,8 km/h (1 Bft) W 270 1 min -2,1 C 4,5 km/h (1 Bft)
20.02.2016 11:04 2,2 C 4,5 C 73 % 1022,0 hPa 0,0 mm 4,8 km/h (1 Bft) W 270 1 min -2,1 C 4,5 km/h (1 Bft)
20.02.2016 11:05 2,2 C 4,6 C 73 % 1022,0 hPa 0,0 mm 4,2 km/h (1 Bft) W-NW 292 1 min -2,1 C 6,3 km/h (2 Bft)
20.02.2016 11:06 2,2 C 4,6 C 73 % 1022,0 hPa 0,0 mm 4,2 km/h (1 Bft) W-NW 292 1 min -2,1 C 6,3 km/h (2 Bft)
20.02.2016 11:07 2,3 C 4,5 C 73 % 1022,0 hPa 0,0 mm 4,5 km/h (1 Bft) W-NW 292 0 min -2,0 C 5,4 km/h (1 Bft)
20.02.2016 11:08 2,3 C 4,5 C 73 % 1022,0 hPa 0,0 mm 4,5 km/h (1 Bft) W-NW 292 0 min -2,0 C 5,4 km/h (1 Bft)
20.02.2016 11:09 2,4 C 4,7 C 73 % 1022,0 hPa 0,0 mm 4,8 km/h (1 Bft) W-NW 292 0 min -1,9 C 5,4 km/h (1 Bft)
20.02.2016 11:10 2,4 C 4,7 C 73 % 1022,0 hPa 0,0 mm 4,8 km/h (1 Bft) W-NW 292 0 min -1,9 C 5,4 km/h (1 Bft)
20.02.2016 11:11 2,4 C 4,8 C 73 % 1022,0 hPa 0,0 mm 4,2 km/h (1 Bft) W-SW 247 0 min -1,9 C 3,9 km/h (1 Bft)
20.02.2016 11:12 2,4 C 4,8 C 73 % 1022,0 hPa 0,0 mm 4,2 km/h (1 Bft) W-SW 247 0 min -1,9 C 3,9 km/h (1 Bft)
20.02.2016 11:13 2,5 C 5,0 C 73 % 1022,0 hPa 0,0 mm 3,6 km/h (1 Bft) NW 315 0 min -1,8 C 0,0 km/h (0 Bft)
20.02.2016 11:14 2,5 C 5,0 C 73 % 1022,0 hPa 0,0 mm 3,6 km/h (1 Bft) NW 315 0 min -1,8 C 0,0 km/h (0 Bft)
20.02.2016 11:15 2,7 C 5,4 C 73 % 1022,0 hPa 0,0 mm 3,0 km/h (1 Bft) NW 315 1 min -1,6 C 0,0 km/h (0 Bft)
20.02.2016 11:16 2,7 C 5,4 C 73 % 1022,0 hPa 0,0 mm 3,0 km/h (1 Bft) NW 315 1 min -1,6 C 0,0 km/h (0 Bft)
20.02.2016 11:17 2,8 C 5,6 C 72 % 1022,0 hPa 0,0 mm 2,4 km/h (1 Bft) W-SW 247 1 min -1,7 C 0,0 km/h (0 Bft)
20.02.2016 11:18 2,8 C 5,6 C 72 % 1022,0 hPa 0,0 mm 2,4 km/h (1 Bft) W-SW 247 1 min -1,7 C 0,0 km/h (0 Bft)
20.02.2016 11:19 2,8 C 5,8 C 72 % 1022,0 hPa 0,0 mm 2,4 km/h (1 Bft) S 180 1 min -1,7 C 7,2 km/h (2 Bft)
20.02.2016 11:20 2,8 C 5,8 C 72 % 1022,0 hPa 0,0 mm 2,4 km/h (1 Bft) S 180 1 min -1,7 C 7,2 km/h (2 Bft)
20.02.2016 11:21 2,8 C 5,8 C 71 % 1022,0 hPa 0,0 mm 1,8 km/h (1 Bft) W-SW 247 1 min -1,9 C 0,0 km/h (0 Bft)
20.02.2016 11:22 2,8 C 5,8 C 71 % 1022,0 hPa 0,0 mm 1,8 km/h (1 Bft) W-SW 247 1 min -1,9 C 0,0 km/h (0 Bft)
20.02.2016 11:23 2,7 C 5,8 C 71 % 1021,9 hPa 0,0 mm 2,1 km/h (1 Bft) W-SW 247 1 min -2,0 C 9,5 km/h (2 Bft)
20.02.2016 11:24 2,7 C 5,8 C 70 % 1021,9 hPa 0,0 mm 2,7 km/h (1 Bft) SW 225 1 min -2,2 C 4,5 km/h (1 Bft)
20.02.2016 11:25 2,7 C 5,8 C 70 % 1021,9 hPa 0,0 mm 2,7 km/h (1 Bft) SW 225 1 min -2,2 C 4,5 km/h (1 Bft)
20.02.2016 11:26 2,7 C 5,8 C 70 % 1021,9 hPa 0,0 mm 2,7 km/h (1 Bft) SW 225 1 min -2,2 C 4,5 km/h (1 Bft)
20.02.2016 11:27 2,7 C 5,7 C 70 % 1021,9 hPa 0,0 mm 3,0 km/h (1 Bft) W-NW 292 1 min -2,2 C 5,1 km/h (1 Bft)
20.02.2016 11:28 2,7 C 5,7 C 70 % 1021,9 hPa 0,0 mm 3,0 km/h (1 Bft) W-NW 292 1 min -2,2 C 5,1 km/h (1 Bft)
20.02.2016 11:29 2,8 C 5,6 C 69 % 1021,9 hPa 0,0 mm 2,7 km/h (1 Bft) S 180 1 min -2,3 C 0,0 km/h (0 Bft)
20.02.2016 11:30 2,8 C 5,6 C 69 % 1021,9 hPa 0,0 mm 2,7 km/h (1 Bft) S 180 1 min -2,3 C 0,0 km/h (0 Bft)
20.02.2016 11:31 2,9 C 5,6 C 69 % 1021,9 hPa 0,0 mm 1,8 km/h (1 Bft) S 180 1 min -2,2 C 0,0 km/h (0 Bft)
20.02.2016 11:32 2,9 C 5,6 C 69 % 1021,9 hPa 0,0 mm 1,8 km/h (1 Bft) S 180 1 min -2,2 C 0,0 km/h (0 Bft)
20.02.2016 11:33 2,9 C 5,7 C 69 % 1021,9 hPa 0,0 mm 0,9 km/h (0 Bft) W-NW 292 1 min -2,2 C 0,0 km/h (0 Bft)
20.02.2016 11:34 2,9 C 5,7 C 69 % 1021,9 hPa 0,0 mm 0,9 km/h (0 Bft) W-NW 292 1 min -2,2 C 0,0 km/h (0 Bft)
20.02.2016 11:35 3,0 C 5,7 C 69 % 1021,9 hPa 0,0 mm 0,9 km/h (0 Bft) N-NO 22 1 min -2,1 C 0,0 km/h (0 Bft)
20.02.2016 11:36 3,0 C 5,7 C 69 % 1021,9 hPa 0,0 mm 0,9 km/h (0 Bft) N-NO 22 1 min -2,1 C 0,0 km/h (0 Bft)
20.02.2016 11:37 3,0 C 5,7 C 68 % 1021,9 hPa 0,0 mm 0,3 km/h (0 Bft) S-SW 202 1 min -2,3 C 3,3 km/h (1 Bft)
20.02.2016 11:38 3,0 C 5,7 C 68 % 1021,9 hPa 0,0 mm 0,3 km/h (0 Bft) S-SW 202 1 min -2,3 C 3,3 km/h (1 Bft)
20.02.2016 11:39 2,9 C 5,7 C 69 % 1021,9 hPa 0,0 mm 0,3 km/h (0 Bft) W-SW 247 1 min -2,2 C 3,9 km/h (1 Bft)
20.02.2016 11:40 2,9 C 5,7 C 69 % 1021,9 hPa 0,0 mm 0,3 km/h (0 Bft) W-SW 247 1 min -2,2 C 3,9 km/h (1 Bft)
20.02.2016 11:41 2,9 C 5,7 C 68 % 1021,9 hPa 0,0 mm 0,9 km/h (0 Bft) W-SW 247 1 min -2,4 C 4,8 km/h (1 Bft)
20.02.2016 11:42 2,9 C 5,7 C 68 % 1021,9 hPa 0,0 mm 0,9 km/h (0 Bft) W-SW 247 1 min -2,4 C 4,8 km/h (1 Bft)
20.02.2016 11:43 3,0 C 5,7 C 68 % 1021,8 hPa 0,0 mm 1,5 km/h (1 Bft) SW 225 1 min -2,3 C 10,4 km/h (2 Bft)
20.02.2016 11:44 3,0 C 5,7 C 68 % 1021,8 hPa 0,0 mm 1,5 km/h (1 Bft) SW 225 1 min -2,3 C 10,4 km/h (2 Bft)
20.02.2016 11:45 3,0 C 5,6 C 67 % 1021,8 hPa 0,0 mm 2,4 km/h (1 Bft) W 270 1 min -2,5 C 3,9 km/h (1 Bft)
20.02.2016 11:46 3,0 C 5,6 C 67 % 1021,8 hPa 0,0 mm 2,4 km/h (1 Bft) W 270 1 min -2,5 C 3,9 km/h (1 Bft)
20.02.2016 11:47 3,0 C 5,6 C 67 % 1021,8 hPa 0,0 mm 3,6 km/h (1 Bft) W-SW 247 1 min -2,5 C 12,5 km/h (3 Bft)
20.02.2016 11:48 3,0 C 5,6 C 67 % 1021,8 hPa 0,0 mm 3,6 km/h (1 Bft) W-SW 247 1 min -2,5 C 12,5 km/h (3 Bft)
20.02.2016 11:49 2,9 C 5,4 C 68 % 1021,8 hPa 0,0 mm 4,5 km/h (1 Bft) W 270 1 min -2,4 C 5,4 km/h (1 Bft)
20.02.2016 11:50 2,9 C 5,4 C 68 % 1021,8 hPa 0,0 mm 4,5 km/h (1 Bft) W 270 1 min -2,4 C 5,4 km/h (1 Bft)
20.02.2016 11:51 2,9 C 5,3 C 68 % 1021,8 hPa 0,0 mm 5,1 km/h (1 Bft) W-SW 247 1 min -2,4 C 4,2 km/h (1 Bft)
20.02.2016 11:52 2,9 C 5,3 C 68 % 1021,8 hPa 0,0 mm 5,1 km/h (1 Bft) W-SW 247 1 min -2,4 C 4,2 km/h (1 Bft)
20.02.2016 11:53 2,8 C 5,3 C 68 % 1021,8 hPa 0,0 mm 5,7 km/h (1 Bft) W-SW 247 1 min -2,5 C 8,0 km/h (2 Bft)
20.02.2016 11:54 2,8 C 5,3 C 68 % 1021,8 hPa 0,0 mm 5,7 km/h (1 Bft) W-SW 247 1 min -2,5 C 8,0 km/h (2 Bft)
20.02.2016 11:55 2,8 C 5,3 C 67 % 1021,8 hPa 0,0 mm 5,1 km/h (1 Bft) SW 225 0 min -2,7 C 5,1 km/h (1 Bft)
20.02.2016 11:56 2,8 C 5,3 C 67 % 1021,8 hPa 0,0 mm 5,1 km/h (1 Bft) SW 225 0 min -2,7 C 5,1 km/h (1 Bft)
20.02.2016 11:57 2,9 C 5,3 C 67 % 1021,8 hPa 0,0 mm 4,8 km/h (1 Bft) S 180 0 min -2,6 C 0,0 km/h (0 Bft)
20.02.2016 11:58 2,9 C 5,3 C 67 % 1021,8 hPa 0,0 mm 4,8 km/h (1 Bft) S 180 0 min -2,6 C 0,0 km/h (0 Bft)
20.02.2016 11:59 3,0 C 5,3 C 67 % 1021,8 hPa 0,0 mm 3,0 km/h (1 Bft) W-SW 247 0 min -2,5 C 0,0 km/h (0 Bft)
20.02.2016 12:00 3,0 C 5,3 C 67 % 1021,8 hPa 0,0 mm 3,0 km/h (1 Bft) W-SW 247 0 min -2,5 C 0,0 km/h (0 Bft)
20.02.2016 12:01 3,0 C 5,3 C 67 % 1021,8 hPa 0,0 mm 2,4 km/h (1 Bft) W-SW 247 0 min -2,5 C 5,7 km/h (1 Bft)
20.02.2016 12:02 3,0 C 5,3 C 67 % 1021,8 hPa 0,0 mm 2,4 km/h (1 Bft) W-SW 247 0 min -2,5 C 5,7 km/h (1 Bft)
20.02.2016 12:03 3,0 C 5,3 C 67 % 1021,6 hPa 0,0 mm 2,4 km/h (1 Bft) W-SW 247 0 min -2,5 C 5,7 km/h (1 Bft)
20.02.2016 12:04 3,0 C 5,3 C 67 % 1021,6 hPa 0,0 mm 2,4 km/h (1 Bft) W-SW 247 0 min -2,5 C 5,7 km/h (1 Bft)
20.02.2016 12:05 3,0 C 5,3 C 67 % 1021,6 hPa 0,0 mm 2,4 km/h (1 Bft) W-SW 247 0 min -2,5 C 5,7 km/h (1 Bft)
20.02.2016 12:06 3,0 C 5,3 C 67 % 1021,6 hPa 0,0 mm 2,4 km/h (1 Bft) W-SW 247 0 min -2,5 C 5,7 km/h (1 Bft)
20.02.2016 12:07 3,0 C 5,1 C 67 % 1021,6 hPa 0,0 mm 1,5 km/h (1 Bft) W 270 0 min -2,5 C 0,0 km/h (0 Bft)
20.02.2016 12:08 3,0 C 5,1 C 67 % 1021,6 hPa 0,0 mm 1,5 km/h (1 Bft) W 270 0 min -2,5 C 0,0 km/h (0 Bft)
20.02.2016 12:09 3,0 C 5,1 C 67 % 1021,6 hPa 0,0 mm 1,8 km/h (1 Bft) S 180 0 min -2,5 C 0,0 km/h (0 Bft)
20.02.2016 12:10 3,0 C 5,1 C 67 % 1021,6 hPa 0,0 mm 1,8 km/h (1 Bft) S 180 0 min -2,5 C 0,0 km/h (0 Bft)
20.02.2016 12:11 3,1 C 5,0 C 67 % 1021,6 hPa 0,0 mm 1,5 km/h (1 Bft) O-SO 112 0 min -2,4 C 0,0 km/h (0 Bft)
20.02.2016 12:12 3,1 C 5,0 C 67 % 1021,6 hPa 0,0 mm 1,5 km/h (1 Bft) O-SO 112 0 min -2,4 C 0,0 km/h (0 Bft)
20.02.2016 12:13 3,1 C 5,0 C 67 % 1021,6 hPa 0,0 mm 0,9 km/h (0 Bft) W-SW 247 0 min -2,4 C 8,3 km/h (2 Bft)
20.02.2016 12:14 3,1 C 5,0 C 67 % 1021,6 hPa 0,0 mm 0,9 km/h (0 Bft) W-SW 247 0 min -2,4 C 8,3 km/h (2 Bft)
20.02.2016 12:15 3,1 C 4,9 C 67 % 1021,6 hPa 0,0 mm 0,9 km/h (0 Bft) SO 135 0 min -2,4 C 4,5 km/h (1 Bft)
20.02.2016 12:16 3,1 C 4,9 C 67 % 1021,6 hPa 0,0 mm 0,9 km/h (0 Bft) SO 135 0 min -2,4 C 4,5 km/h (1 Bft)
20.02.2016 12:17 3,0 C 4,8 C 67 % 1021,6 hPa 0,0 mm 1,2 km/h (1 Bft) S-SO 157 0 min -2,5 C 0,0 km/h (0 Bft)
20.02.2016 12:18 3,0 C 4,8 C 67 % 1021,6 hPa 0,0 mm 1,2 km/h (1 Bft) S-SO 157 0 min -2,5 C 0,0 km/h (0 Bft)
20.02.2016 12:19 3,0 C 4,7 C 66 % 1021,6 hPa 0,0 mm 1,2 km/h (1 Bft) O-SO 112 0 min -2,7 C 0,0 km/h (0 Bft)
20.02.2016 12:20 3,0 C 4,7 C 66 % 1021,6 hPa 0,0 mm 1,2 km/h (1 Bft) O-SO 112 0 min -2,7 C 0,0 km/h (0 Bft)
20.02.2016 12:21 3,0 C 4,7 C 67 % 1021,6 hPa 0,0 mm 0,9 km/h (0 Bft) O-NO 67 0 min -2,5 C 0,0 km/h (0 Bft)
20.02.2016 12:22 3,0 C 4,7 C 67 % 1021,6 hPa 0,0 mm 0,9 km/h (0 Bft) O-NO 67 0 min -2,5 C 0,0 km/h (0 Bft)
20.02.2016 12:23 3,0 C 4,7 C 67 % 1020,9 hPa 0,0 mm 1,2 km/h (1 Bft) O 90 0 min -2,5 C 8,0 km/h (2 Bft)
20.02.2016 12:24 3,0 C 4,7 C 67 % 1020,9 hPa 0,0 mm 1,2 km/h (1 Bft) O 90 0 min -2,5 C 8,0 km/h (2 Bft)
20.02.2016 12:25 3,0 C 4,7 C 66 % 1020,9 hPa 0,0 mm 1,2 km/h (1 Bft) O-NO 67 0 min -2,7 C 0,0 km/h (0 Bft)
20.02.2016 12:26 3,0 C 4,7 C 66 % 1020,9 hPa 0,0 mm 1,2 km/h (1 Bft) O-NO 67 0 min -2,7 C 0,0 km/h (0 Bft)
20.02.2016 12:27 3,1 C 4,7 C 66 % 1020,9 hPa 0,0 mm 0,9 km/h (0 Bft) O-SO 112 0 min -2,6 C 0,0 km/h (0 Bft)
20.02.2016 12:28 3,1 C 4,7 C 66 % 1020,9 hPa 0,0 mm 0,9 km/h (0 Bft) O-SO 112 0 min -2,6 C 0,0 km/h (0 Bft)
20.02.2016 12:29 3,1 C 4,8 C 67 % 1020,9 hPa 0,0 mm 0,9 km/h (0 Bft) O-SO 112 0 min -2,4 C 0,0 km/h (0 Bft)
20.02.2016 12:30 3,1 C 4,8 C 67 % 1020,9 hPa 0,0 mm 0,9 km/h (0 Bft) O-SO 112 0 min -2,4 C 0,0 km/h (0 Bft)
20.02.2016 12:31 3,3 C 5,0 C 67 % 1020,9 hPa 0,0 mm 0,9 km/h (0 Bft) O 90 0 min -2,2 C 0,0 km/h (0 Bft)
20.02.2016 12:32 3,3 C 5,0 C 67 % 1020,9 hPa 0,0 mm 0,9 km/h (0 Bft) O 90 0 min -2,2 C 0,0 km/h (0 Bft)
20.02.2016 12:33 3,4 C 5,2 C 67 % 1020,9 hPa 0,0 mm 0,9 km/h (0 Bft) N-NW 337 0 min -2,1 C 0,0 km/h (0 Bft)
20.02.2016 12:34 3,4 C 5,2 C 67 % 1020,9 hPa 0,0 mm 0,9 km/h (0 Bft) N-NW 337 0 min -2,1 C 0,0 km/h (0 Bft)
20.02.2016 12:35 3,4 C 5,2 C 67 % 1020,9 hPa 0,0 mm 0,0 km/h (0 Bft) W-SW 247 0 min -2,1 C 0,0 km/h (0 Bft)
20.02.2016 12:36 3,4 C 5,2 C 67 % 1020,9 hPa 0,0 mm 0,0 km/h (0 Bft) W-SW 247 0 min -2,1 C 0,0 km/h (0 Bft)
20.02.2016 12:37 3,5 C 5,3 C 67 % 1020,9 hPa 0,0 mm 0,9 km/h (0 Bft) W-SW 247 0 min -2,0 C 7,7 km/h (2 Bft)
20.02.2016 12:38 3,5 C 5,3 C 67 % 1020,9 hPa 0,0 mm 0,9 km/h (0 Bft) W-SW 247 0 min -2,0 C 7,7 km/h (2 Bft)
20.02.2016 12:39 3,5 C 5,3 C 67 % 1020,9 hPa 0,0 mm 1,8 km/h (1 Bft) W-NW 292 0 min -2,0 C 6,6 km/h (2 Bft)
20.02.2016 12:40 3,5 C 5,3 C 67 % 1020,9 hPa 0,0 mm 1,8 km/h (1 Bft) W-NW 292 0 min -2,0 C 6,6 km/h (2 Bft)
20.02.2016 12:41 3,5 C 5,3 C 67 % 1020,9 hPa 0,0 mm 2,7 km/h (1 Bft) NW 315 0 min -2,0 C 6,3 km/h (2 Bft)
20.02.2016 12:42 3,5 C 5,3 C 67 % 1020,9 hPa 0,0 mm 2,7 km/h (1 Bft) NW 315 0 min -2,0 C 6,3 km/h (2 Bft)
20.02.2016 12:43 3,5 C 5,2 C 67 % 1020,9 hPa 0,0 mm 3,6 km/h (1 Bft) W 270 0 min -2,0 C 0,0 km/h (0 Bft)
20.02.2016 12:44 3,5 C 5,2 C 67 % 1020,9 hPa 0,0 mm 3,6 km/h (1 Bft) W 270 0 min -2,0 C 0,0 km/h (0 Bft)
20.02.2016 12:45 3,5 C 5,1 C 67 % 1020,9 hPa 0,0 mm 3,9 km/h (1 Bft) W-SW 247 0 min -2,0 C 4,5 km/h (1 Bft)
20.02.2016 12:46 3,5 C 5,1 C 67 % 1020,9 hPa 0,0 mm 3,9 km/h (1 Bft) W-SW 247 0 min -2,0 C 4,5 km/h (1 Bft)
20.02.2016 12:47 3,5 C 5,0 C 68 % 1020,9 hPa 0,0 mm 4,2 km/h (1 Bft) W 270 0 min -1,8 C 6,0 km/h (2 Bft)
20.02.2016 12:48 3,5 C 5,0 C 68 % 1020,9 hPa 0,0 mm 4,2 km/h (1 Bft) W 270 0 min -1,8 C 6,0 km/h (2 Bft)
20.02.2016 12:49 3,5 C 5,0 C 68 % 1020,9 hPa 0,0 mm 3,6 km/h (1 Bft) SO 135 0 min -1,8 C 0,0 km/h (0 Bft)
20.02.2016 12:50 3,5 C 5,0 C 68 % 1020,9 hPa 0,0 mm 3,6 km/h (1 Bft) SO 135 0 min -1,8 C 0,0 km/h (0 Bft)
20.02.2016 12:51 3,5 C 5,0 C 68 % 1020,9 hPa 0,0 mm 2,4 km/h (1 Bft) SO 135 0 min -1,8 C 0,0 km/h (0 Bft)
20.02.2016 12:52 3,5 C 5,0 C 68 % 1020,9 hPa 0,0 mm 2,4 km/h (1 Bft) SO 135 0 min -1,8 C 0,0 km/h (0 Bft)
20.02.2016 12:53 3,5 C 5,0 C 68 % 1020,9 hPa 0,0 mm 1,5 km/h (1 Bft) SO 135 0 min -1,8 C 0,0 km/h (0 Bft)
20.02.2016 12:54 3,5 C 5,0 C 68 % 1020,9 hPa 0,0 mm 1,5 km/h (1 Bft) SO 135 0 min -1,8 C 0,0 km/h (0 Bft)
20.02.2016 12:55 3,5 C 5,0 C 68 % 1020,9 hPa 0,0 mm 0,9 km/h (0 Bft) W 270 0 min -1,8 C 0,0 km/h (0 Bft)
20.02.2016 12:56 3,5 C 5,0 C 68 % 1020,9 hPa 0,0 mm 0,9 km/h (0 Bft) W 270 0 min -1,8 C 0,0 km/h (0 Bft)
20.02.2016 12:57 3,5 C 5,0 C 68 % 1020,9 hPa 0,0 mm 0,3 km/h (0 Bft) O-SO 112 0 min -1,8 C 0,0 km/h (0 Bft)
20.02.2016 12:58 3,5 C 5,0 C 68 % 1020,9 hPa 0,0 mm 0,3 km/h (0 Bft) O-SO 112 0 min -1,8 C 0,0 km/h (0 Bft)
20.02.2016 12:59 3,5 C 5,0 C 68 % 1020,9 hPa 0,0 mm 0,0 km/h (0 Bft) W 270 0 min -1,8 C 0,0 km/h (0 Bft)
20.02.2016 13:00 3,5 C 5,0 C 68 % 1020,9 hPa 0,0 mm 0,0 km/h (0 Bft) W 270 0 min -1,8 C 0,0 km/h (0 Bft)
20.02.2016 13:01 3,5 C 5,1 C 68 % 1020,9 hPa 0,0 mm 0,0 km/h (0 Bft) NO 45 0 min -1,8 C 0,0 km/h (0 Bft)
20.02.2016 13:02 3,5 C 5,1 C 68 % 1020,9 hPa 0,0 mm 0,0 km/h (0 Bft) NO 45 0 min -1,8 C 0,0 km/h (0 Bft)
20.02.2016 13:03 3,5 C 5,1 C 68 % 1020,5 hPa 0,0 mm 0,0 km/h (0 Bft) O-SO 112 0 min -1,8 C 0,0 km/h (0 Bft)
20.02.2016 13:04 3,5 C 5,1 C 68 % 1020,5 hPa 0,0 mm 0,0 km/h (0 Bft) O-SO 112 0 min -1,8 C 0,0 km/h (0 Bft)
20.02.2016 13:05 3,5 C 5,0 C 68 % 1020,5 hPa 0,0 mm 0,3 km/h (0 Bft) O 90 0 min -1,8 C 0,0 km/h (0 Bft)
20.02.2016 13:06 3,5 C 5,0 C 68 % 1020,5 hPa 0,0 mm 0,3 km/h (0 Bft) O 90 0 min -1,8 C 0,0 km/h (0 Bft)
20.02.2016 13:07 3,5 C 5,0 C 68 % 1020,5 hPa 0,0 mm 0,3 km/h (0 Bft) SO 135 0 min -1,8 C 0,0 km/h (0 Bft)
20.02.2016 13:08 3,5 C 5,0 C 68 % 1020,5 hPa 0,0 mm 0,3 km/h (0 Bft) SO 135 0 min -1,8 C 0,0 km/h (0 Bft)
20.02.2016 13:09 3,5 C 4,9 C 68 % 1020,5 hPa 0,0 mm 0,3 km/h (0 Bft) O 90 0 min -1,8 C 0,0 km/h (0 Bft)
20.02.2016 13:10 3,5 C 4,9 C 68 % 1020,5 hPa 0,0 mm 0,3 km/h (0 Bft) O 90 0 min -1,8 C 0,0 km/h (0 Bft)
20.02.2016 13:11 3,5 C 4,9 C 68 % 1020,5 hPa 0,0 mm 0,3 km/h (0 Bft) O-SO 112 0 min -1,8 C 0,0 km/h (0 Bft)
20.02.2016 13:12 3,5 C 4,9 C 68 % 1020,5 hPa 0,0 mm 0,3 km/h (0 Bft) O-SO 112 0 min -1,8 C 0,0 km/h (0 Bft)
20.02.2016 13:13 3,5 C 4,9 C 68 % 1020,5 hPa 0,0 mm 0,3 km/h (0 Bft) O-SO 112 0 min -1,8 C 0,0 km/h (0 Bft)
20.02.2016 13:14 3,5 C 4,9 C 68 % 1020,5 hPa 0,0 mm 0,3 km/h (0 Bft) O-SO 112 0 min -1,8 C 0,0 km/h (0 Bft)
20.02.2016 13:15 3,5 C 4,9 C 69 % 1020,5 hPa 0,0 mm 0,3 km/h (0 Bft) SO 135 0 min -1,6 C 0,0 km/h (0 Bft)
20.02.2016 13:16 3,5 C 4,9 C 69 % 1020,5 hPa 0,0 mm 0,3 km/h (0 Bft) SO 135 0 min -1,6 C 0,0 km/h (0 Bft)
20.02.2016 13:17 3,5 C 4,9 C 68 % 1020,5 hPa 0,0 mm 0,9 km/h (0 Bft) N-NW 337 0 min -1,8 C 3,6 km/h (1 Bft)
20.02.2016 13:18 3,5 C 4,9 C 68 % 1020,5 hPa 0,0 mm 0,9 km/h (0 Bft) N-NW 337 0 min -1,8 C 3,6 km/h (1 Bft)
20.02.2016 13:19 3,5 C 4,8 C 68 % 1020,5 hPa 0,0 mm 0,9 km/h (0 Bft) SO 135 0 min -1,8 C 0,0 km/h (0 Bft)
20.02.2016 13:20 3,5 C 4,8 C 68 % 1020,5 hPa 0,0 mm 0,9 km/h (0 Bft) SO 135 0 min -1,8 C 0,0 km/h (0 Bft)
20.02.2016 13:21 3,5 C 4,7 C 68 % 1020,5 hPa 0,0 mm 0,9 km/h (0 Bft) W-SW 247 0 min -1,8 C 5,1 km/h (1 Bft)
20.02.2016 13:22 3,5 C 4,7 C 68 % 1020,5 hPa 0,0 mm 0,9 km/h (0 Bft) W-SW 247 0 min -1,8 C 5,1 km/h (1 Bft)
20.02.2016 13:23 3,5 C 4,6 C 68 % 1020,2 hPa 0,0 mm 1,5 km/h (1 Bft) N-NW 337 0 min -1,8 C 0,0 km/h (0 Bft)
20.02.2016 13:24 3,5 C 4,6 C 68 % 1020,2 hPa 0,0 mm 1,5 km/h (1 Bft) N-NW 337 0 min -1,8 C 0,0 km/h (0 Bft)
20.02.2016 13:25 3,4 C 4,6 C 68 % 1020,2 hPa 0,0 mm 1,5 km/h (1 Bft) SO 135 0 min -1,9 C 0,0 km/h (0 Bft)
20.02.2016 13:26 3,4 C 4,6 C 68 % 1020,2 hPa 0,0 mm 1,5 km/h (1 Bft) SO 135 0 min -1,9 C 0,0 km/h (0 Bft)
20.02.2016 13:27 3,4 C 4,5 C 68 % 1020,2 hPa 0,0 mm 0,9 km/h (0 Bft) O-SO 112 0 min -1,9 C 0,0 km/h (0 Bft)
20.02.2016 13:28 3,4 C 4,5 C 68 % 1020,2 hPa 0,0 mm 0,9 km/h (0 Bft) O-SO 112 0 min -1,9 C 0,0 km/h (0 Bft)
20.02.2016 13:29 3,4 C 4,4 C 68 % 1020,2 hPa 0,0 mm 0,6 km/h (0 Bft) O-SO 112 0 min -1,9 C 0,0 km/h (0 Bft)
20.02.2016 13:30 3,4 C 4,4 C 68 % 1020,2 hPa 0,0 mm 0,6 km/h (0 Bft) O-SO 112 0 min -1,9 C 0,0 km/h (0 Bft)
20.02.2016 13:31 3,3 C 4,4 C 68 % 1020,2 hPa 0,0 mm 0,6 km/h (0 Bft) O-SO 112 0 min -2,0 C 0,0 km/h (0 Bft)
20.02.2016 13:32 3,3 C 4,4 C 68 % 1020,2 hPa 0,0 mm 0,6 km/h (0 Bft) O-SO 112 0 min -2,0 C 0,0 km/h (0 Bft)
20.02.2016 13:33 3,3 C 4,4 C 68 % 1020,2 hPa 0,0 mm 0,0 km/h (0 Bft) W-SW 247 0 min -2,0 C 0,0 km/h (0 Bft)
20.02.2016 13:34 3,3 C 4,4 C 68 % 1020,2 hPa 0,0 mm 0,0 km/h (0 Bft) W-SW 247 0 min -2,0 C 16,1 km/h (3 Bft)
20.02.2016 13:35 3,3 C 4,4 C 68 % 1020,2 hPa 0,0 mm 1,8 km/h (1 Bft) W-SW 247 0 min -2,0 C 12,8 km/h (3 Bft)
20.02.2016 13:36 3,3 C 4,4 C 68 % 1020,2 hPa 0,0 mm 1,8 km/h (1 Bft) W-SW 247 0 min -2,0 C 12,8 km/h (3 Bft)
20.02.2016 13:37 3,3 C 4,3 C 68 % 1020,2 hPa 0,0 mm 2,4 km/h (1 Bft) O-SO 112 0 min -2,0 C 0,0 km/h (0 Bft)
20.02.2016 13:38 3,3 C 4,3 C 68 % 1020,2 hPa 0,0 mm 2,4 km/h (1 Bft) O-SO 112 0 min -2,0 C 0,0 km/h (0 Bft)
20.02.2016 13:39 3,3 C 4,1 C 68 % 1020,2 hPa 0,0 mm 3,9 km/h (1 Bft) S 180 0 min -2,0 C 8,0 km/h (2 Bft)
20.02.2016 13:40 3,3 C 4,1 C 68 % 1020,2 hPa 0,0 mm 3,9 km/h (1 Bft) S 180 0 min -2,0 C 8,0 km/h (2 Bft)
20.02.2016 13:41 3,1 C 4,0 C 68 % 1020,2 hPa 0,0 mm 5,1 km/h (1 Bft) W-SW 247 0 min -2,2 C 7,7 km/h (2 Bft)
20.02.2016 13:42 3,1 C 4,0 C 68 % 1020,2 hPa 0,0 mm 5,1 km/h (1 Bft) W-SW 247 0 min -2,2 C 7,7 km/h (2 Bft)
20.02.2016 13:43 3,1 C 3,7 C 68 % 1020,1 hPa 0,0 mm 6,0 km/h (2 Bft) W-SW 247 0 min -2,2 C 7,7 km/h (2 Bft)
20.02.2016 13:44 3,1 C 3,7 C 68 % 1020,1 hPa 0,0 mm 6,0 km/h (2 Bft) W-SW 247 0 min -2,2 C 16,7 km/h (3 Bft)
20.02.2016 13:45 3,0 C 3,8 C 68 % 1020,1 hPa 0,0 mm 4,8 km/h (1 Bft) SO 135 0 min -2,3 C 0,0 km/h (0 Bft)
20.02.2016 13:46 3,0 C 3,8 C 68 % 1020,1 hPa 0,0 mm 4,8 km/h (1 Bft) SO 135 0 min -2,3 C 0,0 km/h (0 Bft)
20.02.2016 13:47 3,0 C 3,8 C 68 % 1020,1 hPa 0,0 mm 3,9 km/h (1 Bft) SO 135 0 min -2,3 C 0,0 km/h (0 Bft)
20.02.2016 13:48 3,0 C 3,8 C 68 % 1020,1 hPa 0,0 mm 3,9 km/h (1 Bft) SO 135 0 min -2,3 C 0,0 km/h (0 Bft)
20.02.2016 13:49 3,0 C 3,7 C 68 % 1020,1 hPa 0,0 mm 3,0 km/h (1 Bft) NW 315 0 min -2,3 C 0,0 km/h (0 Bft)
20.02.2016 13:50 3,0 C 3,7 C 68 % 1020,1 hPa 0,0 mm 3,0 km/h (1 Bft) NW 315 0 min -2,3 C 0,0 km/h (0 Bft)
20.02.2016 13:51 2,9 C 3,6 C 69 % 1020,1 hPa 0,0 mm 2,4 km/h (1 Bft) S 180 0 min -2,2 C 5,1 km/h (1 Bft)
20.02.2016 13:52 2,9 C 3,6 C 69 % 1020,1 hPa 0,0 mm 2,4 km/h (1 Bft) S 180 0 min -2,2 C 5,1 km/h (1 Bft)
20.02.2016 13:53 2,8 C 3,4 C 69 % 1020,1 hPa 0,0 mm 1,5 km/h (1 Bft) W-SW 247 0 min -2,3 C 5,7 km/h (1 Bft)
20.02.2016 13:54 2,8 C 3,4 C 69 % 1020,1 hPa 0,0 mm 1,5 km/h (1 Bft) W-SW 247 0 min -2,3 C 5,7 km/h (1 Bft)
20.02.2016 13:55 2,8 C 3,2 C 70 % 1020,1 hPa 0,0 mm 1,2 km/h (1 Bft) W 270 0 min -2,1 C 7,5 km/h (2 Bft)
20.02.2016 13:56 2,8 C 3,2 C 70 % 1020,1 hPa 0,0 mm 1,2 km/h (1 Bft) W 270 0 min -2,1 C 7,5 km/h (2 Bft)
20.02.2016 13:57 2,7 C 3,1 C 71 % 1020,1 hPa 0,0 mm 1,5 km/h (1 Bft) S-SO 157 0 min -2,0 C 3,6 km/h (1 Bft)
20.02.2016 13:58 2,7 C 3,1 C 71 % 1020,1 hPa 0,0 mm 1,5 km/h (1 Bft) S-SO 157 0 min -2,0 C 3,6 km/h (1 Bft)
20.02.2016 13:59 2,7 C 2,8 C 71 % 1020,1 hPa 0,0 mm 1,5 km/h (1 Bft) O-NO 67 0 min -2,0 C 0,0 km/h (0 Bft)
20.02.2016 14:00 2,7 C 2,8 C 71 % 1020,1 hPa 0,0 mm 1,5 km/h (1 Bft) O-NO 67 0 min -2,0 C 0,0 km/h (0 Bft)
20.02.2016 14:01 2,6 C 2,6 C 71 % 1020,1 hPa 0,0 mm 1,2 km/h (1 Bft) S 180 0 min -2,1 C 4,8 km/h (1 Bft)
20.02.2016 14:02 2,6 C 2,6 C 71 % 1020,1 hPa 0,0 mm 1,2 km/h (1 Bft) S 180 0 min -2,1 C 4,8 km/h (1 Bft)
20.02.2016 14:03 2,6 C 2,5 C 73 % 1019,7 hPa 0,0 mm 1,8 km/h (1 Bft) O-NO 67 0 min -1,7 C 8,0 km/h (2 Bft)
20.02.2016 14:04 2,6 C 2,5 C 73 % 1019,7 hPa 0,0 mm 1,8 km/h (1 Bft) O-NO 67 0 min -1,7 C 8,0 km/h (2 Bft)
20.02.2016 14:05 2,5 C 2,4 C 73 % 1019,7 hPa 0,0 mm 1,8 km/h (1 Bft) W-SW 247 0 min -1,8 C 0,0 km/h (0 Bft)
20.02.2016 14:06 2,5 C 2,4 C 73 % 1019,7 hPa 0,0 mm 1,8 km/h (1 Bft) W-SW 247 0 min -1,8 C 0,0 km/h (0 Bft)
20.02.2016 14:07 2,5 C 2,4 C 73 % 1019,7 hPa 0,0 mm 2,1 km/h (1 Bft) O-SO 112 0 min -1,8 C 3,0 km/h (1 Bft)
20.02.2016 14:08 2,5 C 2,4 C 73 % 1019,7 hPa 0,0 mm 2,1 km/h (1 Bft) O-SO 112 0 min -1,8 C 3,0 km/h (1 Bft)
20.02.2016 14:09 2,5 C 2,3 C 75 % 1019,7 hPa 0,0 mm 2,4 km/h (1 Bft) W-SW 247 0 min -1,5 C 0,0 km/h (0 Bft)
20.02.2016 14:10 2,5 C 2,3 C 75 % 1019,7 hPa 0,0 mm 2,4 km/h (1 Bft) W-SW 247 0 min -1,5 C 0,0 km/h (0 Bft)
20.02.2016 14:11 2,5 C 2,3 C 75 % 1019,7 hPa 0,0 mm 2,7 km/h (1 Bft) W 270 0 min -1,5 C 6,0 km/h (2 Bft)
20.02.2016 14:12 2,5 C 2,3 C 75 % 1019,7 hPa 0,0 mm 2,7 km/h (1 Bft) W 270 0 min -1,5 C 6,0 km/h (2 Bft)
20.02.2016 14:13 2,5 C 2,4 C 74 % 1019,7 hPa 0,0 mm 3,0 km/h (1 Bft) S-SW 202 0 min -1,7 C 5,7 km/h (1 Bft)
20.02.2016 14:14 2,5 C 2,4 C 74 % 1019,7 hPa 0,0 mm 3,0 km/h (1 Bft) S-SW 202 0 min -1,7 C 5,7 km/h (1 Bft)
20.02.2016 14:15 2,5 C 2,3 C 75 % 1019,7 hPa 0,0 mm 3,3 km/h (1 Bft) O-NO 67 0 min -1,5 C 3,0 km/h (1 Bft)
20.02.2016 14:16 2,5 C 2,3 C 75 % 1019,7 hPa 0,0 mm 3,3 km/h (1 Bft) O-NO 67 0 min -1,5 C 3,0 km/h (1 Bft)
20.02.2016 14:17 2,5 C 2,3 C 75 % 1019,7 hPa 0,0 mm 3,0 km/h (1 Bft) S 180 0 min -1,5 C 7,5 km/h (2 Bft)
20.02.2016 14:18 2,5 C 2,3 C 75 % 1019,7 hPa 0,0 mm 3,0 km/h (1 Bft) S 180 0 min -1,5 C 7,5 km/h (2 Bft)
20.02.2016 14:19 2,6 C 2,4 C 75 % 1019,7 hPa 0,0 mm 3,3 km/h (1 Bft) W-SW 247 0 min -1,4 C 3,9 km/h (1 Bft)
20.02.2016 14:20 2,6 C 2,4 C 75 % 1019,7 hPa 0,0 mm 3,3 km/h (1 Bft) W-SW 247 0 min -1,4 C 3,9 km/h (1 Bft)
20.02.2016 14:21 2,6 C 2,5 C 76 % 1019,7 hPa 0,0 mm 3,3 km/h (1 Bft) W-SW 247 0 min -1,2 C 0,0 km/h (0 Bft)
20.02.2016 14:22 2,6 C 2,5 C 76 % 1019,7 hPa 0,0 mm 3,3 km/h (1 Bft) W-SW 247 0 min -1,2 C 0,0 km/h (0 Bft)
20.02.2016 14:23 2,6 C 2,5 C 76 % 1019,7 hPa 0,0 mm 3,9 km/h (1 Bft) W-SW 247 0 min -1,2 C 11,6 km/h (2 Bft)
20.02.2016 14:24 2,6 C 2,5 C 76 % 1019,7 hPa 0,0 mm 3,9 km/h (1 Bft) W-SW 247 0 min -1,2 C 11,6 km/h (2 Bft)
20.02.2016 14:26 2,6 C 2,5 C 76 % 1019,7 hPa 0,0 mm 3,9 km/h (1 Bft) S-SW 202 0 min -1,2 C 7,2 km/h (2 Bft)
20.02.2016 14:27 2,7 C 2,5 C 76 % 1019,7 hPa 0,0 mm 4,5 km/h (1 Bft) S-SW 202 0 min -1,1 C 6,6 km/h (2 Bft)
20.02.2016 14:28 2,7 C 2,5 C 76 % 1019,7 hPa 0,0 mm 4,5 km/h (1 Bft) S-SW 202 0 min -1,1 C 6,6 km/h (2 Bft)
20.02.2016 14:29 2,7 C 2,5 C 76 % 1019,7 hPa 0,0 mm 5,4 km/h (1 Bft) W-SW 247 0 min -1,1 C 7,7 km/h (2 Bft)
20.02.2016 14:30 2,7 C 2,5 C 76 % 1019,7 hPa 0,0 mm 5,4 km/h (1 Bft) W-SW 247 0 min -1,1 C 7,7 km/h (2 Bft)
20.02.2016 14:31 2,7 C 2,4 C 77 % 1019,7 hPa 0,7 mm 6,3 km/h (2 Bft) S 180 0 min -0,9 C 8,3 km/h (2 Bft)
20.02.2016 14:32 2,7 C 2,4 C 77 % 1019,7 hPa 0,0 mm 6,3 km/h (2 Bft) S 180 0 min -0,9 C 8,3 km/h (2 Bft)
20.02.2016 14:33 2,7 C 2,3 C 77 % 1019,7 hPa 0,0 mm 6,9 km/h (2 Bft) W-SW 247 0 min -0,9 C 9,2 km/h (2 Bft)
20.02.2016 14:34 2,7 C 2,3 C 77 % 1019,7 hPa 0,0 mm 6,9 km/h (2 Bft) W-SW 247 0 min -0,9 C 9,2 km/h (2 Bft)
20.02.2016 14:35 2,8 C 2,3 C 79 % 1019,7 hPa 0,0 mm 6,6 km/h (2 Bft) S 180 0 min -0,5 C 6,9 km/h (2 Bft)
20.02.2016 14:36 2,8 C 2,3 C 79 % 1019,7 hPa 0,0 mm 6,6 km/h (2 Bft) S 180 0 min -0,5 C 6,9 km/h (2 Bft)
20.02.2016 14:37 2,8 C 2,4 C 77 % 1019,7 hPa 0,0 mm 6,6 km/h (2 Bft) W-SW 247 0 min -0,8 C 3,9 km/h (1 Bft)
20.02.2016 14:38 2,8 C 2,4 C 77 % 1019,7 hPa 0,0 mm 6,6 km/h (2 Bft) W-SW 247 0 min -0,8 C 3,9 km/h (1 Bft)
20.02.2016 14:39 2,8 C 2,4 C 79 % 1019,7 hPa 0,0 mm 6,0 km/h (2 Bft) W 270 0 min -0,5 C 0,0 km/h (0 Bft)
20.02.2016 14:40 2,8 C 2,4 C 79 % 1019,7 hPa 0,0 mm 6,0 km/h (2 Bft) W 270 0 min -0,5 C 0,0 km/h (0 Bft)
20.02.2016 14:41 2,8 C 2,5 C 78 % 1019,7 hPa 0,0 mm 5,7 km/h (1 Bft) W-NW 292 0 min -0,6 C 8,6 km/h (2 Bft)
20.02.2016 14:42 2,8 C 2,5 C 78 % 1019,7 hPa 0,0 mm 5,7 km/h (1 Bft) W-NW 292 0 min -0,6 C 8,6 km/h (2 Bft)
20.02.2016 14:43 2,8 C 2,5 C 79 % 1019,7 hPa 0,0 mm 5,4 km/h (1 Bft) SW 225 0 min -0,5 C 12,8 km/h (3 Bft)
20.02.2016 14:44 2,8 C 2,5 C 79 % 1019,7 hPa 0,0 mm 5,4 km/h (1 Bft) SW 225 0 min -0,5 C 12,8 km/h (3 Bft)
20.02.2016 14:45 2,8 C 2,5 C 79 % 1019,7 hPa 0,0 mm 5,7 km/h (1 Bft) W-SW 247 0 min -0,5 C 13,4 km/h (3 Bft)
20.02.2016 14:46 2,8 C 2,5 C 79 % 1019,7 hPa 0,0 mm 5,7 km/h (1 Bft) W-SW 247 0 min -0,5 C 13,4 km/h (3 Bft)
20.02.2016 14:47 2,8 C 2,5 C 79 % 1019,7 hPa 0,0 mm 5,4 km/h (1 Bft) W-SW 247 0 min -0,5 C 7,7 km/h (2 Bft)
20.02.2016 14:48 2,8 C 2,5 C 79 % 1019,7 hPa 0,0 mm 5,4 km/h (1 Bft) W-SW 247 0 min -0,5 C 7,7 km/h (2 Bft)
20.02.2016 14:49 2,8 C 2,5 C 79 % 1019,7 hPa 0,0 mm 5,7 km/h (1 Bft) W-SW 247 0 min -0,5 C 4,8 km/h (1 Bft)
20.02.2016 14:50 2,8 C 2,5 C 79 % 1019,7 hPa 0,0 mm 5,7 km/h (1 Bft) W-SW 247 0 min -0,5 C 4,8 km/h (1 Bft)
20.02.2016 14:51 2,9 C 2,6 C 79 % 1019,7 hPa 0,0 mm 5,4 km/h (1 Bft) W-NW 292 0 min -0,4 C 3,6 km/h (1 Bft)
20.02.2016 14:52 2,9 C 2,6 C 79 % 1019,7 hPa 0,0 mm 5,4 km/h (1 Bft) W-NW 292 0 min -0,4 C 3,6 km/h (1 Bft)
20.02.2016 14:53 2,8 C 2,6 C 80 % 1019,7 hPa 0,0 mm 4,8 km/h (1 Bft) W-SW 247 0 min -0,3 C 3,3 km/h (1 Bft)
20.02.2016 14:54 2,8 C 2,6 C 80 % 1019,7 hPa 0,0 mm 4,8 km/h (1 Bft) W-SW 247 0 min -0,3 C 3,3 km/h (1 Bft)
20.02.2016 14:55 2,8 C 2,6 C 80 % 1019,7 hPa 0,7 mm 4,5 km/h (1 Bft) W 270 0 min -0,3 C 11,0 km/h (2 Bft)
20.02.2016 14:56 2,8 C 2,6 C 80 % 1019,7 hPa 0,0 mm 4,5 km/h (1 Bft) W 270 0 min -0,3 C 11,0 km/h (2 Bft)
20.02.2016 14:57 2,9 C 2,7 C 81 % 1019,7 hPa 0,0 mm 4,5 km/h (1 Bft) W-SW 247 0 min -0,0 C 4,5 km/h (1 Bft)
20.02.2016 14:58 2,9 C 2,7 C 81 % 1019,7 hPa 0,0 mm 4,5 km/h (1 Bft) W-SW 247 0 min -0,0 C 4,5 km/h (1 Bft)
20.02.2016 14:59 2,9 C 2,7 C 81 % 1019,7 hPa 0,0 mm 3,6 km/h (1 Bft) W 270 0 min -0,0 C 6,0 km/h (2 Bft)
20.02.2016 15:00 2,9 C 2,7 C 81 % 1019,7 hPa 0,0 mm 3,6 km/h (1 Bft) W 270 0 min -0,0 C 6,0 km/h (2 Bft)
20.02.2016 15:01 2,9 C 2,7 C 81 % 1019,7 hPa 0,0 mm 4,2 km/h (1 Bft) SW 225 0 min -0,0 C 7,2 km/h (2 Bft)
20.02.2016 15:02 2,9 C 2,7 C 81 % 1019,7 hPa 0,0 mm 4,2 km/h (1 Bft) SW 225 0 min -0,0 C 7,2 km/h (2 Bft)
20.02.2016 15:03 2,9 C 2,7 C 81 % 1019,5 hPa 0,0 mm 4,8 km/h (1 Bft) W 270 0 min -0,0 C 6,3 km/h (2 Bft)
20.02.2016 15:04 2,9 C 2,7 C 81 % 1019,5 hPa 0,0 mm 4,8 km/h (1 Bft) W 270 0 min -0,0 C 6,3 km/h (2 Bft)
20.02.2016 15:05 2,9 C 2,7 C 82 % 1019,5 hPa 0,0 mm 5,4 km/h (1 Bft) W 270 0 min 0,1 C 8,0 km/h (2 Bft)
20.02.2016 15:06 2,9 C 2,7 C 82 % 1019,5 hPa 0,0 mm 5,4 km/h (1 Bft) W 270 0 min 0,1 C 8,0 km/h (2 Bft)
20.02.2016 15:07 2,9 C 2,6 C 82 % 1019,5 hPa 0,0 mm 5,7 km/h (1 Bft) SW 225 0 min 0,1 C 6,9 km/h (2 Bft)
20.02.2016 15:08 2,9 C 2,6 C 82 % 1019,5 hPa 0,0 mm 5,7 km/h (1 Bft) SW 225 0 min 0,1 C 6,9 km/h (2 Bft)
20.02.2016 15:09 2,9 C 2,6 C 82 % 1019,5 hPa 0,0 mm 6,3 km/h (2 Bft) W-SW 247 0 min 0,1 C 11,9 km/h (2 Bft)
20.02.2016 15:10 2,9 C 2,6 C 82 % 1019,5 hPa 0,0 mm 6,3 km/h (2 Bft) W-SW 247 0 min 0,1 C 11,9 km/h (2 Bft)
20.02.2016 15:11 2,9 C 2,5 C 82 % 1019,5 hPa 0,0 mm 6,6 km/h (2 Bft) W-NW 292 0 min 0,1 C 12,2 km/h (2 Bft)
20.02.2016 15:12 2,9 C 2,5 C 82 % 1019,5 hPa 0,0 mm 6,6 km/h (2 Bft) W-NW 292 0 min 0,1 C 12,2 km/h (2 Bft)
20.02.2016 15:13 2,9 C 2,5 C 83 % 1019,5 hPa 0,7 mm 7,2 km/h (2 Bft) W-SW 247 0 min 0,3 C 14,6 km/h (3 Bft)
20.02.2016 15:14 2,9 C 2,5 C 83 % 1019,5 hPa 0,0 mm 7,2 km/h (2 Bft) W-SW 247 0 min 0,3 C 18,5 km/h (3 Bft)
20.02.2016 15:15 3,0 C 2,5 C 82 % 1019,5 hPa 0,0 mm 7,7 km/h (2 Bft) W-SW 247 0 min 0,2 C 17,6 km/h (3 Bft)
20.02.2016 15:16 3,0 C 2,5 C 82 % 1019,5 hPa 0,0 mm 7,7 km/h (2 Bft) W-SW 247 0 min 0,2 C 17,6 km/h (3 Bft)
20.02.2016 15:17 3,0 C 2,5 C 83 % 1019,5 hPa 0,0 mm 8,0 km/h (2 Bft) S 180 0 min 0,4 C 7,2 km/h (2 Bft)
20.02.2016 15:18 3,0 C 2,5 C 83 % 1019,5 hPa 0,0 mm 8,0 km/h (2 Bft) S 180 0 min 0,4 C 7,2 km/h (2 Bft)
20.02.2016 15:19 3,0 C 2,4 C 83 % 1019,5 hPa 0,0 mm 8,0 km/h (2 Bft) W 270 0 min 0,4 C 6,0 km/h (2 Bft)
20.02.2016 15:20 3,0 C 2,4 C 83 % 1019,5 hPa 0,0 mm 8,0 km/h (2 Bft) W 270 0 min 0,4 C 6,0 km/h (2 Bft)
20.02.2016 15:21 3,0 C 2,4 C 83 % 1019,5 hPa 0,0 mm 8,3 km/h (2 Bft) SW 225 0 min 0,4 C 8,0 km/h (2 Bft)
20.02.2016 15:22 3,0 C 2,4 C 83 % 1019,5 hPa 0,0 mm 8,3 km/h (2 Bft) SW 225 0 min 0,4 C 8,0 km/h (2 Bft)
20.02.2016 15:23 3,0 C 2,5 C 83 % 1019,6 hPa 0,0 mm 8,0 km/h (2 Bft) W 270 0 min 0,4 C 4,5 km/h (1 Bft)
20.02.2016 15:24 3,0 C 2,5 C 83 % 1019,6 hPa 0,0 mm 8,0 km/h (2 Bft) W 270 0 min 0,4 C 4,5 km/h (1 Bft)
20.02.2016 15:25 3,0 C 2,5 C 83 % 1019,6 hPa 0,0 mm 7,7 km/h (2 Bft) W-SW 247 0 min 0,4 C 8,6 km/h (2 Bft)
20.02.2016 15:26 3,0 C 2,5 C 83 % 1019,6 hPa 0,0 mm 7,7 km/h (2 Bft) W-SW 247 0 min 0,4 C 8,6 km/h (2 Bft)
20.02.2016 15:27 3,0 C 2,6 C 84 % 1019,6 hPa 0,0 mm 7,2 km/h (2 Bft) W-NW 292 0 min 0,6 C 8,0 km/h (2 Bft)
20.02.2016 15:28 3,0 C 2,6 C 84 % 1019,6 hPa 0,0 mm 7,2 km/h (2 Bft) W-NW 292 0 min 0,6 C 8,0 km/h (2 Bft)
20.02.2016 15:29 3,0 C 2,6 C 84 % 1019,6 hPa 0,0 mm 6,9 km/h (2 Bft) W 270 0 min 0,6 C 7,7 km/h (2 Bft)
20.02.2016 15:30 3,0 C 2,6 C 84 % 1019,6 hPa 0,0 mm 6,9 km/h (2 Bft) W 270 0 min 0,6 C 7,7 km/h (2 Bft)
20.02.2016 15:31 3,0 C 2,6 C 84 % 1019,6 hPa 0,0 mm 7,2 km/h (2 Bft) NW 315 0 min 0,6 C 7,2 km/h (2 Bft)
20.02.2016 15:32 3,0 C 2,6 C 84 % 1019,6 hPa 0,0 mm 7,2 km/h (2 Bft) NW 315 0 min 0,6 C 7,2 km/h (2 Bft)
20.02.2016 15:33 3,0 C 2,6 C 84 % 1019,6 hPa 0,0 mm 7,5 km/h (2 Bft) W 270 0 min 0,6 C 8,6 km/h (2 Bft)
20.02.2016 15:34 3,0 C 2,6 C 84 % 1019,6 hPa 0,0 mm 7,5 km/h (2 Bft) W 270 0 min 0,6 C 8,6 km/h (2 Bft)
20.02.2016 15:35 3,0 C 2,6 C 85 % 1019,6 hPa 0,7 mm 7,2 km/h (2 Bft) W 270 0 min 0,7 C 6,0 km/h (2 Bft)
20.02.2016 15:36 3,0 C 2,6 C 85 % 1019,6 hPa 0,0 mm 7,2 km/h (2 Bft) W 270 0 min 0,7 C 6,0 km/h (2 Bft)
20.02.2016 15:37 3,0 C 2,6 C 85 % 1019,6 hPa 0,0 mm 7,2 km/h (2 Bft) NW 315 0 min 0,7 C 9,2 km/h (2 Bft)
20.02.2016 15:38 3,0 C 2,6 C 85 % 1019,6 hPa 0,0 mm 7,2 km/h (2 Bft) NW 315 0 min 0,7 C 9,2 km/h (2 Bft)
20.02.2016 15:39 3,0 C 2,6 C 85 % 1019,6 hPa 0,0 mm 7,5 km/h (2 Bft) SW 225 0 min 0,7 C 16,7 km/h (3 Bft)
20.02.2016 15:40 3,0 C 2,6 C 85 % 1019,6 hPa 0,0 mm 7,5 km/h (2 Bft) SW 225 0 min 0,7 C 16,7 km/h (3 Bft)
20.02.2016 15:41 3,0 C 2,5 C 85 % 1019,6 hPa 0,0 mm 7,7 km/h (2 Bft) W 270 0 min 0,7 C 11,3 km/h (2 Bft)
20.02.2016 15:42 3,0 C 2,5 C 85 % 1019,6 hPa 0,0 mm 7,7 km/h (2 Bft) W 270 0 min 0,7 C 11,3 km/h (2 Bft)
20.02.2016 15:43 3,1 C 2,6 C 85 % 1019,4 hPa 0,0 mm 7,7 km/h (2 Bft) W-SW 247 0 min 0,8 C 9,8 km/h (2 Bft)
20.02.2016 15:44 3,1 C 2,6 C 85 % 1019,4 hPa 0,0 mm 7,7 km/h (2 Bft) W-SW 247 0 min 0,8 C 9,8 km/h (2 Bft)
20.02.2016 15:45 3,1 C 2,6 C 85 % 1019,4 hPa 0,0 mm 7,7 km/h (2 Bft) W 270 0 min 0,8 C 10,7 km/h (2 Bft)
20.02.2016 15:46 3,1 C 2,6 C 85 % 1019,4 hPa 0,0 mm 7,7 km/h (2 Bft) W 270 0 min 0,8 C 10,7 km/h (2 Bft)
20.02.2016 15:47 3,1 C 2,5 C 86 % 1019,4 hPa 0,0 mm 8,3 km/h (2 Bft) S 180 0 min 1,0 C 8,3 km/h (2 Bft)
20.02.2016 15:48 3,1 C 2,5 C 86 % 1019,4 hPa 0,0 mm 8,3 km/h (2 Bft) S 180 0 min 1,0 C 8,3 km/h (2 Bft)
20.02.2016 15:49 3,1 C 2,6 C 86 % 1019,4 hPa 0,0 mm 8,3 km/h (2 Bft) W 270 0 min 1,0 C 4,8 km/h (1 Bft)
20.02.2016 15:50 3,1 C 2,6 C 86 % 1019,4 hPa 0,0 mm 8,3 km/h (2 Bft) W 270 0 min 1,0 C 4,8 km/h (1 Bft)
20.02.2016 15:51 3,1 C 2,7 C 86 % 1019,4 hPa 0,0 mm 7,5 km/h (2 Bft) W-NW 292 0 min 1,0 C 7,2 km/h (2 Bft)
20.02.2016 15:52 3,1 C 2,7 C 86 % 1019,4 hPa 0,0 mm 7,5 km/h (2 Bft) W-NW 292 0 min 1,0 C 7,2 km/h (2 Bft)
20.02.2016 15:53 3,1 C 2,7 C 86 % 1019,4 hPa 0,0 mm 7,2 km/h (2 Bft) W-SW 247 0 min 1,0 C 9,5 km/h (2 Bft)
20.02.2016 15:54 3,1 C 2,7 C 86 % 1019,4 hPa 0,0 mm 7,2 km/h (2 Bft) W-SW 247 0 min 1,0 C 9,5 km/h (2 Bft)
20.02.2016 15:55 3,1 C 2,7 C 86 % 1019,4 hPa 0,7 mm 7,5 km/h (2 Bft) W-SW 247 0 min 1,0 C 9,5 km/h (2 Bft)
20.02.2016 15:56 3,1 C 2,7 C 86 % 1019,4 hPa 0,0 mm 7,5 km/h (2 Bft) W-SW 247 0 min 1,0 C 9,5 km/h (2 Bft)
20.02.2016 15:57 3,2 C 2,8 C 86 % 1019,4 hPa 0,0 mm 7,2 km/h (2 Bft) W-SW 247 0 min 1,1 C 18,8 km/h (3 Bft)
20.02.2016 15:58 3,2 C 2,8 C 86 % 1019,4 hPa 0,0 mm 7,2 km/h (2 Bft) W-SW 247 0 min 1,1 C 18,8 km/h (3 Bft)
20.02.2016 15:59 3,2 C 2,8 C 86 % 1019,4 hPa 0,0 mm 6,9 km/h (2 Bft) W-NW 292 0 min 1,1 C 4,5 km/h (1 Bft)
20.02.2016 16:00 3,2 C 2,8 C 86 % 1019,4 hPa 0,0 mm 6,9 km/h (2 Bft) W-NW 292 0 min 1,1 C 4,5 km/h (1 Bft)
20.02.2016 16:01 3,2 C 2,8 C 86 % 1019,4 hPa 0,0 mm 7,7 km/h (2 Bft) W-SW 247 0 min 1,1 C 8,9 km/h (2 Bft)
20.02.2016 16:02 3,2 C 2,8 C 86 % 1019,4 hPa 0,0 mm 7,7 km/h (2 Bft) W-SW 247 0 min 1,1 C 8,9 km/h (2 Bft)
20.02.2016 16:03 3,2 C 2,7 C 86 % 1019,1 hPa 0,0 mm 8,3 km/h (2 Bft) W-NW 292 0 min 1,1 C 21,2 km/h (4 Bft)
20.02.2016 16:04 3,2 C 2,7 C 86 % 1019,1 hPa 0,0 mm 8,3 km/h (2 Bft) W-NW 292 0 min 1,1 C 21,2 km/h (4 Bft)
20.02.2016 16:05 3,3 C 2,7 C 87 % 1019,1 hPa 0,0 mm 8,9 km/h (2 Bft) NW 315 0 min 1,3 C 14,9 km/h (3 Bft)
20.02.2016 16:06 3,3 C 2,7 C 87 % 1019,1 hPa 0,0 mm 8,9 km/h (2 Bft) NW 315 0 min 1,3 C 14,9 km/h (3 Bft)
20.02.2016 16:07 3,3 C 2,6 C 87 % 1019,1 hPa 0,0 mm 10,1 km/h (2 Bft) W-SW 247 0 min 1,3 C 13,4 km/h (3 Bft)
20.02.2016 16:08 3,3 C 2,6 C 87 % 1019,1 hPa 0,0 mm 10,1 km/h (2 Bft) W-SW 247 0 min 1,3 C 13,4 km/h (3 Bft)
20.02.2016 16:09 3,3 C 2,6 C 87 % 1019,1 hPa 0,0 mm 10,4 km/h (2 Bft) W 270 0 min 1,3 C 24,1 km/h (4 Bft)
20.02.2016 16:10 3,3 C 2,6 C 87 % 1019,1 hPa 0,0 mm 10,4 km/h (2 Bft) W 270 0 min 1,3 C 24,1 km/h (4 Bft)
20.02.2016 16:11 3,3 C 2,6 C 87 % 1019,1 hPa 0,0 mm 11,0 km/h (2 Bft) W 270 0 min 1,3 C 16,7 km/h (3 Bft)
20.02.2016 16:12 3,3 C 2,6 C 87 % 1019,1 hPa 0,0 mm 11,0 km/h (2 Bft) W 270 0 min 1,3 C 16,7 km/h (3 Bft)
20.02.2016 16:13 3,3 C 2,6 C 87 % 1019,1 hPa 0,7 mm 11,3 km/h (2 Bft) SW 225 0 min 1,3 C 14,3 km/h (3 Bft)
20.02.2016 16:14 3,3 C 2,6 C 87 % 1019,1 hPa 0,0 mm 11,3 km/h (2 Bft) SW 225 0 min 1,3 C 24,1 km/h (4 Bft)
20.02.2016 16:15 3,4 C 2,6 C 87 % 1019,1 hPa 0,0 mm 11,3 km/h (2 Bft) W 270 0 min 1,4 C 17,6 km/h (3 Bft)
20.02.2016 16:16 3,4 C 2,6 C 87 % 1019,1 hPa 0,0 mm 11,3 km/h (2 Bft) W 270 0 min 1,4 C 17,6 km/h (3 Bft)
20.02.2016 16:17 3,4 C 2,7 C 87 % 1019,1 hPa 0,0 mm 10,4 km/h (2 Bft) W-SW 247 0 min 1,4 C 12,2 km/h (2 Bft)
20.02.2016 16:18 3,4 C 2,7 C 87 % 1019,1 hPa 0,0 mm 10,4 km/h (2 Bft) W-SW 247 0 min 1,4 C 12,2 km/h (2 Bft)
20.02.2016 16:19 3,4 C 2,8 C 87 % 1019,1 hPa 0,0 mm 10,1 km/h (2 Bft) SW 225 0 min 1,4 C 13,7 km/h (3 Bft)
20.02.2016 16:20 3,4 C 2,8 C 87 % 1019,1 hPa 0,0 mm 10,1 km/h (2 Bft) SW 225 0 min 1,4 C 13,7 km/h (3 Bft)
20.02.2016 16:21 3,4 C 2,8 C 87 % 1019,1 hPa 0,0 mm 9,5 km/h (2 Bft) W-SW 247 0 min 1,4 C 15,5 km/h (3 Bft)
20.02.2016 16:22 3,4 C 2,8 C 87 % 1019,1 hPa 0,0 mm 9,5 km/h (2 Bft) W-SW 247 0 min 1,4 C 15,5 km/h (3 Bft)
20.02.2016 16:23 3,4 C 2,8 C 87 % 1018,9 hPa 0,0 mm 9,2 km/h (2 Bft) W-SW 247 0 min 1,4 C 9,5 km/h (2 Bft)
20.02.2016 16:24 3,4 C 2,8 C 87 % 1018,9 hPa 0,0 mm 9,2 km/h (2 Bft) W-SW 247 0 min 1,4 C 9,5 km/h (2 Bft)
20.02.2016 16:25 3,3 C 2,8 C 87 % 1018,9 hPa 0,0 mm 8,3 km/h (2 Bft) W 270 0 min 1,3 C 8,3 km/h (2 Bft)
20.02.2016 16:26 3,3 C 2,8 C 87 % 1018,9 hPa 0,0 mm 8,3 km/h (2 Bft) W 270 0 min 1,3 C 8,3 km/h (2 Bft)
20.02.2016 16:27 3,3 C 2,8 C 87 % 1018,9 hPa 0,0 mm 8,0 km/h (2 Bft) N-NO 22 0 min 1,3 C 9,8 km/h (2 Bft)
20.02.2016 16:28 3,3 C 2,8 C 87 % 1018,9 hPa 0,0 mm 8,0 km/h (2 Bft) N-NO 22 0 min 1,3 C 9,8 km/h (2 Bft)
20.02.2016 16:29 3,4 C 2,9 C 87 % 1018,9 hPa 0,0 mm 8,9 km/h (2 Bft) W-SW 247 0 min 1,4 C 11,9 km/h (2 Bft)
20.02.2016 16:30 3,4 C 2,9 C 87 % 1018,9 hPa 0,0 mm 8,9 km/h (2 Bft) W-SW 247 0 min 1,4 C 11,9 km/h (2 Bft)
20.02.2016 16:31 3,4 C 2,9 C 87 % 1018,9 hPa 0,0 mm 8,6 km/h (2 Bft) SW 225 0 min 1,4 C 8,3 km/h (2 Bft)
20.02.2016 16:32 3,4 C 2,9 C 87 % 1018,9 hPa 0,0 mm 8,6 km/h (2 Bft) SW 225 0 min 1,4 C 8,3 km/h (2 Bft)
20.02.2016 16:33 3,4 C 2,8 C 88 % 1018,9 hPa 0,0 mm 9,2 km/h (2 Bft) W-SW 247 0 min 1,6 C 16,7 km/h (3 Bft)
20.02.2016 16:34 3,4 C 2,8 C 88 % 1018,9 hPa 0,0 mm 9,2 km/h (2 Bft) W-SW 247 0 min 1,6 C 16,7 km/h (3 Bft)
20.02.2016 16:35 3,4 C 2,8 C 88 % 1018,9 hPa 0,7 mm 10,1 km/h (2 Bft) S 180 0 min 1,6 C 17,9 km/h (3 Bft)
20.02.2016 16:36 3,4 C 2,8 C 88 % 1018,9 hPa 0,0 mm 10,1 km/h (2 Bft) S 180 0 min 1,6 C 17,9 km/h (3 Bft)
20.02.2016 16:37 3,5 C 2,7 C 88 % 1018,9 hPa 0,0 mm 11,6 km/h (2 Bft) W-SW 247 0 min 1,7 C 15,5 km/h (3 Bft)
20.02.2016 16:38 3,5 C 2,7 C 88 % 1018,9 hPa 0,0 mm 11,6 km/h (2 Bft) W-SW 247 0 min 1,7 C 15,5 km/h (3 Bft)
20.02.2016 16:39 3,5 C 2,7 C 88 % 1018,9 hPa 0,0 mm 11,3 km/h (2 Bft) SW 225 0 min 1,7 C 10,7 km/h (2 Bft)
20.02.2016 16:40 3,5 C 2,7 C 88 % 1018,9 hPa 0,0 mm 11,3 km/h (2 Bft) SW 225 0 min 1,7 C 10,7 km/h (2 Bft)
20.02.2016 16:41 3,5 C 2,7 C 88 % 1018,9 hPa 0,0 mm 11,3 km/h (2 Bft) SW 225 0 min 1,7 C 7,2 km/h (2 Bft)
20.02.2016 16:42 3,5 C 2,7 C 88 % 1018,9 hPa 0,0 mm 11,3 km/h (2 Bft) SW 225 0 min 1,7 C 7,2 km/h (2 Bft)
20.02.2016 16:43 3,5 C 2,7 C 88 % 1019,0 hPa 0,0 mm 11,6 km/h (2 Bft) W-SW 247 0 min 1,7 C 18,5 km/h (3 Bft)
20.02.2016 16:44 3,5 C 2,7 C 88 % 1019,0 hPa 0,0 mm 11,6 km/h (2 Bft) W-SW 247 0 min 1,7 C 25,3 km/h (4 Bft)
20.02.2016 16:45 3,5 C 2,8 C 88 % 1019,0 hPa 0,0 mm 11,6 km/h (2 Bft) SW 225 0 min 1,7 C 14,0 km/h (3 Bft)
20.02.2016 16:46 3,5 C 2,8 C 88 % 1019,0 hPa 0,0 mm 11,6 km/h (2 Bft) SW 225 0 min 1,7 C 14,0 km/h (3 Bft)
20.02.2016 16:47 3,5 C 2,8 C 88 % 1019,0 hPa 0,0 mm 11,0 km/h (2 Bft) W-SW 247 0 min 1,7 C 14,0 km/h (3 Bft)
20.02.2016 16:48 3,5 C 2,8 C 88 % 1019,0 hPa 0,0 mm 11,0 km/h (2 Bft) W-SW 247 0 min 1,7 C 14,0 km/h (3 Bft)
20.02.2016 16:49 3,5 C 2,9 C 88 % 1019,0 hPa 0,0 mm 10,4 km/h (2 Bft) W-SW 247 0 min 1,7 C 10,1 km/h (2 Bft)
20.02.2016 16:50 3,5 C 2,9 C 88 % 1019,0 hPa 0,0 mm 10,4 km/h (2 Bft) W-SW 247 0 min 1,7 C 10,1 km/h (2 Bft)
20.02.2016 16:51 3,5 C 2,9 C 88 % 1019,0 hPa 0,0 mm 9,8 km/h (2 Bft) W 270 0 min 1,7 C 7,5 km/h (2 Bft)
20.02.2016 16:52 3,5 C 2,9 C 88 % 1019,0 hPa 0,0 mm 9,8 km/h (2 Bft) W 270 0 min 1,7 C 7,5 km/h (2 Bft)
20.02.2016 16:53 3,5 C 2,8 C 88 % 1019,0 hPa 0,0 mm 11,0 km/h (2 Bft) W-NW 292 0 min 1,7 C 23,5 km/h (4 Bft)
20.02.2016 16:54 3,5 C 2,8 C 88 % 1019,0 hPa 0,0 mm 11,0 km/h (2 Bft) W-NW 292 0 min 1,7 C 23,5 km/h (4 Bft)
20.02.2016 16:55 3,6 C 2,9 C 88 % 1019,0 hPa 0,0 mm 11,3 km/h (2 Bft) W-SW 247 0 min 1,8 C 28,9 km/h (5 Bft)
20.02.2016 16:56 3,6 C 2,9 C 88 % 1019,0 hPa 0,0 mm 11,3 km/h (2 Bft) W-SW 247 0 min 1,8 C 28,9 km/h (5 Bft)
20.02.2016 16:57 3,6 C 2,9 C 88 % 1019,0 hPa 0,7 mm 11,0 km/h (2 Bft) S 180 0 min 1,8 C 9,8 km/h (2 Bft)
20.02.2016 16:58 3,6 C 2,9 C 88 % 1019,0 hPa 0,0 mm 11,0 km/h (2 Bft) S 180 0 min 1,8 C 9,8 km/h (2 Bft)
20.02.2016 16:59 3,5 C 2,8 C 88 % 1019,0 hPa 0,0 mm 11,0 km/h (2 Bft) W-SW 247 0 min 1,7 C 22,7 km/h (4 Bft)
20.02.2016 17:00 3,5 C 2,8 C 88 % 1019,0 hPa 0,0 mm 11,0 km/h (2 Bft) W-SW 247 0 min 1,7 C 22,7 km/h (4 Bft)
20.02.2016 17:01 3,6 C 2,8 C 88 % 1019,0 hPa 0,0 mm 12,2 km/h (2 Bft) W 270 0 min 1,8 C 9,2 km/h (2 Bft)
20.02.2016 17:02 3,6 C 2,8 C 88 % 1019,0 hPa 0,0 mm 12,2 km/h (2 Bft) W 270 0 min 1,8 C 9,2 km/h (2 Bft)
20.02.2016 17:03 3,7 C 2,8 C 88 % 1019,1 hPa 0,0 mm 13,4 km/h (3 Bft) W-SW 247 0 min 1,9 C 23,8 km/h (4 Bft)
20.02.2016 17:04 3,7 C 2,8 C 88 % 1019,1 hPa 0,0 mm 13,4 km/h (3 Bft) W-SW 247 0 min 1,9 C 28,9 km/h (5 Bft)
20.02.2016 17:05 3,7 C 2,9 C 88 % 1019,1 hPa 0,0 mm 13,1 km/h (3 Bft) SW 225 0 min 1,9 C 26,5 km/h (4 Bft)
20.02.2016 17:06 3,7 C 2,9 C 88 % 1019,1 hPa 0,0 mm 13,1 km/h (3 Bft) SW 225 0 min 1,9 C 26,5 km/h (4 Bft)
20.02.2016 17:07 3,7 C 2,8 C 88 % 1019,1 hPa 0,0 mm 13,4 km/h (3 Bft) NW 315 0 min 1,9 C 14,9 km/h (3 Bft)
20.02.2016 17:08 3,7 C 2,8 C 88 % 1019,1 hPa 0,0 mm 13,4 km/h (3 Bft) NW 315 0 min 1,9 C 14,9 km/h (3 Bft)
20.02.2016 17:09 3,7 C 2,8 C 88 % 1019,1 hPa 0,0 mm 13,4 km/h (3 Bft) W 270 0 min 1,9 C 11,9 km/h (2 Bft)
20.02.2016 17:10 3,7 C 2,8 C 88 % 1019,1 hPa 0,0 mm 13,4 km/h (3 Bft) W 270 0 min 1,9 C 11,9 km/h (2 Bft)
20.02.2016 17:11 3,6 C 2,9 C 88 % 1019,1 hPa 0,0 mm 11,9 km/h (2 Bft) W 270 0 min 1,8 C 8,3 km/h (2 Bft)
20.02.2016 17:12 3,6 C 2,9 C 88 % 1019,1 hPa 0,0 mm 11,9 km/h (2 Bft) W 270 0 min 1,8 C 8,3 km/h (2 Bft)
20.02.2016 17:13 3,6 C 2,9 C 88 % 1019,1 hPa 0,0 mm 11,9 km/h (2 Bft) W-SW 247 0 min 1,8 C 7,2 km/h (2 Bft)
20.02.2016 17:14 3,6 C 2,9 C 88 % 1019,1 hPa 0,0 mm 11,9 km/h (2 Bft) W-SW 247 0 min 1,8 C 7,2 km/h (2 Bft)
20.02.2016 17:15 3,5 C 2,9 C 88 % 1019,1 hPa 0,0 mm 10,7 km/h (2 Bft) W-SW 247 0 min 1,7 C 14,6 km/h (3 Bft)
20.02.2016 17:16 3,5 C 2,9 C 88 % 1019,1 hPa 0,0 mm 10,7 km/h (2 Bft) W-SW 247 0 min 1,7 C 14,6 km/h (3 Bft)
20.02.2016 17:17 3,5 C 2,9 C 88 % 1019,1 hPa 0,0 mm 9,8 km/h (2 Bft) W 270 0 min 1,7 C 19,7 km/h (3 Bft)
20.02.2016 17:18 3,5 C 2,9 C 88 % 1019,1 hPa 0,0 mm 9,8 km/h (2 Bft) W 270 0 min 1,7 C 19,7 km/h (3 Bft)
20.02.2016 17:19 3,6 C 3,0 C 88 % 1019,1 hPa 0,0 mm 10,1 km/h (2 Bft) S 180 0 min 1,8 C 14,0 km/h (3 Bft)
20.02.2016 17:20 3,6 C 3,0 C 88 % 1019,1 hPa 0,0 mm 10,1 km/h (2 Bft) S 180 0 min 1,8 C 14,0 km/h (3 Bft)
20.02.2016 17:21 3,5 C 2,9 C 88 % 1019,1 hPa 0,0 mm 10,1 km/h (2 Bft) W 270 0 min 1,7 C 8,0 km/h (2 Bft)
20.02.2016 17:22 3,5 C 2,9 C 88 % 1019,1 hPa 0,0 mm 10,1 km/h (2 Bft) W 270 0 min 1,7 C 8,0 km/h (2 Bft)
20.02.2016 17:23 3,5 C 2,9 C 88 % 1019,2 hPa 0,0 mm 10,1 km/h (2 Bft) W-SW 247 0 min 1,7 C 11,9 km/h (2 Bft)
20.02.2016 17:24 3,5 C 2,9 C 88 % 1019,2 hPa 0,0 mm 10,1 km/h (2 Bft) W-SW 247 0 min 1,7 C 11,9 km/h (2 Bft)
20.02.2016 17:25 3,5 C 2,9 C 88 % 1019,2 hPa 0,0 mm 10,4 km/h (2 Bft) W 270 0 min 1,7 C 15,8 km/h (3 Bft)
20.02.2016 17:27 3,5 C 2,9 C 88 % 1019,2 hPa 0,0 mm 11,0 km/h (2 Bft) W-NW 292 0 min 1,7 C 10,7 km/h (2 Bft)
20.02.2016 17:28 3,5 C 2,9 C 88 % 1019,2 hPa 0,0 mm 11,0 km/h (2 Bft) W-NW 292 0 min 1,7 C 10,7 km/h (2 Bft)
20.02.2016 17:29 3,5 C 2,9 C 88 % 1019,2 hPa 0,0 mm 10,4 km/h (2 Bft) W 270 0 min 1,7 C 10,7 km/h (2 Bft)
20.02.2016 17:30 3,5 C 2,9 C 88 % 1019,2 hPa 0,0 mm 10,4 km/h (2 Bft) W 270 0 min 1,7 C 10,7 km/h (2 Bft)
20.02.2016 17:31 3,5 C 2,9 C 88 % 1019,2 hPa 0,7 mm 9,8 km/h (2 Bft) W 270 0 min 1,7 C 11,3 km/h (2 Bft)
20.02.2016 17:32 3,5 C 2,9 C 88 % 1019,2 hPa 0,0 mm 9,8 km/h (2 Bft) W 270 0 min 1,7 C 11,3 km/h (2 Bft)
20.02.2016 17:33 3,5 C 2,9 C 89 % 1019,2 hPa 0,0 mm 9,8 km/h (2 Bft) W-NW 292 0 min 1,9 C 15,2 km/h (3 Bft)
20.02.2016 17:34 3,5 C 2,9 C 89 % 1019,2 hPa 0,0 mm 9,8 km/h (2 Bft) W-NW 292 0 min 1,9 C 15,2 km/h (3 Bft)
20.02.2016 17:35 3,5 C 2,9 C 89 % 1019,2 hPa 0,0 mm 10,4 km/h (2 Bft) SW 225 0 min 1,9 C 12,2 km/h (2 Bft)
20.02.2016 17:36 3,5 C 2,9 C 89 % 1019,2 hPa 0,0 mm 10,4 km/h (2 Bft) SW 225 0 min 1,9 C 12,2 km/h (2 Bft)
20.02.2016 17:37 3,5 C 3,0 C 89 % 1019,2 hPa 0,0 mm 9,2 km/h (2 Bft) NW 315 0 min 1,9 C 8,3 km/h (2 Bft)
20.02.2016 17:38 3,5 C 3,0 C 89 % 1019,2 hPa 0,0 mm 9,2 km/h (2 Bft) NW 315 0 min 1,9 C 8,3 km/h (2 Bft)
20.02.2016 17:39 3,5 C 3,0 C 89 % 1019,2 hPa 0,0 mm 8,9 km/h (2 Bft) SW 225 0 min 1,9 C 14,3 km/h (3 Bft)
20.02.2016 17:40 3,5 C 3,0 C 89 % 1019,2 hPa 0,0 mm 8,9 km/h (2 Bft) SW 225 0 min 1,9 C 14,3 km/h (3 Bft)
20.02.2016 17:41 3,5 C 3,0 C 89 % 1019,2 hPa 0,0 mm 9,2 km/h (2 Bft) W-SW 247 0 min 1,9 C 9,8 km/h (2 Bft)
20.02.2016 17:42 3,5 C 3,0 C 89 % 1019,2 hPa 0,0 mm 9,2 km/h (2 Bft) W-SW 247 0 min 1,9 C 9,8 km/h (2 Bft)
20.02.2016 17:43 3,5 C 3,0 C 89 % 1019,1 hPa 0,0 mm 8,9 km/h (2 Bft) W 270 0 min 1,9 C 9,2 km/h (2 Bft)
20.02.2016 17:44 3,5 C 3,0 C 89 % 1019,1 hPa 0,0 mm 8,9 km/h (2 Bft) W 270 0 min 1,9 C 9,2 km/h (2 Bft)
20.02.2016 17:45 3,5 C 3,0 C 89 % 1019,1 hPa 0,0 mm 8,6 km/h (2 Bft) NW 315 0 min 1,9 C 10,7 km/h (2 Bft)
20.02.2016 17:46 3,5 C 3,0 C 89 % 1019,1 hPa 0,0 mm 8,6 km/h (2 Bft) NW 315 0 min 1,9 C 10,7 km/h (2 Bft)
20.02.2016 17:47 3,5 C 3,1 C 89 % 1019,1 hPa 0,0 mm 8,3 km/h (2 Bft) W 270 0 min 1,9 C 11,0 km/h (2 Bft)
20.02.2016 17:48 3,5 C 3,1 C 89 % 1019,1 hPa 0,0 mm 8,3 km/h (2 Bft) W 270 0 min 1,9 C 11,0 km/h (2 Bft)
20.02.2016 17:49 3,5 C 3,0 C 89 % 1019,1 hPa 0,7 mm 8,6 km/h (2 Bft) W 270 0 min 1,9 C 8,0 km/h (2 Bft)
20.02.2016 17:50 3,5 C 3,0 C 89 % 1019,1 hPa 0,0 mm 8,6 km/h (2 Bft) W 270 0 min 1,9 C 8,0 km/h (2 Bft)
20.02.2016 17:51 3,5 C 3,0 C 89 % 1019,1 hPa 0,0 mm 9,2 km/h (2 Bft) W 270 0 min 1,9 C 13,4 km/h (3 Bft)
20.02.2016 17:52 3,5 C 3,0 C 89 % 1019,1 hPa 0,0 mm 9,2 km/h (2 Bft) W 270 0 min 1,9 C 13,4 km/h (3 Bft)
20.02.2016 17:53 3,6 C 3,0 C 89 % 1019,1 hPa 0,0 mm 10,1 km/h (2 Bft) NW 315 0 min 2,0 C 13,7 km/h (3 Bft)
20.02.2016 17:54 3,6 C 3,0 C 89 % 1019,1 hPa 0,0 mm 10,1 km/h (2 Bft) NW 315 0 min 2,0 C 13,7 km/h (3 Bft)
20.02.2016 17:55 3,7 C 2,9 C 89 % 1019,1 hPa 0,0 mm 11,9 km/h (2 Bft) W-NW 292 0 min 2,1 C 15,8 km/h (3 Bft)
20.02.2016 17:56 3,7 C 2,9 C 89 % 1019,1 hPa 0,0 mm 11,9 km/h (2 Bft) W-NW 292 0 min 2,1 C 15,8 km/h (3 Bft)
20.02.2016 17:57 3,7 C 2,9 C 89 % 1019,1 hPa 0,0 mm 11,9 km/h (2 Bft) W 270 0 min 2,1 C 11,3 km/h (2 Bft)
20.02.2016 17:58 3,7 C 2,9 C 89 % 1019,1 hPa 0,0 mm 11,9 km/h (2 Bft) W 270 0 min 2,1 C 11,3 km/h (2 Bft)
20.02.2016 17:59 3,6 C 2,9 C 89 % 1019,1 hPa 0,0 mm 11,9 km/h (2 Bft) W-SW 247 0 min 2,0 C 15,5 km/h (3 Bft)
20.02.2016 18:00 3,6 C 2,9 C 89 % 1019,1 hPa 0,0 mm 11,9 km/h (2 Bft) W-SW 247 0 min 2,0 C 15,5 km/h (3 Bft)
20.02.2016 18:01 3,6 C 2,9 C 89 % 1019,1 hPa 0,0 mm 11,3 km/h (2 Bft) W-SW 247 0 min 2,0 C 4,5 km/h (1 Bft)
20.02.2016 18:02 3,6 C 2,9 C 89 % 1019,1 hPa 0,0 mm 11,3 km/h (2 Bft) W-SW 247 0 min 2,0 C 4,5 km/h (1 Bft)
20.02.2016 18:03 3,6 C 3,0 C 89 % 1019,2 hPa 0,0 mm 10,4 km/h (2 Bft) W-NW 292 0 min 2,0 C 13,4 km/h (3 Bft)
20.02.2016 18:04 3,6 C 3,0 C 89 % 1019,2 hPa 0,0 mm 10,4 km/h (2 Bft) W-NW 292 0 min 2,0 C 13,4 km/h (3 Bft)
20.02.2016 18:05 3,6 C 3,0 C 89 % 1019,2 hPa 0,0 mm 9,8 km/h (2 Bft) W 270 0 min 2,0 C 12,5 km/h (3 Bft)
20.02.2016 18:06 3,6 C 3,0 C 89 % 1019,2 hPa 0,0 mm 9,8 km/h (2 Bft) W 270 0 min 2,0 C 12,5 km/h (3 Bft)
20.02.2016 18:07 3,5 C 3,1 C 89 % 1019,2 hPa 0,0 mm 8,0 km/h (2 Bft) W-NW 292 0 min 1,9 C 4,2 km/h (1 Bft)
20.02.2016 18:08 3,5 C 3,1 C 89 % 1019,2 hPa 0,0 mm 8,0 km/h (2 Bft) W-NW 292 0 min 1,9 C 4,2 km/h (1 Bft)
20.02.2016 18:09 3,5 C 3,1 C 89 % 1019,2 hPa 0,7 mm 8,3 km/h (2 Bft) W-SW 247 0 min 1,9 C 14,3 km/h (3 Bft)
20.02.2016 18:10 3,5 C 3,1 C 89 % 1019,2 hPa 0,0 mm 8,3 km/h (2 Bft) W-SW 247 0 min 1,9 C 14,3 km/h (3 Bft)
20.02.2016 18:11 3,6 C 3,1 C 89 % 1019,2 hPa 0,0 mm 8,6 km/h (2 Bft) NW 315 0 min 2,0 C 15,8 km/h (3 Bft)
20.02.2016 18:12 3,6 C 3,1 C 89 % 1019,2 hPa 0,0 mm 8,6 km/h (2 Bft) NW 315 0 min 2,0 C 15,8 km/h (3 Bft)
20.02.2016 18:13 3,6 C 3,1 C 89 % 1019,2 hPa 0,0 mm 8,6 km/h (2 Bft) W-SW 247 0 min 2,0 C 21,2 km/h (4 Bft)
20.02.2016 18:14 3,6 C 3,1 C 89 % 1019,2 hPa 0,0 mm 8,6 km/h (2 Bft) W-SW 247 0 min 2,0 C 21,2 km/h (4 Bft)
20.02.2016 18:15 3,6 C 3,1 C 89 % 1019,2 hPa 0,0 mm 8,9 km/h (2 Bft) W 270 0 min 2,0 C 20,0 km/h (4 Bft)
20.02.2016 18:16 3,6 C 3,1 C 89 % 1019,2 hPa 0,0 mm 8,9 km/h (2 Bft) W 270 0 min 2,0 C 20,0 km/h (4 Bft)
20.02.2016 18:17 3,7 C 3,1 C 89 % 1019,2 hPa 0,0 mm 9,2 km/h (2 Bft) W 270 0 min 2,1 C 10,4 km/h (2 Bft)
20.02.2016 18:18 3,7 C 3,1 C 89 % 1019,2 hPa 0,0 mm 9,2 km/h (2 Bft) W 270 0 min 2,1 C 10,4 km/h (2 Bft)
20.02.2016 18:19 3,7 C 3,0 C 89 % 1019,2 hPa 0,0 mm 11,3 km/h (2 Bft) W 270 0 min 2,1 C 25,3 km/h (4 Bft)
20.02.2016 18:20 3,7 C 3,0 C 89 % 1019,2 hPa 0,0 mm 11,3 km/h (2 Bft) W 270 0 min 2,1 C 25,3 km/h (4 Bft)
20.02.2016 18:21 3,7 C 3,0 C 89 % 1019,2 hPa 0,0 mm 11,3 km/h (2 Bft) W-NW 292 0 min 2,1 C 9,8 km/h (2 Bft)
20.02.2016 18:22 3,7 C 3,0 C 89 % 1019,2 hPa 0,0 mm 11,3 km/h (2 Bft) W-NW 292 0 min 2,1 C 9,8 km/h (2 Bft)
20.02.2016 18:23 3,7 C 3,0 C 89 % 1019,4 hPa 0,0 mm 11,3 km/h (2 Bft) S 180 0 min 2,1 C 7,5 km/h (2 Bft)
20.02.2016 18:24 3,7 C 3,0 C 89 % 1019,4 hPa 0,0 mm 11,3 km/h (2 Bft) S 180 0 min 2,1 C 34,6 km/h (5 Bft)
20.02.2016 18:25 3,7 C 3,0 C 89 % 1019,4 hPa 0,0 mm 10,7 km/h (2 Bft) S-SW 202 0 min 2,1 C 11,6 km/h (2 Bft)
20.02.2016 18:26 3,7 C 3,0 C 89 % 1019,4 hPa 0,0 mm 10,7 km/h (2 Bft) S-SW 202 0 min 2,1 C 11,6 km/h (2 Bft)
20.02.2016 18:27 3,7 C 3,1 C 90 % 1019,4 hPa 0,7 mm 10,4 km/h (2 Bft) W 270 0 min 2,2 C 11,3 km/h (2 Bft)
20.02.2016 18:28 3,7 C 3,1 C 90 % 1019,4 hPa 0,0 mm 10,4 km/h (2 Bft) W 270 0 min 2,2 C 11,3 km/h (2 Bft)
20.02.2016 18:29 3,7 C 3,1 C 90 % 1019,4 hPa 0,0 mm 10,1 km/h (2 Bft) W 270 0 min 2,2 C 15,5 km/h (3 Bft)
20.02.2016 18:30 3,7 C 3,1 C 90 % 1019,4 hPa 0,0 mm 10,1 km/h (2 Bft) W 270 0 min 2,2 C 15,5 km/h (3 Bft)
20.02.2016 18:31 3,7 C 3,2 C 90 % 1019,4 hPa 0,0 mm 8,6 km/h (2 Bft) NW 315 0 min 2,2 C 6,9 km/h (2 Bft)
20.02.2016 18:32 3,7 C 3,2 C 90 % 1019,4 hPa 0,0 mm 8,6 km/h (2 Bft) NW 315 0 min 2,2 C 6,9 km/h (2 Bft)
20.02.2016 18:33 3,7 C 3,2 C 90 % 1019,4 hPa 0,0 mm 8,9 km/h (2 Bft) W-NW 292 0 min 2,2 C 14,0 km/h (3 Bft)
20.02.2016 18:34 3,7 C 3,2 C 90 % 1019,4 hPa 0,0 mm 8,9 km/h (2 Bft) W-NW 292 0 min 2,2 C 14,0 km/h (3 Bft)
20.02.2016 18:35 3,7 C 3,1 C 90 % 1019,4 hPa 0,0 mm 9,5 km/h (2 Bft) W-SW 247 0 min 2,2 C 9,5 km/h (2 Bft)
20.02.2016 18:36 3,7 C 3,1 C 90 % 1019,4 hPa 0,0 mm 9,5 km/h (2 Bft) W-SW 247 0 min 2,2 C 9,5 km/h (2 Bft)
20.02.2016 18:37 3,7 C 3,1 C 90 % 1019,4 hPa 0,0 mm 9,8 km/h (2 Bft) NW 315 0 min 2,2 C 18,5 km/h (3 Bft)
20.02.2016 18:38 3,7 C 3,1 C 90 % 1019,4 hPa 0,0 mm 9,8 km/h (2 Bft) NW 315 0 min 2,2 C 18,5 km/h (3 Bft)
20.02.2016 18:39 3,7 C 3,1 C 90 % 1019,4 hPa 0,0 mm 9,8 km/h (2 Bft) NW 315 0 min 2,2 C 10,1 km/h (2 Bft)
20.02.2016 18:40 3,7 C 3,1 C 90 % 1019,4 hPa 0,0 mm 9,8 km/h (2 Bft) NW 315 0 min 2,2 C 10,1 km/h (2 Bft)
20.02.2016 18:41 3,7 C 3,1 C 90 % 1019,4 hPa 0,0 mm 10,1 km/h (2 Bft) W-SW 247 0 min 2,2 C 25,9 km/h (4 Bft)
20.02.2016 18:42 3,7 C 3,1 C 90 % 1019,4 hPa 0,0 mm 10,1 km/h (2 Bft) W-SW 247 0 min 2,2 C 25,9 km/h (4 Bft)
20.02.2016 18:43 3,8 C 3,1 C 90 % 1020,0 hPa 0,0 mm 10,4 km/h (2 Bft) W-SW 247 0 min 2,3 C 10,1 km/h (2 Bft)
20.02.2016 18:44 3,8 C 3,1 C 90 % 1020,0 hPa 0,0 mm 10,4 km/h (2 Bft) W-SW 247 0 min 2,3 C 10,1 km/h (2 Bft)
20.02.2016 18:45 3,8 C 3,2 C 90 % 1020,0 hPa 0,0 mm 9,8 km/h (2 Bft) W 270 0 min 2,3 C 10,1 km/h (2 Bft)
20.02.2016 18:46 3,8 C 3,2 C 90 % 1020,0 hPa 0,0 mm 9,8 km/h (2 Bft) W 270 0 min 2,3 C 10,1 km/h (2 Bft)
20.02.2016 18:47 3,7 C 3,1 C 90 % 1020,0 hPa 0,7 mm 10,1 km/h (2 Bft) W-NW 292 0 min 2,2 C 14,3 km/h (3 Bft)
20.02.2016 18:48 3,7 C 3,1 C 90 % 1020,0 hPa 0,0 mm 10,1 km/h (2 Bft) W-NW 292 0 min 2,2 C 14,3 km/h (3 Bft)
20.02.2016 18:49 3,7 C 3,2 C 90 % 1020,0 hPa 0,0 mm 9,2 km/h (2 Bft) W 270 0 min 2,2 C 11,0 km/h (2 Bft)
20.02.2016 18:50 3,7 C 3,2 C 90 % 1020,0 hPa 0,0 mm 9,2 km/h (2 Bft) W 270 0 min 2,2 C 11,0 km/h (2 Bft)
20.02.2016 18:51 3,7 C 3,1 C 90 % 1020,0 hPa 0,0 mm 9,8 km/h (2 Bft) W 270 0 min 2,2 C 15,5 km/h (3 Bft)
20.02.2016 18:52 3,7 C 3,1 C 90 % 1020,0 hPa 0,0 mm 9,8 km/h (2 Bft) W 270 0 min 2,2 C 15,5 km/h (3 Bft)
20.02.2016 18:53 3,7 C 3,2 C 90 % 1020,0 hPa 0,0 mm 8,9 km/h (2 Bft) O-NO 67 0 min 2,2 C 19,1 km/h (3 Bft)
20.02.2016 18:54 3,7 C 3,2 C 90 % 1020,0 hPa 0,0 mm 8,9 km/h (2 Bft) O-NO 67 0 min 2,2 C 19,1 km/h (3 Bft)
20.02.2016 18:55 3,8 C 3,2 C 90 % 1020,0 hPa 0,0 mm 9,5 km/h (2 Bft) W-SW 247 0 min 2,3 C 11,0 km/h (2 Bft)
20.02.2016 18:56 3,8 C 3,2 C 90 % 1020,0 hPa 0,0 mm 9,5 km/h (2 Bft) W-SW 247 0 min 2,3 C 11,0 km/h (2 Bft)
20.02.2016 18:57 3,8 C 3,2 C 90 % 1020,0 hPa 0,0 mm 10,1 km/h (2 Bft) NW 315 0 min 2,3 C 17,9 km/h (3 Bft)
20.02.2016 18:58 3,8 C 3,2 C 90 % 1020,0 hPa 0,0 mm 10,1 km/h (2 Bft) NW 315 0 min 2,3 C 17,9 km/h (3 Bft)
20.02.2016 18:59 3,8 C 3,2 C 90 % 1020,0 hPa 0,0 mm 9,5 km/h (2 Bft) W-SW 247 0 min 2,3 C 13,1 km/h (3 Bft)
20.02.2016 19:00 3,8 C 3,2 C 90 % 1020,0 hPa 0,0 mm 9,5 km/h (2 Bft) W-SW 247 0 min 2,3 C 13,1 km/h (3 Bft)
20.02.2016 19:01 3,8 C 3,2 C 90 % 1020,0 hPa 0,0 mm 10,1 km/h (2 Bft) W 270 0 min 2,3 C 17,0 km/h (3 Bft)
20.02.2016 19:02 3,8 C 3,2 C 90 % 1020,0 hPa 0,0 mm 10,1 km/h (2 Bft) W 270 0 min 2,3 C 17,0 km/h (3 Bft)
20.02.2016 19:03 3,8 C 3,2 C 90 % 1019,6 hPa 0,0 mm 9,8 km/h (2 Bft) W-SW 247 0 min 2,3 C 6,0 km/h (2 Bft)
20.02.2016 19:04 3,8 C 3,2 C 90 % 1019,6 hPa 0,0 mm 9,8 km/h (2 Bft) W-SW 247 0 min 2,3 C 6,0 km/h (2 Bft)
20.02.2016 19:05 3,7 C 3,2 C 90 % 1019,6 hPa 0,7 mm 9,2 km/h (2 Bft) W-SW 247 0 min 2,2 C 7,7 km/h (2 Bft)
20.02.2016 19:06 3,7 C 3,2 C 90 % 1019,6 hPa 0,0 mm 9,2 km/h (2 Bft) W-SW 247 0 min 2,2 C 7,7 km/h (2 Bft)
20.02.2016 19:07 3,7 C 3,3 C 90 % 1019,6 hPa 0,0 mm 8,0 km/h (2 Bft) W 270 0 min 2,2 C 0,0 km/h (0 Bft)
20.02.2016 19:08 3,7 C 3,3 C 90 % 1019,6 hPa 0,0 mm 8,0 km/h (2 Bft) W 270 0 min 2,2 C 0,0 km/h (0 Bft)
20.02.2016 19:09 3,7 C 3,2 C 90 % 1019,6 hPa 0,0 mm 8,0 km/h (2 Bft) W 270 0 min 2,2 C 21,2 km/h (4 Bft)
20.02.2016 19:10 3,7 C 3,2 C 90 % 1019,6 hPa 0,0 mm 8,0 km/h (2 Bft) W 270 0 min 2,2 C 21,2 km/h (4 Bft)
20.02.2016 19:11 3,7 C 3,2 C 90 % 1019,6 hPa 0,0 mm 8,3 km/h (2 Bft) W-SW 247 0 min 2,2 C 14,3 km/h (3 Bft)
20.02.2016 19:12 3,7 C 3,2 C 90 % 1019,6 hPa 0,0 mm 8,3 km/h (2 Bft) W-SW 247 0 min 2,2 C 14,3 km/h (3 Bft)
20.02.2016 19:13 3,7 C 3,2 C 90 % 1019,6 hPa 0,0 mm 8,0 km/h (2 Bft) W 270 0 min 2,2 C 10,7 km/h (2 Bft)
20.02.2016 19:14 3,7 C 3,2 C 90 % 1019,6 hPa 0,0 mm 8,0 km/h (2 Bft) W 270 0 min 2,2 C 10,7 km/h (2 Bft)
20.02.2016 19:15 3,7 C 3,2 C 90 % 1019,6 hPa 0,0 mm 8,3 km/h (2 Bft) W-SW 247 0 min 2,2 C 18,2 km/h (3 Bft)
20.02.2016 19:16 3,7 C 3,2 C 90 % 1019,6 hPa 0,0 mm 8,3 km/h (2 Bft) W-SW 247 0 min 2,2 C 18,2 km/h (3 Bft)
20.02.2016 19:17 3,7 C 3,2 C 90 % 1019,6 hPa 0,0 mm 8,3 km/h (2 Bft) S-SW 202 0 min 2,2 C 11,0 km/h (2 Bft)
20.02.2016 19:18 3,7 C 3,2 C 90 % 1019,6 hPa 0,0 mm 8,3 km/h (2 Bft) S-SW 202 0 min 2,2 C 11,0 km/h (2 Bft)
20.02.2016 19:19 3,7 C 3,2 C 90 % 1019,6 hPa 0,0 mm 8,9 km/h (2 Bft) W-SW 247 0 min 2,2 C 6,9 km/h (2 Bft)
20.02.2016 19:20 3,7 C 3,2 C 90 % 1019,6 hPa 0,0 mm 8,9 km/h (2 Bft) W-SW 247 0 min 2,2 C 6,9 km/h (2 Bft)
20.02.2016 19:21 3,6 C 3,2 C 90 % 1019,6 hPa 0,0 mm 8,0 km/h (2 Bft) W 270 0 min 2,1 C 4,8 km/h (1 Bft)
20.02.2016 19:22 3,6 C 3,2 C 90 % 1019,6 hPa 0,0 mm 8,0 km/h (2 Bft) W 270 0 min 2,1 C 4,8 km/h (1 Bft)
20.02.2016 19:23 3,7 C 3,2 C 90 % 1019,7 hPa 0,7 mm 8,0 km/h (2 Bft) W 270 0 min 2,2 C 17,9 km/h (3 Bft)
20.02.2016 19:24 3,7 C 3,2 C 90 % 1019,7 hPa 0,0 mm 8,0 km/h (2 Bft) W 270 0 min 2,2 C 17,9 km/h (3 Bft)
20.02.2016 19:25 3,7 C 3,2 C 90 % 1019,7 hPa 0,0 mm 8,0 km/h (2 Bft) W 270 0 min 2,2 C 9,8 km/h (2 Bft)
20.02.2016 19:26 3,7 C 3,2 C 90 % 1019,7 hPa 0,0 mm 8,0 km/h (2 Bft) W 270 0 min 2,2 C 9,8 km/h (2 Bft)
20.02.2016 19:27 3,7 C 3,2 C 90 % 1019,7 hPa 0,0 mm 8,3 km/h (2 Bft) W 270 0 min 2,2 C 13,4 km/h (3 Bft)
20.02.2016 19:28 3,7 C 3,2 C 90 % 1019,7 hPa 0,0 mm 8,3 km/h (2 Bft) W 270 0 min 2,2 C 13,4 km/h (3 Bft)
20.02.2016 19:29 3,7 C 3,2 C 90 % 1019,7 hPa 0,0 mm 8,0 km/h (2 Bft) W-SW 247 0 min 2,2 C 5,4 km/h (1 Bft)
20.02.2016 19:30 3,7 C 3,2 C 90 % 1019,7 hPa 0,0 mm 8,0 km/h (2 Bft) W-SW 247 0 min 2,2 C 5,4 km/h (1 Bft)
20.02.2016 19:31 3,7 C 3,1 C 90 % 1019,7 hPa 0,0 mm 9,5 km/h (2 Bft) N-NW 337 0 min 2,2 C 19,4 km/h (3 Bft)
20.02.2016 19:32 3,7 C 3,1 C 90 % 1019,7 hPa 0,0 mm 9,5 km/h (2 Bft) N-NW 337 0 min 2,2 C 19,4 km/h (3 Bft)
20.02.2016 19:33 3,7 C 3,1 C 90 % 1019,7 hPa 0,0 mm 9,5 km/h (2 Bft) W-SW 247 0 min 2,2 C 6,6 km/h (2 Bft)
20.02.2016 19:34 3,7 C 3,1 C 90 % 1019,7 hPa 0,0 mm 9,5 km/h (2 Bft) W-SW 247 0 min 2,2 C 6,6 km/h (2 Bft)
20.02.2016 19:35 3,7 C 3,2 C 90 % 1019,7 hPa 0,0 mm 8,3 km/h (2 Bft) W 270 0 min 2,2 C 8,0 km/h (2 Bft)
20.02.2016 19:36 3,7 C 3,2 C 90 % 1019,7 hPa 0,0 mm 8,3 km/h (2 Bft) W 270 0 min 2,2 C 8,0 km/h (2 Bft)
20.02.2016 19:37 3,7 C 3,2 C 90 % 1019,7 hPa 0,0 mm 8,3 km/h (2 Bft) W-SW 247 0 min 2,2 C 7,7 km/h (2 Bft)
20.02.2016 19:38 3,7 C 3,2 C 90 % 1019,7 hPa 0,0 mm 8,3 km/h (2 Bft) W-SW 247 0 min 2,2 C 7,7 km/h (2 Bft)
20.02.2016 19:39 3,6 C 3,2 C 90 % 1019,7 hPa 0,0 mm 8,0 km/h (2 Bft) S 180 0 min 2,1 C 8,6 km/h (2 Bft)
20.02.2016 19:40 3,6 C 3,2 C 90 % 1019,7 hPa 0,0 mm 8,0 km/h (2 Bft) S 180 0 min 2,1 C 8,6 km/h (2 Bft)
20.02.2016 19:41 3,6 C 3,2 C 90 % 1019,7 hPa 0,7 mm 7,5 km/h (2 Bft) NW 315 0 min 2,1 C 7,7 km/h (2 Bft)
20.02.2016 19:42 3,6 C 3,2 C 90 % 1019,7 hPa 0,0 mm 7,5 km/h (2 Bft) NW 315 0 min 2,1 C 7,7 km/h (2 Bft)
20.02.2016 19:43 3,7 C 3,3 C 90 % 1019,2 hPa 0,0 mm 7,5 km/h (2 Bft) W 270 0 min 2,2 C 15,5 km/h (3 Bft)
20.02.2016 19:44 3,7 C 3,3 C 90 % 1019,2 hPa 0,0 mm 7,5 km/h (2 Bft) W 270 0 min 2,2 C 15,5 km/h (3 Bft)
20.02.2016 19:45 3,7 C 3,2 C 90 % 1019,2 hPa 0,0 mm 8,6 km/h (2 Bft) W-NW 292 0 min 2,2 C 20,0 km/h (4 Bft)
20.02.2016 19:46 3,7 C 3,2 C 90 % 1019,2 hPa 0,0 mm 8,6 km/h (2 Bft) W-NW 292 0 min 2,2 C 20,0 km/h (4 Bft)
20.02.2016 19:47 3,7 C 3,1 C 90 % 1019,2 hPa 0,0 mm 9,5 km/h (2 Bft) SW 225 0 min 2,2 C 14,9 km/h (3 Bft)
20.02.2016 19:48 3,7 C 3,1 C 90 % 1019,2 hPa 0,0 mm 9,5 km/h (2 Bft) SW 225 0 min 2,2 C 14,9 km/h (3 Bft)
20.02.2016 19:49 3,8 C 3,1 C 90 % 1019,2 hPa 0,0 mm 10,4 km/h (2 Bft) W-SW 247 0 min 2,3 C 15,5 km/h (3 Bft)
20.02.2016 19:50 3,8 C 3,1 C 90 % 1019,2 hPa 0,0 mm 10,4 km/h (2 Bft) W-SW 247 0 min 2,3 C 15,5 km/h (3 Bft)
20.02.2016 19:51 3,8 C 3,1 C 90 % 1019,2 hPa 0,0 mm 11,0 km/h (2 Bft) NW 315 0 min 2,3 C 12,8 km/h (3 Bft)
20.02.2016 19:52 3,8 C 3,1 C 90 % 1019,2 hPa 0,0 mm 11,0 km/h (2 Bft) NW 315 0 min 2,3 C 12,8 km/h (3 Bft)
20.02.2016 19:53 3,8 C 3,1 C 90 % 1019,2 hPa 0,0 mm 11,0 km/h (2 Bft) S 180 0 min 2,3 C 13,4 km/h (3 Bft)
20.02.2016 19:54 3,8 C 3,1 C 90 % 1019,2 hPa 0,0 mm 11,0 km/h (2 Bft) S 180 0 min 2,3 C 13,4 km/h (3 Bft)
20.02.2016 19:55 3,8 C 3,1 C 90 % 1019,2 hPa 0,0 mm 10,7 km/h (2 Bft) W 270 0 min 2,3 C 16,1 km/h (3 Bft)
20.02.2016 19:56 3,8 C 3,1 C 90 % 1019,2 hPa 0,0 mm 10,7 km/h (2 Bft) W 270 0 min 2,3 C 16,1 km/h (3 Bft)
20.02.2016 19:57 3,8 C 3,1 C 90 % 1019,2 hPa 0,0 mm 11,0 km/h (2 Bft) NW 315 0 min 2,3 C 19,7 km/h (3 Bft)
20.02.2016 19:58 3,8 C 3,1 C 90 % 1019,2 hPa 0,0 mm 11,0 km/h (2 Bft) NW 315 0 min 2,3 C 19,7 km/h (3 Bft)
20.02.2016 19:59 3,9 C 3,2 C 90 % 1019,2 hPa 0,7 mm 11,3 km/h (2 Bft) W-NW 292 0 min 2,4 C 11,3 km/h (2 Bft)
20.02.2016 20:00 3,9 C 3,2 C 90 % 1019,2 hPa 0,0 mm 11,3 km/h (2 Bft) W-NW 292 0 min 2,4 C 11,3 km/h (2 Bft)
20.02.2016 20:01 3,8 C 3,1 C 90 % 1019,2 hPa 0,0 mm 11,0 km/h (2 Bft) SW 225 0 min 2,3 C 9,8 km/h (2 Bft)
20.02.2016 20:02 3,8 C 3,1 C 90 % 1019,2 hPa 0,0 mm 11,0 km/h (2 Bft) SW 225 0 min 2,3 C 9,8 km/h (2 Bft)
20.02.2016 20:03 3,8 C 3,1 C 90 % 1018,9 hPa 0,0 mm 10,7 km/h (2 Bft) W-NW 292 0 min 2,3 C 11,9 km/h (2 Bft)
20.02.2016 20:04 3,8 C 3,1 C 90 % 1018,9 hPa 0,0 mm 10,7 km/h (2 Bft) W-NW 292 0 min 2,3 C 11,9 km/h (2 Bft)
20.02.2016 20:05 3,8 C 3,2 C 90 % 1018,9 hPa 0,0 mm 10,4 km/h (2 Bft) W-SW 247 0 min 2,3 C 11,0 km/h (2 Bft)
20.02.2016 20:06 3,8 C 3,2 C 90 % 1018,9 hPa 0,0 mm 10,4 km/h (2 Bft) W-SW 247 0 min 2,3 C 11,0 km/h (2 Bft)
20.02.2016 20:07 3,9 C 3,2 C 90 % 1018,9 hPa 0,0 mm 10,4 km/h (2 Bft) W-SW 247 0 min 2,4 C 11,6 km/h (2 Bft)
20.02.2016 20:08 3,9 C 3,2 C 90 % 1018,9 hPa 0,0 mm 10,4 km/h (2 Bft) W-SW 247 0 min 2,4 C 11,6 km/h (2 Bft)
20.02.2016 20:09 3,9 C 3,3 C 90 % 1018,9 hPa 0,0 mm 10,1 km/h (2 Bft) W 270 0 min 2,4 C 12,5 km/h (3 Bft)
20.02.2016 20:10 3,9 C 3,3 C 90 % 1018,9 hPa 0,0 mm 10,1 km/h (2 Bft) W 270 0 min 2,4 C 12,5 km/h (3 Bft)
20.02.2016 20:11 3,8 C 3,2 C 90 % 1018,9 hPa 0,0 mm 10,1 km/h (2 Bft) W-NW 292 0 min 2,3 C 11,0 km/h (2 Bft)
20.02.2016 20:12 3,8 C 3,2 C 90 % 1018,9 hPa 0,0 mm 10,1 km/h (2 Bft) W-NW 292 0 min 2,3 C 11,0 km/h (2 Bft)
20.02.2016 20:13 3,9 C 3,3 C 90 % 1018,9 hPa 0,0 mm 10,1 km/h (2 Bft) W 270 0 min 2,4 C 15,2 km/h (3 Bft)
20.02.2016 20:14 3,9 C 3,3 C 90 % 1018,9 hPa 0,0 mm 10,1 km/h (2 Bft) W 270 0 min 2,4 C 15,2 km/h (3 Bft)
20.02.2016 20:15 3,9 C 3,2 C 90 % 1018,9 hPa 0,0 mm 11,0 km/h (2 Bft) S 180 0 min 2,4 C 13,1 km/h (3 Bft)
20.02.2016 20:16 3,9 C 3,2 C 90 % 1018,9 hPa 0,0 mm 11,0 km/h (2 Bft) S 180 0 min 2,4 C 13,1 km/h (3 Bft)
20.02.2016 20:17 4,0 C 3,3 C 90 % 1018,9 hPa 0,0 mm 11,3 km/h (2 Bft) W-NW 292 0 min 2,5 C 18,2 km/h (3 Bft)
20.02.2016 20:18 4,0 C 3,3 C 90 % 1018,9 hPa 0,0 mm 11,3 km/h (2 Bft) W-NW 292 0 min 2,5 C 18,2 km/h (3 Bft)
20.02.2016 20:19 4,0 C 3,3 C 90 % 1018,9 hPa 0,0 mm 11,0 km/h (2 Bft) W 270 0 min 2,5 C 8,3 km/h (2 Bft)
20.02.2016 20:20 4,0 C 3,3 C 90 % 1018,9 hPa 0,0 mm 11,0 km/h (2 Bft) W 270 0 min 2,5 C 8,3 km/h (2 Bft)
20.02.2016 20:21 4,0 C 3,4 C 90 % 1018,9 hPa 0,0 mm 10,7 km/h (2 Bft) W-SW 247 0 min 2,5 C 11,6 km/h (2 Bft)
20.02.2016 20:22 4,0 C 3,4 C 90 % 1018,9 hPa 0,0 mm 10,7 km/h (2 Bft) W-SW 247 0 min 2,5 C 11,6 km/h (2 Bft)
20.02.2016 20:23 3,9 C 3,3 C 90 % 1018,9 hPa 0,0 mm 11,0 km/h (2 Bft) S 180 0 min 2,4 C 18,2 km/h (3 Bft)
20.02.2016 20:24 3,9 C 3,3 C 90 % 1018,9 hPa 0,0 mm 11,0 km/h (2 Bft) S 180 0 min 2,4 C 18,2 km/h (3 Bft)
20.02.2016 20:25 4,0 C 3,4 C 90 % 1018,9 hPa 0,0 mm 10,1 km/h (2 Bft) W-SW 247 0 min 2,5 C 12,5 km/h (3 Bft)
20.02.2016 20:26 4,0 C 3,4 C 90 % 1018,9 hPa 0,0 mm 10,1 km/h (2 Bft) W-SW 247 0 min 2,5 C 12,5 km/h (3 Bft)
20.02.2016 20:28 4,0 C 3,4 C 90 % 1018,9 hPa 0,0 mm 9,5 km/h (2 Bft) NW 315 0 min 2,5 C 28,0 km/h (4 Bft)
20.02.2016 20:29 4,1 C 3,5 C 90 % 1018,9 hPa 0,0 mm 9,5 km/h (2 Bft) S-SW 202 0 min 2,6 C 16,4 km/h (3 Bft)
20.02.2016 20:30 4,1 C 3,5 C 90 % 1018,9 hPa 0,0 mm 9,5 km/h (2 Bft) S-SW 202 0 min 2,6 C 16,4 km/h (3 Bft)
20.02.2016 20:31 4,2 C 3,5 C 90 % 1018,9 hPa 0,0 mm 10,4 km/h (2 Bft) W-SW 247 0 min 2,7 C 16,7 km/h (3 Bft)
20.02.2016 20:32 4,2 C 3,5 C 90 % 1018,9 hPa 0,0 mm 10,4 km/h (2 Bft) W-SW 247 0 min 2,7 C 16,7 km/h (3 Bft)
20.02.2016 20:33 4,2 C 3,5 C 90 % 1018,9 hPa 0,7 mm 11,0 km/h (2 Bft) NW 315 0 min 2,7 C 12,2 km/h (2 Bft)
20.02.2016 20:34 4,2 C 3,5 C 90 % 1018,9 hPa 0,0 mm 11,0 km/h (2 Bft) NW 315 0 min 2,7 C 12,2 km/h (2 Bft)
20.02.2016 20:35 4,2 C 3,5 C 90 % 1018,9 hPa 0,0 mm 11,0 km/h (2 Bft) W 270 0 min 2,7 C 7,7 km/h (2 Bft)
20.02.2016 20:36 4,2 C 3,5 C 90 % 1018,9 hPa 0,0 mm 11,0 km/h (2 Bft) W 270 0 min 2,7 C 7,7 km/h (2 Bft)
20.02.2016 20:37 4,2 C 3,5 C 90 % 1018,9 hPa 0,0 mm 11,9 km/h (2 Bft) S 180 0 min 2,7 C 13,7 km/h (3 Bft)
20.02.2016 20:38 4,2 C 3,5 C 90 % 1018,9 hPa 0,0 mm 11,9 km/h (2 Bft) S 180 0 min 2,7 C 13,7 km/h (3 Bft)
20.02.2016 20:39 4,3 C 3,6 C 90 % 1018,9 hPa 0,0 mm 11,6 km/h (2 Bft) W 270 0 min 2,8 C 17,3 km/h (3 Bft)
20.02.2016 20:40 4,3 C 3,6 C 90 % 1018,9 hPa 0,0 mm 11,6 km/h (2 Bft) W 270 0 min 2,8 C 17,3 km/h (3 Bft)
20.02.2016 20:41 4,3 C 3,5 C 90 % 1018,9 hPa 0,0 mm 12,5 km/h (3 Bft) W 270 0 min 2,8 C 37,6 km/h (5 Bft)
20.02.2016 20:42 4,3 C 3,5 C 90 % 1018,9 hPa 0,0 mm 12,5 km/h (3 Bft) W 270 0 min 2,8 C 37,6 km/h (5 Bft)
20.02.2016 20:43 4,5 C 3,6 C 90 % 1019,2 hPa 0,0 mm 13,4 km/h (3 Bft) NW 315 0 min 3,0 C 18,2 km/h (3 Bft)
20.02.2016 20:44 4,5 C 3,6 C 90 % 1019,2 hPa 0,0 mm 13,4 km/h (3 Bft) NW 315 0 min 3,0 C 37,6 km/h (5 Bft)
20.02.2016 20:45 4,4 C 3,5 C 90 % 1019,2 hPa 0,0 mm 13,7 km/h (3 Bft) NW 315 0 min 2,9 C 31,3 km/h (5 Bft)
20.02.2016 20:46 4,4 C 3,5 C 90 % 1019,2 hPa 0,0 mm 13,7 km/h (3 Bft) NW 315 0 min 2,9 C 31,3 km/h (5 Bft)
20.02.2016 20:47 4,5 C 3,8 C 90 % 1019,2 hPa 0,0 mm 15,5 km/h (3 Bft) W-SW 247 0 min 3,0 C 14,9 km/h (3 Bft)
20.02.2016 20:48 4,5 C 3,5 C 90 % 1019,2 hPa 0,0 mm 15,5 km/h (3 Bft) W-SW 247 0 min 3,0 C 14,9 km/h (3 Bft)
20.02.2016 20:49 4,5 C 3,8 C 90 % 1019,2 hPa 0,0 mm 16,1 km/h (3 Bft) W-SW 247 0 min 3,0 C 24,1 km/h (4 Bft)
20.02.2016 20:50 4,5 C 3,5 C 90 % 1019,2 hPa 0,0 mm 16,1 km/h (3 Bft) W-SW 247 0 min 3,0 C 24,1 km/h (4 Bft)
20.02.2016 20:51 4,5 C 3,8 C 89 % 1019,2 hPa 0,0 mm 16,1 km/h (3 Bft) W 270 0 min 2,8 C 11,9 km/h (2 Bft)
20.02.2016 20:52 4,5 C 3,6 C 89 % 1019,2 hPa 0,0 mm 16,1 km/h (3 Bft) W 270 0 min 2,8 C 11,9 km/h (2 Bft)
20.02.2016 20:53 4,5 C 3,8 C 89 % 1019,2 hPa 0,0 mm 14,9 km/h (3 Bft) W-SW 247 0 min 2,8 C 21,8 km/h (4 Bft)
20.02.2016 20:54 4,5 C 3,6 C 89 % 1019,2 hPa 0,0 mm 14,9 km/h (3 Bft) W-SW 247 0 min 2,8 C 21,8 km/h (4 Bft)
20.02.2016 20:55 4,6 C 3,9 C 89 % 1019,2 hPa 0,0 mm 15,8 km/h (3 Bft) SW 225 0 min 2,9 C 24,1 km/h (4 Bft)
20.02.2016 20:56 4,6 C 3,6 C 89 % 1019,2 hPa 0,0 mm 15,8 km/h (3 Bft) SW 225 0 min 2,9 C 24,1 km/h (4 Bft)
20.02.2016 20:57 4,6 C 3,9 C 89 % 1019,2 hPa 0,0 mm 16,7 km/h (3 Bft) W-SW 247 0 min 2,9 C 25,0 km/h (4 Bft)
20.02.2016 20:58 4,6 C 3,6 C 89 % 1019,2 hPa 0,0 mm 16,7 km/h (3 Bft) W-SW 247 0 min 2,9 C 25,0 km/h (4 Bft)
20.02.2016 20:59 4,7 C 3,9 C 89 % 1019,2 hPa 0,0 mm 17,0 km/h (3 Bft) W-SW 247 0 min 3,0 C 26,2 km/h (4 Bft)
20.02.2016 21:00 4,7 C 3,7 C 89 % 1019,2 hPa 0,0 mm 17,0 km/h (3 Bft) W-SW 247 0 min 3,0 C 26,2 km/h (4 Bft)
20.02.2016 21:01 4,7 C 3,9 C 89 % 1019,2 hPa 0,0 mm 17,3 km/h (3 Bft) W 270 0 min 3,0 C 25,0 km/h (4 Bft)
20.02.2016 21:02 4,7 C 3,7 C 89 % 1019,2 hPa 0,0 mm 17,3 km/h (3 Bft) W 270 0 min 3,0 C 25,0 km/h (4 Bft)
20.02.2016 21:03 4,7 C 3,7 C 89 % 1018,9 hPa 0,7 mm 17,6 km/h (3 Bft) W-SW 247 0 min 3,0 C 15,8 km/h (3 Bft)
20.02.2016 21:04 4,7 C 3,7 C 89 % 1018,9 hPa 0,0 mm 17,6 km/h (3 Bft) W-SW 247 0 min 3,0 C 39,9 km/h (6 Bft)
20.02.2016 21:05 4,7 C 3,9 C 89 % 1018,9 hPa 0,0 mm 16,7 km/h (3 Bft) SO 135 0 min 3,0 C 15,5 km/h (3 Bft)
20.02.2016 21:06 4,7 C 3,7 C 89 % 1018,9 hPa 0,0 mm 16,7 km/h (3 Bft) SO 135 0 min 3,0 C 15,5 km/h (3 Bft)
20.02.2016 21:07 4,7 C 4,0 C 89 % 1018,9 hPa 0,0 mm 16,1 km/h (3 Bft) NW 315 0 min 3,0 C 19,7 km/h (3 Bft)
20.02.2016 21:08 4,7 C 3,7 C 89 % 1018,9 hPa 0,0 mm 16,1 km/h (3 Bft) NW 315 0 min 3,0 C 19,7 km/h (3 Bft)
20.02.2016 21:09 4,7 C 4,0 C 89 % 1018,9 hPa 0,0 mm 16,4 km/h (3 Bft) W 270 0 min 3,0 C 19,1 km/h (3 Bft)
20.02.2016 21:10 4,7 C 3,8 C 89 % 1018,9 hPa 0,0 mm 16,4 km/h (3 Bft) W 270 0 min 3,0 C 19,1 km/h (3 Bft)
20.02.2016 21:11 4,7 C 3,8 C 89 % 1018,9 hPa 0,0 mm 15,8 km/h (3 Bft) SW 225 0 min 3,0 C 23,2 km/h (4 Bft)
20.02.2016 21:12 4,7 C 3,8 C 89 % 1018,9 hPa 0,0 mm 15,8 km/h (3 Bft) SW 225 0 min 3,0 C 23,2 km/h (4 Bft)
20.02.2016 21:13 4,7 C 3,8 C 89 % 1018,9 hPa 0,0 mm 16,1 km/h (3 Bft) W-SW 247 0 min 3,0 C 40,5 km/h (6 Bft)
20.02.2016 21:14 4,7 C 3,8 C 89 % 1018,9 hPa 0,0 mm 16,1 km/h (3 Bft) W-SW 247 0 min 3,0 C 40,5 km/h (6 Bft)
20.02.2016 21:15 4,7 C 3,8 C 89 % 1018,9 hPa 0,0 mm 16,1 km/h (3 Bft) W 270 0 min 3,0 C 15,5 km/h (3 Bft)
20.02.2016 21:16 4,7 C 3,8 C 89 % 1018,9 hPa 0,0 mm 16,1 km/h (3 Bft) W 270 0 min 3,0 C 15,5 km/h (3 Bft)
20.02.2016 21:17 4,8 C 4,1 C 89 % 1018,9 hPa 0,0 mm 17,3 km/h (3 Bft) W-SW 247 0 min 3,1 C 27,7 km/h (4 Bft)
20.02.2016 21:18 4,8 C 3,8 C 89 % 1018,9 hPa 0,0 mm 17,3 km/h (3 Bft) W-SW 247 0 min 3,1 C 27,7 km/h (4 Bft)
20.02.2016 21:19 4,9 C 3,9 C 89 % 1018,9 hPa 0,0 mm 17,0 km/h (3 Bft) NW 315 0 min 3,2 C 20,3 km/h (4 Bft)
20.02.2016 21:20 4,9 C 3,9 C 89 % 1018,9 hPa 0,0 mm 17,0 km/h (3 Bft) NW 315 0 min 3,2 C 20,3 km/h (4 Bft)
20.02.2016 21:21 4,9 C 3,9 C 89 % 1018,9 hPa 0,0 mm 18,2 km/h (3 Bft) W-SW 247 0 min 3,2 C 33,7 km/h (5 Bft)
20.02.2016 21:22 4,9 C 3,9 C 89 % 1018,9 hPa 0,0 mm 18,2 km/h (3 Bft) W-SW 247 0 min 3,2 C 33,7 km/h (5 Bft)
20.02.2016 21:23 4,9 C 3,9 C 88 % 1018,8 hPa 0,0 mm 18,2 km/h (3 Bft) W-SW 247 0 min 3,1 C 17,9 km/h (3 Bft)
20.02.2016 21:24 4,9 C 3,9 C 88 % 1018,8 hPa 0,0 mm 18,2 km/h (3 Bft) W-SW 247 0 min 3,1 C 17,9 km/h (3 Bft)
20.02.2016 21:25 4,8 C 4,1 C 88 % 1018,8 hPa 0,0 mm 17,0 km/h (3 Bft) W-SW 247 0 min 3,0 C 17,9 km/h (3 Bft)
20.02.2016 21:26 4,8 C 3,8 C 88 % 1018,8 hPa 0,0 mm 17,0 km/h (3 Bft) W-SW 247 0 min 3,0 C 17,9 km/h (3 Bft)
20.02.2016 21:27 4,9 C 3,9 C 88 % 1018,8 hPa 0,0 mm 17,0 km/h (3 Bft) SW 225 0 min 3,1 C 31,0 km/h (5 Bft)
20.02.2016 21:28 4,9 C 3,9 C 88 % 1018,8 hPa 0,0 mm 17,0 km/h (3 Bft) SW 225 0 min 3,1 C 31,0 km/h (5 Bft)
20.02.2016 21:29 5,0 C 4,2 C 88 % 1018,8 hPa 0,0 mm 17,9 km/h (3 Bft) W-SW 247 0 min 3,2 C 35,5 km/h (5 Bft)
20.02.2016 21:30 5,0 C 3,9 C 88 % 1018,8 hPa 0,0 mm 17,9 km/h (3 Bft) W-SW 247 0 min 3,2 C 35,5 km/h (5 Bft)
20.02.2016 21:31 5,0 C 3,9 C 88 % 1018,8 hPa 0,0 mm 18,2 km/h (3 Bft) W 270 0 min 3,2 C 23,8 km/h (4 Bft)
20.02.2016 21:32 5,0 C 3,9 C 88 % 1018,8 hPa 0,0 mm 18,2 km/h (3 Bft) W 270 0 min 3,2 C 23,8 km/h (4 Bft)
20.02.2016 21:33 5,0 C 4,2 C 87 % 1018,8 hPa 0,0 mm 17,3 km/h (3 Bft) SW 225 0 min 3,0 C 27,1 km/h (4 Bft)
20.02.2016 21:34 5,0 C 4,0 C 87 % 1018,8 hPa 0,0 mm 17,3 km/h (3 Bft) SW 225 0 min 3,0 C 47,7 km/h (6 Bft)
20.02.2016 21:35 5,0 C 4,2 C 87 % 1018,8 hPa 0,0 mm 18,2 km/h (3 Bft) W-SW 247 0 min 3,0 C 22,9 km/h (4 Bft)
20.02.2016 21:36 5,0 C 3,9 C 87 % 1018,8 hPa 0,0 mm 18,2 km/h (3 Bft) W-SW 247 0 min 3,0 C 22,9 km/h (4 Bft)
20.02.2016 21:37 5,0 C 3,9 C 87 % 1018,8 hPa 0,7 mm 18,8 km/h (3 Bft) W 270 0 min 3,0 C 22,4 km/h (4 Bft)
20.02.2016 21:38 5,0 C 3,9 C 87 % 1018,8 hPa 0,0 mm 18,8 km/h (3 Bft) W 270 0 min 3,0 C 22,4 km/h (4 Bft)
20.02.2016 21:39 5,0 C 3,9 C 87 % 1018,8 hPa 0,0 mm 18,5 km/h (3 Bft) W-SW 247 0 min 3,0 C 22,4 km/h (4 Bft)
20.02.2016 21:40 5,0 C 3,9 C 87 % 1018,8 hPa 0,0 mm 18,5 km/h (3 Bft) W-SW 247 0 min 3,0 C 22,4 km/h (4 Bft)
20.02.2016 21:41 5,0 C 4,2 C 87 % 1018,8 hPa 0,0 mm 17,3 km/h (3 Bft) W 270 0 min 3,0 C 19,1 km/h (3 Bft)
20.02.2016 21:42 5,0 C 4,0 C 87 % 1018,8 hPa 0,0 mm 17,3 km/h (3 Bft) W 270 0 min 3,0 C 19,1 km/h (3 Bft)
20.02.2016 21:43 5,0 C 4,0 C 87 % 1018,5 hPa 0,0 mm 17,9 km/h (3 Bft) W 270 0 min 3,0 C 17,6 km/h (3 Bft)
20.02.2016 21:44 5,0 C 4,0 C 87 % 1018,5 hPa 0,0 mm 17,9 km/h (3 Bft) W 270 0 min 3,0 C 17,6 km/h (3 Bft)
20.02.2016 21:45 5,0 C 4,3 C 87 % 1018,5 hPa 0,0 mm 16,7 km/h (3 Bft) W 270 0 min 3,0 C 15,2 km/h (3 Bft)
20.02.2016 21:46 5,0 C 4,0 C 87 % 1018,5 hPa 0,0 mm 16,7 km/h (3 Bft) W 270 0 min 3,0 C 15,2 km/h (3 Bft)
20.02.2016 21:47 5,0 C 4,3 C 87 % 1018,5 hPa 0,0 mm 16,1 km/h (3 Bft) W-SW 247 0 min 3,0 C 23,2 km/h (4 Bft)
20.02.2016 21:48 5,0 C 4,1 C 87 % 1018,5 hPa 0,0 mm 16,1 km/h (3 Bft) W-SW 247 0 min 3,0 C 23,2 km/h (4 Bft)
20.02.2016 21:49 5,0 C 4,3 C 87 % 1018,5 hPa 0,0 mm 15,8 km/h (3 Bft) W-SW 247 0 min 3,0 C 17,0 km/h (3 Bft)
20.02.2016 21:50 5,0 C 4,1 C 87 % 1018,5 hPa 0,0 mm 15,8 km/h (3 Bft) W-SW 247 0 min 3,0 C 17,0 km/h (3 Bft)
20.02.2016 21:51 5,0 C 4,3 C 87 % 1018,5 hPa 0,0 mm 14,9 km/h (3 Bft) W-SW 247 0 min 3,0 C 11,6 km/h (2 Bft)
20.02.2016 21:52 5,0 C 4,1 C 87 % 1018,5 hPa 0,0 mm 14,9 km/h (3 Bft) W-SW 247 0 min 3,0 C 11,6 km/h (2 Bft)
20.02.2016 21:53 5,0 C 4,3 C 87 % 1018,5 hPa 0,0 mm 15,5 km/h (3 Bft) W 270 0 min 3,0 C 22,4 km/h (4 Bft)
20.02.2016 21:54 5,0 C 4,1 C 87 % 1018,5 hPa 0,0 mm 15,5 km/h (3 Bft) W 270 0 min 3,0 C 48,0 km/h (6 Bft)
20.02.2016 21:55 5,3 C 4,5 C 87 % 1018,5 hPa 0,0 mm 16,1 km/h (3 Bft) W 270 0 min 3,3 C 22,1 km/h (4 Bft)
20.02.2016 21:56 5,3 C 4,3 C 87 % 1018,5 hPa 0,0 mm 16,1 km/h (3 Bft) W 270 0 min 3,3 C 22,1 km/h (4 Bft)
20.02.2016 21:57 5,3 C 4,5 C 87 % 1018,5 hPa 0,0 mm 17,0 km/h (3 Bft) W-NW 292 0 min 3,3 C 21,5 km/h (4 Bft)
20.02.2016 21:58 5,3 C 4,2 C 87 % 1018,5 hPa 0,0 mm 17,0 km/h (3 Bft) W-NW 292 0 min 3,3 C 21,5 km/h (4 Bft)
20.02.2016 21:59 5,3 C 4,5 C 87 % 1018,5 hPa 0,0 mm 17,9 km/h (3 Bft) W-SW 247 0 min 3,3 C 15,2 km/h (3 Bft)
20.02.2016 22:00 5,3 C 4,2 C 87 % 1018,5 hPa 0,0 mm 17,9 km/h (3 Bft) W-SW 247 0 min 3,3 C 15,2 km/h (3 Bft)
20.02.2016 22:01 5,3 C 4,5 C 87 % 1018,5 hPa 0,0 mm 18,5 km/h (3 Bft) W 270 0 min 3,3 C 41,7 km/h (6 Bft)
20.02.2016 22:02 5,3 C 4,2 C 87 % 1018,5 hPa 0,0 mm 18,5 km/h (3 Bft) W 270 0 min 3,3 C 41,7 km/h (6 Bft)
20.02.2016 22:03 5,3 C 4,4 C 86 % 1018,5 hPa 0,0 mm 20,0 km/h (4 Bft) W-SW 247 0 min 3,2 C 26,2 km/h (4 Bft)
20.02.2016 22:04 5,3 C 4,1 C 86 % 1018,5 hPa 0,0 mm 20,0 km/h (4 Bft) W-SW 247 0 min 3,2 C 26,2 km/h (4 Bft)
20.02.2016 22:05 5,3 C 4,5 C 86 % 1018,5 hPa 0,0 mm 17,9 km/h (3 Bft) W-SW 247 0 min 3,2 C 26,2 km/h (4 Bft)
20.02.2016 22:06 5,3 C 4,3 C 86 % 1018,5 hPa 0,0 mm 17,9 km/h (3 Bft) W-SW 247 0 min 3,2 C 26,2 km/h (4 Bft)
20.02.2016 22:07 5,3 C 4,3 C 86 % 1018,5 hPa 0,0 mm 17,3 km/h (3 Bft) W 270 0 min 3,2 C 16,4 km/h (3 Bft)
20.02.2016 22:08 5,3 C 4,3 C 86 % 1018,5 hPa 0,0 mm 17,3 km/h (3 Bft) W 270 0 min 3,2 C 16,4 km/h (3 Bft)
20.02.2016 22:09 5,3 C 4,3 C 86 % 1018,5 hPa 0,0 mm 17,9 km/h (3 Bft) W-SW 247 0 min 3,2 C 26,5 km/h (4 Bft)
20.02.2016 22:10 5,3 C 4,3 C 86 % 1018,5 hPa 0,0 mm 17,9 km/h (3 Bft) W-SW 247 0 min 3,2 C 26,5 km/h (4 Bft)
20.02.2016 22:11 5,3 C 4,5 C 86 % 1018,5 hPa 0,0 mm 18,5 km/h (3 Bft) SW 225 0 min 3,2 C 25,0 km/h (4 Bft)
20.02.2016 22:12 5,3 C 4,2 C 86 % 1018,5 hPa 0,0 mm 18,5 km/h (3 Bft) SW 225 0 min 3,2 C 25,0 km/h (4 Bft)
20.02.2016 22:13 5,4 C 4,6 C 86 % 1018,5 hPa 0,0 mm 19,1 km/h (3 Bft) NW 315 0 min 3,3 C 34,0 km/h (5 Bft)
20.02.2016 22:14 5,4 C 4,3 C 86 % 1018,5 hPa 0,0 mm 19,1 km/h (3 Bft) NW 315 0 min 3,3 C 34,0 km/h (5 Bft)
20.02.2016 22:15 5,3 C 4,5 C 86 % 1018,5 hPa 0,0 mm 18,8 km/h (3 Bft) W 270 0 min 3,2 C 24,7 km/h (4 Bft)
20.02.2016 22:16 5,3 C 4,2 C 86 % 1018,5 hPa 0,0 mm 18,8 km/h (3 Bft) W 270 0 min 3,2 C 24,7 km/h (4 Bft)
20.02.2016 22:17 5,3 C 4,5 C 86 % 1018,5 hPa 0,0 mm 17,9 km/h (3 Bft) N-NW 337 0 min 3,2 C 18,5 km/h (3 Bft)
20.02.2016 22:18 5,3 C 4,3 C 86 % 1018,5 hPa 0,0 mm 17,9 km/h (3 Bft) N-NW 337 0 min 3,2 C 18,5 km/h (3 Bft)
20.02.2016 22:19 5,3 C 4,3 C 86 % 1018,5 hPa 0,7 mm 17,6 km/h (3 Bft) SW 225 0 min 3,2 C 15,2 km/h (3 Bft)
20.02.2016 22:20 5,3 C 4,3 C 86 % 1018,5 hPa 0,0 mm 17,6 km/h (3 Bft) SW 225 0 min 3,2 C 15,2 km/h (3 Bft)
20.02.2016 22:21 5,3 C 4,6 C 86 % 1018,5 hPa 0,0 mm 16,4 km/h (3 Bft) NW 315 0 min 3,2 C 19,1 km/h (3 Bft)
20.02.2016 22:22 5,3 C 4,3 C 86 % 1018,5 hPa 0,0 mm 16,4 km/h (3 Bft) NW 315 0 min 3,2 C 19,1 km/h (3 Bft)
20.02.2016 22:23 5,3 C 4,6 C 86 % 1018,6 hPa 0,0 mm 15,5 km/h (3 Bft) W-NW 292 0 min 3,2 C 31,3 km/h (5 Bft)
20.02.2016 22:24 5,3 C 4,4 C 86 % 1018,6 hPa 0,0 mm 15,5 km/h (3 Bft) W-NW 292 0 min 3,2 C 31,3 km/h (5 Bft)
20.02.2016 22:25 5,3 C 4,6 C 86 % 1018,6 hPa 0,0 mm 14,3 km/h (3 Bft) NW 315 0 min 3,2 C 14,6 km/h (3 Bft)
20.02.2016 22:26 5,3 C 4,4 C 86 % 1018,6 hPa 0,0 mm 14,3 km/h (3 Bft) NW 315 0 min 3,2 C 14,6 km/h (3 Bft)
20.02.2016 22:27 5,2 C 4,4 C 86 % 1018,6 hPa 0,0 mm 13,4 km/h (3 Bft) W 270 0 min 3,1 C 21,8 km/h (4 Bft)
20.02.2016 22:28 5,2 C 4,4 C 86 % 1018,6 hPa 0,0 mm 13,4 km/h (3 Bft) W 270 0 min 3,1 C 21,8 km/h (4 Bft)
20.02.2016 22:29 5,3 C 4,5 C 86 % 1018,6 hPa 0,0 mm 13,7 km/h (3 Bft) W 270 0 min 3,2 C 16,4 km/h (3 Bft)
20.02.2016 22:30 5,3 C 4,5 C 86 % 1018,6 hPa 0,0 mm 13,7 km/h (3 Bft) W 270 0 min 3,2 C 16,4 km/h (3 Bft)
20.02.2016 22:31 5,3 C 4,7 C 87 % 1018,6 hPa 0,0 mm 14,3 km/h (3 Bft) W-SW 247 0 min 3,3 C 28,0 km/h (4 Bft)
20.02.2016 22:32 5,3 C 4,4 C 87 % 1018,6 hPa 0,0 mm 14,3 km/h (3 Bft) W-SW 247 0 min 3,3 C 28,0 km/h (4 Bft)
20.02.2016 22:33 5,3 C 4,4 C 87 % 1018,6 hPa 0,0 mm 14,6 km/h (3 Bft) W-SW 247 0 min 3,3 C 17,0 km/h (3 Bft)
20.02.2016 22:34 5,3 C 4,4 C 87 % 1018,6 hPa 0,0 mm 14,6 km/h (3 Bft) W-SW 247 0 min 3,3 C 17,0 km/h (3 Bft)
20.02.2016 22:35 5,3 C 4,5 C 87 % 1018,6 hPa 0,0 mm 14,0 km/h (3 Bft) S-SW 202 0 min 3,3 C 17,9 km/h (3 Bft)
20.02.2016 22:36 5,3 C 4,5 C 87 % 1018,6 hPa 0,0 mm 14,0 km/h (3 Bft) S-SW 202 0 min 3,3 C 17,9 km/h (3 Bft)
20.02.2016 22:37 5,3 C 4,7 C 87 % 1018,6 hPa 0,0 mm 14,6 km/h (3 Bft) W 270 0 min 3,3 C 11,9 km/h (2 Bft)
20.02.2016 22:38 5,3 C 4,4 C 87 % 1018,6 hPa 0,0 mm 14,6 km/h (3 Bft) W 270 0 min 3,3 C 11,9 km/h (2 Bft)
20.02.2016 22:39 5,3 C 4,6 C 87 % 1018,6 hPa 0,0 mm 15,5 km/h (3 Bft) W 270 0 min 3,3 C 28,3 km/h (4 Bft)
20.02.2016 22:40 5,3 C 4,4 C 87 % 1018,6 hPa 0,0 mm 15,5 km/h (3 Bft) W 270 0 min 3,3 C 28,3 km/h (4 Bft)
20.02.2016 22:41 5,3 C 4,4 C 87 % 1018,6 hPa 0,0 mm 15,5 km/h (3 Bft) W 270 0 min 3,3 C 28,0 km/h (4 Bft)
20.02.2016 22:42 5,3 C 4,4 C 87 % 1018,6 hPa 0,0 mm 15,5 km/h (3 Bft) W 270 0 min 3,3 C 28,0 km/h (4 Bft)
20.02.2016 22:43 5,4 C 4,5 C 87 % 1018,4 hPa 0,0 mm 15,5 km/h (3 Bft) W-SW 247 0 min 3,4 C 20,3 km/h (4 Bft)
20.02.2016 22:44 5,4 C 4,5 C 87 % 1018,4 hPa 0,0 mm 15,5 km/h (3 Bft) W-SW 247 0 min 3,4 C 20,3 km/h (4 Bft)
20.02.2016 22:45 5,4 C 4,5 C 87 % 1018,4 hPa 0,0 mm 15,8 km/h (3 Bft) S-SW 202 0 min 3,4 C 17,3 km/h (3 Bft)
20.02.2016 22:46 5,4 C 4,5 C 87 % 1018,4 hPa 0,0 mm 15,8 km/h (3 Bft) S-SW 202 0 min 3,4 C 17,3 km/h (3 Bft)
20.02.2016 22:47 5,5 C 4,5 C 87 % 1018,4 hPa 0,0 mm 16,4 km/h (3 Bft) W-SW 247 0 min 3,5 C 15,8 km/h (3 Bft)
20.02.2016 22:48 5,5 C 4,5 C 87 % 1018,4 hPa 0,0 mm 16,4 km/h (3 Bft) W-SW 247 0 min 3,5 C 15,8 km/h (3 Bft)
20.02.2016 22:49 5,5 C 4,5 C 87 % 1018,4 hPa 0,0 mm 16,4 km/h (3 Bft) W-NW 292 0 min 3,5 C 17,3 km/h (3 Bft)
20.02.2016 22:50 5,5 C 4,5 C 87 % 1018,4 hPa 0,0 mm 16,4 km/h (3 Bft) W-NW 292 0 min 3,5 C 17,3 km/h (3 Bft)
20.02.2016 22:51 5,5 C 4,8 C 87 % 1018,4 hPa 0,0 mm 17,0 km/h (3 Bft) W 270 0 min 3,5 C 18,2 km/h (3 Bft)
20.02.2016 22:52 5,5 C 4,5 C 87 % 1018,4 hPa 0,0 mm 17,0 km/h (3 Bft) W 270 0 min 3,5 C 18,2 km/h (3 Bft)
20.02.2016 22:53 5,5 C 4,5 C 86 % 1018,4 hPa 0,0 mm 17,3 km/h (3 Bft) W 270 0 min 3,3 C 27,1 km/h (4 Bft)
20.02.2016 22:54 5,5 C 4,5 C 86 % 1018,4 hPa 0,0 mm 17,3 km/h (3 Bft) W 270 0 min 3,3 C 27,1 km/h (4 Bft)
20.02.2016 22:55 5,5 C 4,5 C 86 % 1018,4 hPa 0,0 mm 17,6 km/h (3 Bft) NW 315 0 min 3,3 C 26,5 km/h (4 Bft)
20.02.2016 22:56 5,5 C 4,5 C 86 % 1018,4 hPa 0,0 mm 17,6 km/h (3 Bft) NW 315 0 min 3,3 C 26,5 km/h (4 Bft)
20.02.2016 22:57 5,5 C 4,5 C 86 % 1018,4 hPa 0,0 mm 17,6 km/h (3 Bft) W-NW 292 0 min 3,3 C 19,4 km/h (3 Bft)
20.02.2016 22:58 5,5 C 4,5 C 86 % 1018,4 hPa 0,0 mm 17,6 km/h (3 Bft) W-NW 292 0 min 3,3 C 19,4 km/h (3 Bft)
20.02.2016 22:59 5,5 C 4,8 C 86 % 1018,4 hPa 0,0 mm 17,3 km/h (3 Bft) W 270 0 min 3,3 C 20,3 km/h (4 Bft)
20.02.2016 23:00 5,5 C 4,5 C 86 % 1018,4 hPa 0,0 mm 17,3 km/h (3 Bft) W 270 0 min 3,3 C 20,3 km/h (4 Bft)
20.02.2016 23:01 5,5 C 4,5 C 86 % 1018,4 hPa 0,0 mm 17,0 km/h (3 Bft) W-SW 247 0 min 3,3 C 21,8 km/h (4 Bft)
20.02.2016 23:02 5,5 C 4,5 C 86 % 1018,4 hPa 0,0 mm 17,0 km/h (3 Bft) W-SW 247 0 min 3,3 C 21,8 km/h (4 Bft)
20.02.2016 23:03 5,6 C 4,6 C 86 % 1018,6 hPa 0,0 mm 17,0 km/h (3 Bft) W 270 0 min 3,4 C 19,1 km/h (3 Bft)
20.02.2016 23:04 5,6 C 4,6 C 86 % 1018,6 hPa 0,0 mm 17,0 km/h (3 Bft) W 270 0 min 3,4 C 19,1 km/h (3 Bft)
20.02.2016 23:05 5,6 C 4,9 C 86 % 1018,6 hPa 0,0 mm 15,5 km/h (3 Bft) W-NW 292 0 min 3,4 C 9,8 km/h (2 Bft)
20.02.2016 23:06 5,6 C 4,7 C 86 % 1018,6 hPa 0,0 mm 15,5 km/h (3 Bft) W-NW 292 0 min 3,4 C 9,8 km/h (2 Bft)
20.02.2016 23:07 5,5 C 4,9 C 86 % 1018,6 hPa 0,0 mm 14,6 km/h (3 Bft) W-SW 247 0 min 3,3 C 17,3 km/h (3 Bft)
20.02.2016 23:08 5,5 C 4,7 C 86 % 1018,6 hPa 0,0 mm 14,6 km/h (3 Bft) W-SW 247 0 min 3,3 C 17,3 km/h (3 Bft)
20.02.2016 23:09 5,6 C 4,7 C 86 % 1018,6 hPa 0,0 mm 14,6 km/h (3 Bft) W-SW 247 0 min 3,4 C 14,9 km/h (3 Bft)
20.02.2016 23:10 5,6 C 4,7 C 86 % 1018,6 hPa 0,0 mm 14,6 km/h (3 Bft) W-SW 247 0 min 3,4 C 14,9 km/h (3 Bft)
20.02.2016 23:11 5,6 C 4,8 C 86 % 1018,6 hPa 0,0 mm 13,7 km/h (3 Bft) NW 315 0 min 3,4 C 9,8 km/h (2 Bft)
20.02.2016 23:12 5,6 C 4,8 C 86 % 1018,6 hPa 0,0 mm 13,7 km/h (3 Bft) NW 315 0 min 3,4 C 9,8 km/h (2 Bft)
20.02.2016 23:13 5,6 C 4,8 C 86 % 1018,6 hPa 0,0 mm 13,4 km/h (3 Bft) SW 225 0 min 3,4 C 22,9 km/h (4 Bft)
20.02.2016 23:14 5,6 C 4,8 C 86 % 1018,6 hPa 0,0 mm 13,4 km/h (3 Bft) SW 225 0 min 3,4 C 22,9 km/h (4 Bft)
20.02.2016 23:15 5,6 C 4,9 C 86 % 1018,6 hPa 0,0 mm 12,5 km/h (3 Bft) W 270 0 min 3,4 C 14,3 km/h (3 Bft)
20.02.2016 23:16 5,6 C 4,9 C 86 % 1018,6 hPa 0,0 mm 12,5 km/h (3 Bft) W 270 0 min 3,4 C 14,3 km/h (3 Bft)
20.02.2016 23:17 5,6 C 4,8 C 86 % 1018,6 hPa 0,0 mm 14,0 km/h (3 Bft) W-NW 292 0 min 3,4 C 27,1 km/h (4 Bft)
20.02.2016 23:18 5,6 C 4,8 C 86 % 1018,6 hPa 0,0 mm 14,0 km/h (3 Bft) W-NW 292 0 min 3,4 C 27,1 km/h (4 Bft)
20.02.2016 23:19 5,7 C 4,9 C 86 % 1018,6 hPa 0,0 mm 13,7 km/h (3 Bft) W 270 0 min 3,5 C 14,9 km/h (3 Bft)
20.02.2016 23:20 5,7 C 4,9 C 86 % 1018,6 hPa 0,0 mm 13,7 km/h (3 Bft) W 270 0 min 3,5 C 14,9 km/h (3 Bft)
20.02.2016 23:21 5,7 C 5,1 C 86 % 1018,6 hPa 0,0 mm 14,3 km/h (3 Bft) W-SW 247 0 min 3,5 C 22,4 km/h (4 Bft)
20.02.2016 23:22 5,7 C 4,9 C 86 % 1018,6 hPa 0,0 mm 14,3 km/h (3 Bft) W-SW 247 0 min 3,5 C 22,4 km/h (4 Bft)
20.02.2016 23:23 5,7 C 5,1 C 86 % 1018,6 hPa 0,0 mm 14,9 km/h (3 Bft) W 270 0 min 3,5 C 12,8 km/h (3 Bft)
20.02.2016 23:24 5,7 C 4,8 C 86 % 1018,6 hPa 0,0 mm 14,9 km/h (3 Bft) W 270 0 min 3,5 C 12,8 km/h (3 Bft)
20.02.2016 23:25 5,7 C 5,0 C 86 % 1018,6 hPa 0,0 mm 16,1 km/h (3 Bft) W-NW 292 0 min 3,5 C 24,7 km/h (4 Bft)
20.02.2016 23:26 5,7 C 4,8 C 86 % 1018,6 hPa 0,0 mm 16,1 km/h (3 Bft) W-NW 292 0 min 3,5 C 24,7 km/h (4 Bft)
20.02.2016 23:27 5,7 C 5,0 C 86 % 1018,6 hPa 0,0 mm 17,0 km/h (3 Bft) W-SW 247 0 min 3,5 C 22,9 km/h (4 Bft)
20.02.2016 23:28 5,7 C 5,0 C 86 % 1018,6 hPa 0,0 mm 15,8 km/h (3 Bft) W-SW 247 0 min 3,5 C 16,1 km/h (3 Bft)
20.02.2016 23:30 5,7 C 4,8 C 86 % 1018,6 hPa 0,0 mm 15,8 km/h (3 Bft) W-SW 247 0 min 3,5 C 16,1 km/h (3 Bft)
20.02.2016 23:31 5,8 C 4,9 C 86 % 1018,6 hPa 0,0 mm 16,4 km/h (3 Bft) W 270 0 min 3,6 C 19,4 km/h (3 Bft)
20.02.2016 23:32 5,8 C 4,9 C 86 % 1018,6 hPa 0,0 mm 16,4 km/h (3 Bft) W 270 0 min 3,6 C 19,4 km/h (3 Bft)
20.02.2016 23:33 5,8 C 5,1 C 86 % 1018,6 hPa 0,0 mm 15,5 km/h (3 Bft) W 270 0 min 3,6 C 10,4 km/h (2 Bft)
20.02.2016 23:34 5,8 C 4,9 C 86 % 1018,6 hPa 0,0 mm 15,5 km/h (3 Bft) W 270 0 min 3,6 C 10,4 km/h (2 Bft)
20.02.2016 23:35 5,8 C 5,1 C 86 % 1018,6 hPa 0,0 mm 16,7 km/h (3 Bft) W 270 0 min 3,6 C 20,3 km/h (4 Bft)
20.02.2016 23:36 5,8 C 4,9 C 86 % 1018,6 hPa 0,0 mm 16,7 km/h (3 Bft) W 270 0 min 3,6 C 20,3 km/h (4 Bft)
20.02.2016 23:37 5,9 C 5,2 C 86 % 1018,6 hPa 0,0 mm 16,4 km/h (3 Bft) W-NW 292 0 min 3,7 C 14,6 km/h (3 Bft)
20.02.2016 23:38 5,9 C 5,0 C 86 % 1018,6 hPa 0,0 mm 16,4 km/h (3 Bft) W-NW 292 0 min 3,7 C 14,6 km/h (3 Bft)
20.02.2016 23:39 5,9 C 5,0 C 86 % 1018,6 hPa 0,0 mm 16,7 km/h (3 Bft) W-SW 247 0 min 3,7 C 17,3 km/h (3 Bft)
20.02.2016 23:40 5,9 C 5,0 C 86 % 1018,6 hPa 0,0 mm 16,7 km/h (3 Bft) W-SW 247 0 min 3,7 C 17,3 km/h (3 Bft)
20.02.2016 23:41 5,9 C 5,2 C 86 % 1018,6 hPa 0,0 mm 17,0 km/h (3 Bft) W 270 0 min 3,7 C 44,7 km/h (6 Bft)
20.02.2016 23:42 5,9 C 5,0 C 86 % 1018,6 hPa 0,0 mm 17,0 km/h (3 Bft) W 270 0 min 3,7 C 44,7 km/h (6 Bft)
20.02.2016 23:43 5,9 C 5,0 C 86 % 1018,8 hPa 0,0 mm 17,0 km/h (3 Bft) W-SW 247 0 min 3,7 C 16,4 km/h (3 Bft)
20.02.2016 23:44 5,9 C 5,0 C 86 % 1018,8 hPa 0,0 mm 17,0 km/h (3 Bft) W-SW 247 0 min 3,7 C 16,4 km/h (3 Bft)
20.02.2016 23:45 5,9 C 5,0 C 86 % 1018,8 hPa 0,0 mm 17,3 km/h (3 Bft) W-SW 247 0 min 3,7 C 25,0 km/h (4 Bft)
20.02.2016 23:46 5,9 C 5,0 C 86 % 1018,8 hPa 0,0 mm 17,3 km/h (3 Bft) W-SW 247 0 min 3,7 C 25,0 km/h (4 Bft)
20.02.2016 23:47 6,0 C 5,3 C 85 % 1018,8 hPa 0,0 mm 16,4 km/h (3 Bft) NO 45 0 min 3,7 C 14,0 km/h (3 Bft)
20.02.2016 23:48 6,0 C 5,1 C 85 % 1018,8 hPa 0,0 mm 16,4 km/h (3 Bft) NO 45 0 min 3,7 C 14,0 km/h (3 Bft)
20.02.2016 23:49 6,0 C 5,3 C 85 % 1018,8 hPa 0,0 mm 16,1 km/h (3 Bft) W 270 0 min 3,7 C 26,5 km/h (4 Bft)
20.02.2016 23:50 6,0 C 5,1 C 85 % 1018,8 hPa 0,0 mm 16,1 km/h (3 Bft) W 270 0 min 3,7 C 26,5 km/h (4 Bft)
20.02.2016 23:51 6,1 C 5,4 C 85 % 1018,8 hPa 0,0 mm 15,8 km/h (3 Bft) W 270 0 min 3,8 C 20,0 km/h (4 Bft)
20.02.2016 23:52 6,1 C 5,2 C 85 % 1018,8 hPa 0,0 mm 15,8 km/h (3 Bft) W 270 0 min 3,8 C 20,0 km/h (4 Bft)
20.02.2016 23:53 6,2 C 5,4 C 84 % 1018,8 hPa 0,0 mm 16,7 km/h (3 Bft) S-SW 202 0 min 3,7 C 28,6 km/h (4 Bft)
20.02.2016 23:54 6,2 C 5,2 C 84 % 1018,8 hPa 0,0 mm 16,7 km/h (3 Bft) S-SW 202 0 min 3,7 C 28,6 km/h (4 Bft)
20.02.2016 23:55 6,2 C 5,2 C 84 % 1018,8 hPa 0,0 mm 17,3 km/h (3 Bft) W 270 0 min 3,7 C 19,4 km/h (3 Bft)
20.02.2016 23:56 6,2 C 5,2 C 84 % 1018,8 hPa 0,0 mm 17,3 km/h (3 Bft) W 270 0 min 3,7 C 19,4 km/h (3 Bft)
20.02.2016 23:57 6,2 C 5,5 C 84 % 1018,8 hPa 0,0 mm 17,0 km/h (3 Bft) W 270 0 min 3,7 C 21,5 km/h (4 Bft)
20.02.2016 23:58 6,2 C 5,2 C 84 % 1018,8 hPa 0,0 mm 17,0 km/h (3 Bft) W 270 0 min 3,7 C 21,5 km/h (4 Bft)
20.02.2016 23:59 6,2 C 5,4 C 84 % 1018,8 hPa 0,0 mm 18,5 km/h (3 Bft) W 270 0 min 3,7 C 27,7 km/h (4 Bft)
_ Min-Zeit 07:02 07:02 12:28 23:02 - 13:34 - - - 07:06 19:08
Minimum _ -5,6 C -6,1 C 66 % 1018,4 hPa - 0,0 km/h (0 Bft) - - - -8,0 C 0,0 km/h (0 Bft)
_ Max-Zeit 23:59 11:26 20:50 03:02 22:19 22:04 - - 11:54 23:52 21:54
Maximum _ 6,2 C 5,8 C 90 % 1023,8 hPa 0,7 mm 20,0 km/h
W-SW (4 Bft)
- - 1 min 3,8 C 48,0 km/h
W (6 Bft)
Durchschnitt _ 0,6 C 0,5 C 82 % 1021,1 hPa #14,4 mm 5,2 km/h (1 Bft) W-SW - #1:34 h -2,1 C 7,0 km/h (2 Bft)